<?xml version="1.0" encoding="UTF-8" standalone="no" ?>
<gpx xmlns="http://www.topografix.com/GPX/1/1" xmlns:xsi="http://www.w3.org/2001/XMLSchema-instance" xsi:schemaLocation="http://www.topografix.com/GPX/1/1 http://www.topografix.com/GPX/1/1/gpx.xsd" version="1.1" creator="VisuGPX - https://www.visugpx.com">
  <metadata>
    <name>Soum de Picarre</name>
  </metadata>
  <trk>
    <name><![CDATA[Soum de Picarre]]></name>
    <trkseg>
      <trkpt lat="42.93366" lon="-0.17849">
        <ele>1001</ele>
        <time>2013-11-29T08:03:28Z</time>
      </trkpt>
      <trkpt lat="42.93366" lon="-0.17848">
        <ele>1002</ele>
        <time>2013-11-29T08:03:36Z</time>
      </trkpt>
      <trkpt lat="42.93366" lon="-0.1785">
        <ele>1002</ele>
        <time>2013-11-29T08:04:01Z</time>
      </trkpt>
      <trkpt lat="42.93364" lon="-0.17853">
        <ele>1001</ele>
        <time>2013-11-29T08:04:23Z</time>
      </trkpt>
      <trkpt lat="42.93367" lon="-0.17852">
        <ele>1002</ele>
        <time>2013-11-29T08:04:52Z</time>
      </trkpt>
      <trkpt lat="42.93365" lon="-0.17847">
        <ele>1002</ele>
        <time>2013-11-29T08:05:27Z</time>
      </trkpt>
      <trkpt lat="42.93361" lon="-0.17849">
        <ele>1003</ele>
        <time>2013-11-29T08:06:41Z</time>
      </trkpt>
      <trkpt lat="42.93365" lon="-0.17847">
        <ele>1003</ele>
        <time>2013-11-29T08:07:16Z</time>
      </trkpt>
      <trkpt lat="42.93366" lon="-0.17849">
        <ele>1004</ele>
        <time>2013-11-29T08:07:38Z</time>
      </trkpt>
      <trkpt lat="42.93367" lon="-0.1785">
        <ele>1004</ele>
        <time>2013-11-29T08:07:58Z</time>
      </trkpt>
      <trkpt lat="42.93365" lon="-0.17853">
        <ele>1004</ele>
        <time>2013-11-29T08:08:22Z</time>
      </trkpt>
      <trkpt lat="42.93364" lon="-0.17847">
        <ele>1004</ele>
        <time>2013-11-29T08:08:59Z</time>
      </trkpt>
      <trkpt lat="42.93364" lon="-0.1785">
        <ele>1004</ele>
        <time>2013-11-29T08:09:34Z</time>
      </trkpt>
      <trkpt lat="42.93362" lon="-0.17842">
        <ele>1004</ele>
        <time>2013-11-29T08:10:11Z</time>
      </trkpt>
      <trkpt lat="42.93367" lon="-0.17844">
        <ele>1004</ele>
        <time>2013-11-29T08:10:44Z</time>
      </trkpt>
      <trkpt lat="42.93365" lon="-0.17846">
        <ele>1005</ele>
        <time>2013-11-29T08:11:19Z</time>
      </trkpt>
      <trkpt lat="42.93364" lon="-0.17852">
        <ele>1006</ele>
        <time>2013-11-29T08:11:50Z</time>
      </trkpt>
      <trkpt lat="42.93365" lon="-0.17848">
        <ele>1005</ele>
        <time>2013-11-29T08:12:17Z</time>
      </trkpt>
      <trkpt lat="42.93369" lon="-0.17851">
        <ele>1006</ele>
        <time>2013-11-29T08:13:35Z</time>
      </trkpt>
      <trkpt lat="42.93459" lon="-0.17853">
        <ele>1002</ele>
        <time>2013-11-29T08:21:09Z</time>
      </trkpt>
      <trkpt lat="42.93487" lon="-0.17846">
        <ele>1002</ele>
        <time>2013-11-29T08:21:27Z</time>
      </trkpt>
      <trkpt lat="42.93636" lon="-0.17767">
        <ele>1010</ele>
        <time>2013-11-29T08:26:18Z</time>
      </trkpt>
      <trkpt lat="42.93635" lon="-0.17756">
        <ele>1013</ele>
        <time>2013-11-29T08:26:33Z</time>
      </trkpt>
      <trkpt lat="42.93633" lon="-0.17743">
        <ele>1016</ele>
        <time>2013-11-29T08:26:47Z</time>
      </trkpt>
      <trkpt lat="42.93633" lon="-0.17735">
        <ele>1019</ele>
        <time>2013-11-29T08:27:01Z</time>
      </trkpt>
      <trkpt lat="42.93633" lon="-0.17725">
        <ele>1022</ele>
        <time>2013-11-29T08:27:17Z</time>
      </trkpt>
      <trkpt lat="42.93638" lon="-0.17718">
        <ele>1025</ele>
        <time>2013-11-29T08:27:30Z</time>
      </trkpt>
      <trkpt lat="42.93646" lon="-0.17709">
        <ele>1029</ele>
        <time>2013-11-29T08:27:45Z</time>
      </trkpt>
      <trkpt lat="42.93652" lon="-0.17701">
        <ele>1032</ele>
        <time>2013-11-29T08:28:02Z</time>
      </trkpt>
      <trkpt lat="42.93649" lon="-0.17689">
        <ele>1034</ele>
        <time>2013-11-29T08:28:15Z</time>
      </trkpt>
      <trkpt lat="42.93642" lon="-0.17677">
        <ele>1035</ele>
        <time>2013-11-29T08:28:31Z</time>
      </trkpt>
      <trkpt lat="42.9365" lon="-0.17667">
        <ele>1037</ele>
        <time>2013-11-29T08:28:44Z</time>
      </trkpt>
      <trkpt lat="42.9365" lon="-0.17652">
        <ele>1039</ele>
        <time>2013-11-29T08:29:00Z</time>
      </trkpt>
      <trkpt lat="42.93645" lon="-0.17638">
        <ele>1042</ele>
        <time>2013-11-29T08:29:16Z</time>
      </trkpt>
      <trkpt lat="42.9364" lon="-0.17629">
        <ele>1044</ele>
        <time>2013-11-29T08:29:30Z</time>
      </trkpt>
      <trkpt lat="42.93637" lon="-0.17616">
        <ele>1046</ele>
        <time>2013-11-29T08:29:46Z</time>
      </trkpt>
      <trkpt lat="42.93634" lon="-0.17606">
        <ele>1048</ele>
        <time>2013-11-29T08:30:01Z</time>
      </trkpt>
      <trkpt lat="42.93632" lon="-0.17597">
        <ele>1051</ele>
        <time>2013-11-29T08:30:15Z</time>
      </trkpt>
      <trkpt lat="42.93629" lon="-0.17587">
        <ele>1053</ele>
        <time>2013-11-29T08:30:30Z</time>
      </trkpt>
      <trkpt lat="42.93622" lon="-0.17579">
        <ele>1056</ele>
        <time>2013-11-29T08:30:44Z</time>
      </trkpt>
      <trkpt lat="42.93617" lon="-0.17566">
        <ele>1060</ele>
        <time>2013-11-29T08:31:04Z</time>
      </trkpt>
      <trkpt lat="42.93609" lon="-0.17559">
        <ele>1063</ele>
        <time>2013-11-29T08:31:21Z</time>
      </trkpt>
      <trkpt lat="42.93599" lon="-0.17556">
        <ele>1066</ele>
        <time>2013-11-29T08:31:36Z</time>
      </trkpt>
      <trkpt lat="42.93595" lon="-0.17556">
        <ele>1065</ele>
        <time>2013-11-29T08:31:46Z</time>
      </trkpt>
      <trkpt lat="42.93595" lon="-0.17557">
        <ele>1067</ele>
        <time>2013-11-29T08:31:49Z</time>
      </trkpt>
      <trkpt lat="42.93593" lon="-0.17554">
        <ele>1066</ele>
        <time>2013-11-29T08:32:08Z</time>
      </trkpt>
      <trkpt lat="42.93592" lon="-0.17549">
        <ele>1063</ele>
        <time>2013-11-29T08:32:20Z</time>
      </trkpt>
      <trkpt lat="42.93592" lon="-0.17549">
        <ele>1069</ele>
        <time>2013-11-29T08:32:21Z</time>
      </trkpt>
      <trkpt lat="42.93592" lon="-0.17549">
        <ele>1066</ele>
        <time>2013-11-29T08:32:23Z</time>
      </trkpt>
      <trkpt lat="42.93595" lon="-0.17546">
        <ele>1067</ele>
        <time>2013-11-29T08:32:38Z</time>
      </trkpt>
      <trkpt lat="42.93603" lon="-0.1754">
        <ele>1069</ele>
        <time>2013-11-29T08:32:51Z</time>
      </trkpt>
      <trkpt lat="42.93609" lon="-0.17531">
        <ele>1070</ele>
        <time>2013-11-29T08:33:03Z</time>
      </trkpt>
      <trkpt lat="42.93611" lon="-0.17529">
        <ele>1071</ele>
        <time>2013-11-29T08:33:17Z</time>
      </trkpt>
      <trkpt lat="42.93619" lon="-0.1753">
        <ele>1072</ele>
        <time>2013-11-29T08:33:33Z</time>
      </trkpt>
      <trkpt lat="42.9363" lon="-0.17526">
        <ele>1074</ele>
        <time>2013-11-29T08:33:48Z</time>
      </trkpt>
      <trkpt lat="42.93645" lon="-0.17519">
        <ele>1077</ele>
        <time>2013-11-29T08:34:06Z</time>
      </trkpt>
      <trkpt lat="42.93628" lon="-0.17515">
        <ele>1079</ele>
        <time>2013-11-29T08:34:24Z</time>
      </trkpt>
      <trkpt lat="42.93627" lon="-0.17513">
        <ele>1078</ele>
        <time>2013-11-29T08:37:42Z</time>
      </trkpt>
      <trkpt lat="42.93629" lon="-0.17513">
        <ele>1078</ele>
        <time>2013-11-29T08:37:43Z</time>
      </trkpt>
      <trkpt lat="42.93635" lon="-0.17515">
        <ele>1077</ele>
        <time>2013-11-29T08:37:57Z</time>
      </trkpt>
      <trkpt lat="42.9364" lon="-0.17507">
        <ele>1080</ele>
        <time>2013-11-29T08:38:07Z</time>
      </trkpt>
      <trkpt lat="42.93644" lon="-0.17495">
        <ele>1083</ele>
        <time>2013-11-29T08:38:21Z</time>
      </trkpt>
      <trkpt lat="42.93639" lon="-0.17493">
        <ele>1086</ele>
        <time>2013-11-29T08:38:34Z</time>
      </trkpt>
      <trkpt lat="42.93638" lon="-0.17493">
        <ele>1087</ele>
        <time>2013-11-29T08:38:35Z</time>
      </trkpt>
      <trkpt lat="42.93629" lon="-0.17489">
        <ele>1089</ele>
        <time>2013-11-29T08:38:50Z</time>
      </trkpt>
      <trkpt lat="42.93622" lon="-0.17489">
        <ele>1093</ele>
        <time>2013-11-29T08:39:02Z</time>
      </trkpt>
      <trkpt lat="42.93611" lon="-0.17487">
        <ele>1096</ele>
        <time>2013-11-29T08:39:21Z</time>
      </trkpt>
      <trkpt lat="42.93605" lon="-0.1748">
        <ele>1098</ele>
        <time>2013-11-29T08:39:35Z</time>
      </trkpt>
      <trkpt lat="42.93602" lon="-0.17469">
        <ele>1101</ele>
        <time>2013-11-29T08:39:51Z</time>
      </trkpt>
      <trkpt lat="42.93602" lon="-0.17464">
        <ele>1104</ele>
        <time>2013-11-29T08:40:03Z</time>
      </trkpt>
      <trkpt lat="42.93611" lon="-0.17462">
        <ele>1106</ele>
        <time>2013-11-29T08:40:17Z</time>
      </trkpt>
      <trkpt lat="42.93622" lon="-0.17455">
        <ele>1109</ele>
        <time>2013-11-29T08:40:36Z</time>
      </trkpt>
      <trkpt lat="42.9362" lon="-0.17446">
        <ele>1112</ele>
        <time>2013-11-29T08:40:52Z</time>
      </trkpt>
      <trkpt lat="42.93611" lon="-0.17438">
        <ele>1115</ele>
        <time>2013-11-29T08:41:07Z</time>
      </trkpt>
      <trkpt lat="42.93606" lon="-0.1743">
        <ele>1119</ele>
        <time>2013-11-29T08:41:24Z</time>
      </trkpt>
      <trkpt lat="42.93602" lon="-0.17424">
        <ele>1121</ele>
        <time>2013-11-29T08:41:38Z</time>
      </trkpt>
      <trkpt lat="42.9361" lon="-0.17424">
        <ele>1124</ele>
        <time>2013-11-29T08:41:53Z</time>
      </trkpt>
      <trkpt lat="42.93612" lon="-0.17423">
        <ele>1125</ele>
        <time>2013-11-29T08:42:07Z</time>
      </trkpt>
      <trkpt lat="42.93602" lon="-0.17414">
        <ele>1127</ele>
        <time>2013-11-29T08:42:24Z</time>
      </trkpt>
      <trkpt lat="42.93609" lon="-0.17406">
        <ele>1131</ele>
        <time>2013-11-29T08:42:39Z</time>
      </trkpt>
      <trkpt lat="42.93614" lon="-0.17402">
        <ele>1132</ele>
        <time>2013-11-29T08:42:50Z</time>
      </trkpt>
      <trkpt lat="42.93619" lon="-0.17396">
        <ele>1135</ele>
        <time>2013-11-29T08:43:03Z</time>
      </trkpt>
      <trkpt lat="42.93621" lon="-0.17389">
        <ele>1137</ele>
        <time>2013-11-29T08:43:17Z</time>
      </trkpt>
      <trkpt lat="42.93626" lon="-0.17385">
        <ele>1140</ele>
        <time>2013-11-29T08:43:32Z</time>
      </trkpt>
      <trkpt lat="42.93633" lon="-0.17378">
        <ele>1143</ele>
        <time>2013-11-29T08:43:47Z</time>
      </trkpt>
      <trkpt lat="42.93626" lon="-0.17372">
        <ele>1145</ele>
        <time>2013-11-29T08:44:01Z</time>
      </trkpt>
      <trkpt lat="42.93618" lon="-0.17365">
        <ele>1147</ele>
        <time>2013-11-29T08:44:19Z</time>
      </trkpt>
      <trkpt lat="42.93612" lon="-0.17358">
        <ele>1151</ele>
        <time>2013-11-29T08:44:36Z</time>
      </trkpt>
      <trkpt lat="42.93604" lon="-0.17352">
        <ele>1153</ele>
        <time>2013-11-29T08:44:54Z</time>
      </trkpt>
      <trkpt lat="42.93601" lon="-0.17341">
        <ele>1156</ele>
        <time>2013-11-29T08:45:14Z</time>
      </trkpt>
      <trkpt lat="42.93596" lon="-0.17333">
        <ele>1158</ele>
        <time>2013-11-29T08:45:28Z</time>
      </trkpt>
      <trkpt lat="42.93593" lon="-0.1733">
        <ele>1159</ele>
        <time>2013-11-29T08:45:42Z</time>
      </trkpt>
      <trkpt lat="42.93589" lon="-0.1733">
        <ele>1161</ele>
        <time>2013-11-29T08:45:53Z</time>
      </trkpt>
      <trkpt lat="42.93585" lon="-0.17325">
        <ele>1162</ele>
        <time>2013-11-29T08:46:14Z</time>
      </trkpt>
      <trkpt lat="42.93582" lon="-0.17317">
        <ele>1164</ele>
        <time>2013-11-29T08:46:29Z</time>
      </trkpt>
      <trkpt lat="42.93577" lon="-0.17306">
        <ele>1167</ele>
        <time>2013-11-29T08:46:45Z</time>
      </trkpt>
      <trkpt lat="42.93562" lon="-0.17293">
        <ele>1169</ele>
        <time>2013-11-29T08:47:10Z</time>
      </trkpt>
      <trkpt lat="42.93548" lon="-0.17287">
        <ele>1171</ele>
        <time>2013-11-29T08:47:27Z</time>
      </trkpt>
      <trkpt lat="42.93547" lon="-0.17286">
        <ele>1173</ele>
        <time>2013-11-29T08:47:29Z</time>
      </trkpt>
      <trkpt lat="42.93542" lon="-0.17278">
        <ele>1175</ele>
        <time>2013-11-29T08:47:44Z</time>
      </trkpt>
      <trkpt lat="42.93533" lon="-0.1727">
        <ele>1178</ele>
        <time>2013-11-29T08:48:01Z</time>
      </trkpt>
      <trkpt lat="42.93526" lon="-0.17262">
        <ele>1180</ele>
        <time>2013-11-29T08:48:16Z</time>
      </trkpt>
      <trkpt lat="42.93527" lon="-0.17253">
        <ele>1183</ele>
        <time>2013-11-29T08:48:32Z</time>
      </trkpt>
      <trkpt lat="42.93538" lon="-0.17252">
        <ele>1184</ele>
        <time>2013-11-29T08:48:48Z</time>
      </trkpt>
      <trkpt lat="42.93539" lon="-0.17253">
        <ele>1184</ele>
        <time>2013-11-29T08:49:09Z</time>
      </trkpt>
      <trkpt lat="42.93534" lon="-0.1725">
        <ele>1184</ele>
        <time>2013-11-29T08:49:19Z</time>
      </trkpt>
      <trkpt lat="42.93532" lon="-0.1725">
        <ele>1183</ele>
        <time>2013-11-29T08:49:22Z</time>
      </trkpt>
      <trkpt lat="42.93528" lon="-0.17252">
        <ele>1184</ele>
        <time>2013-11-29T08:49:50Z</time>
      </trkpt>
      <trkpt lat="42.93525" lon="-0.17252">
        <ele>1184</ele>
        <time>2013-11-29T08:50:17Z</time>
      </trkpt>
      <trkpt lat="42.93525" lon="-0.17255">
        <ele>1184</ele>
        <time>2013-11-29T08:50:51Z</time>
      </trkpt>
      <trkpt lat="42.93527" lon="-0.1725">
        <ele>1184</ele>
        <time>2013-11-29T08:51:08Z</time>
      </trkpt>
      <trkpt lat="42.93529" lon="-0.17252">
        <ele>1184</ele>
        <time>2013-11-29T08:51:39Z</time>
      </trkpt>
      <trkpt lat="42.9353" lon="-0.17254">
        <ele>1184</ele>
        <time>2013-11-29T08:51:55Z</time>
      </trkpt>
      <trkpt lat="42.93533" lon="-0.17253">
        <ele>1185</ele>
        <time>2013-11-29T08:52:17Z</time>
      </trkpt>
      <trkpt lat="42.93533" lon="-0.17253">
        <ele>1185</ele>
        <time>2013-11-29T08:52:40Z</time>
      </trkpt>
      <trkpt lat="42.93536" lon="-0.17254">
        <ele>1184</ele>
        <time>2013-11-29T08:53:05Z</time>
      </trkpt>
      <trkpt lat="42.93535" lon="-0.17254">
        <ele>1184</ele>
        <time>2013-11-29T08:53:22Z</time>
      </trkpt>
      <trkpt lat="42.93536" lon="-0.17255">
        <ele>1185</ele>
        <time>2013-11-29T08:53:40Z</time>
      </trkpt>
      <trkpt lat="42.93537" lon="-0.17255">
        <ele>1184</ele>
        <time>2013-11-29T08:54:00Z</time>
      </trkpt>
      <trkpt lat="42.93539" lon="-0.17254">
        <ele>1186</ele>
        <time>2013-11-29T08:54:18Z</time>
      </trkpt>
      <trkpt lat="42.93539" lon="-0.17247">
        <ele>1188</ele>
        <time>2013-11-29T08:54:29Z</time>
      </trkpt>
      <trkpt lat="42.9353" lon="-0.17232">
        <ele>1191</ele>
        <time>2013-11-29T08:54:45Z</time>
      </trkpt>
      <trkpt lat="42.93529" lon="-0.17227">
        <ele>1193</ele>
        <time>2013-11-29T08:54:58Z</time>
      </trkpt>
      <trkpt lat="42.93534" lon="-0.17227">
        <ele>1195</ele>
        <time>2013-11-29T08:55:06Z</time>
      </trkpt>
      <trkpt lat="42.93541" lon="-0.1723">
        <ele>1198</ele>
        <time>2013-11-29T08:55:20Z</time>
      </trkpt>
      <trkpt lat="42.93541" lon="-0.1723">
        <ele>1198</ele>
        <time>2013-11-29T08:55:21Z</time>
      </trkpt>
      <trkpt lat="42.93553" lon="-0.17228">
        <ele>1201</ele>
        <time>2013-11-29T08:55:36Z</time>
      </trkpt>
      <trkpt lat="42.93557" lon="-0.17228">
        <ele>1202</ele>
        <time>2013-11-29T08:55:43Z</time>
      </trkpt>
      <trkpt lat="42.93567" lon="-0.1722">
        <ele>1204</ele>
        <time>2013-11-29T08:55:57Z</time>
      </trkpt>
      <trkpt lat="42.93576" lon="-0.17216">
        <ele>1207</ele>
        <time>2013-11-29T08:56:11Z</time>
      </trkpt>
      <trkpt lat="42.93577" lon="-0.17208">
        <ele>1208</ele>
        <time>2013-11-29T08:56:22Z</time>
      </trkpt>
      <trkpt lat="42.93569" lon="-0.172">
        <ele>1208</ele>
        <time>2013-11-29T08:56:41Z</time>
      </trkpt>
      <trkpt lat="42.93559" lon="-0.17196">
        <ele>1211</ele>
        <time>2013-11-29T08:56:58Z</time>
      </trkpt>
      <trkpt lat="42.93549" lon="-0.17187">
        <ele>1213</ele>
        <time>2013-11-29T08:57:13Z</time>
      </trkpt>
      <trkpt lat="42.93539" lon="-0.17186">
        <ele>1215</ele>
        <time>2013-11-29T08:57:25Z</time>
      </trkpt>
      <trkpt lat="42.9353" lon="-0.17179">
        <ele>1217</ele>
        <time>2013-11-29T08:57:39Z</time>
      </trkpt>
      <trkpt lat="42.93533" lon="-0.17181">
        <ele>1220</ele>
        <time>2013-11-29T08:57:54Z</time>
      </trkpt>
      <trkpt lat="42.93535" lon="-0.17171">
        <ele>1221</ele>
        <time>2013-11-29T08:58:09Z</time>
      </trkpt>
      <trkpt lat="42.93525" lon="-0.17156">
        <ele>1228</ele>
        <time>2013-11-29T08:58:59Z</time>
      </trkpt>
      <trkpt lat="42.93537" lon="-0.17163">
        <ele>1232</ele>
        <time>2013-11-29T08:59:45Z</time>
      </trkpt>
      <trkpt lat="42.9354" lon="-0.17162">
        <ele>1232</ele>
        <time>2013-11-29T08:59:59Z</time>
      </trkpt>
      <trkpt lat="42.9354" lon="-0.17156">
        <ele>1233</ele>
        <time>2013-11-29T09:00:16Z</time>
      </trkpt>
      <trkpt lat="42.93536" lon="-0.17145">
        <ele>1235</ele>
        <time>2013-11-29T09:00:32Z</time>
      </trkpt>
      <trkpt lat="42.93532" lon="-0.17139">
        <ele>1238</ele>
        <time>2013-11-29T09:00:48Z</time>
      </trkpt>
      <trkpt lat="42.93528" lon="-0.1713">
        <ele>1240</ele>
        <time>2013-11-29T09:01:03Z</time>
      </trkpt>
      <trkpt lat="42.93529" lon="-0.17126">
        <ele>1243</ele>
        <time>2013-11-29T09:01:20Z</time>
      </trkpt>
      <trkpt lat="42.93535" lon="-0.1712">
        <ele>1246</ele>
        <time>2013-11-29T09:01:33Z</time>
      </trkpt>
      <trkpt lat="42.93541" lon="-0.1711">
        <ele>1247</ele>
        <time>2013-11-29T09:01:50Z</time>
      </trkpt>
      <trkpt lat="42.93537" lon="-0.171">
        <ele>1251</ele>
        <time>2013-11-29T09:02:04Z</time>
      </trkpt>
      <trkpt lat="42.93533" lon="-0.17092">
        <ele>1253</ele>
        <time>2013-11-29T09:02:19Z</time>
      </trkpt>
      <trkpt lat="42.93529" lon="-0.17083">
        <ele>1256</ele>
        <time>2013-11-29T09:02:35Z</time>
      </trkpt>
      <trkpt lat="42.93525" lon="-0.17073">
        <ele>1258</ele>
        <time>2013-11-29T09:02:52Z</time>
      </trkpt>
      <trkpt lat="42.93527" lon="-0.17072">
        <ele>1259</ele>
        <time>2013-11-29T09:03:07Z</time>
      </trkpt>
      <trkpt lat="42.93534" lon="-0.17075">
        <ele>1259</ele>
        <time>2013-11-29T09:03:32Z</time>
      </trkpt>
      <trkpt lat="42.9354" lon="-0.17072">
        <ele>1261</ele>
        <time>2013-11-29T09:03:44Z</time>
      </trkpt>
      <trkpt lat="42.93539" lon="-0.17059">
        <ele>1264</ele>
        <time>2013-11-29T09:03:58Z</time>
      </trkpt>
      <trkpt lat="42.93533" lon="-0.17048">
        <ele>1266</ele>
        <time>2013-11-29T09:04:14Z</time>
      </trkpt>
      <trkpt lat="42.93525" lon="-0.17039">
        <ele>1269</ele>
        <time>2013-11-29T09:04:30Z</time>
      </trkpt>
      <trkpt lat="42.93515" lon="-0.1703">
        <ele>1271</ele>
        <time>2013-11-29T09:04:47Z</time>
      </trkpt>
      <trkpt lat="42.93509" lon="-0.17017">
        <ele>1273</ele>
        <time>2013-11-29T09:05:05Z</time>
      </trkpt>
      <trkpt lat="42.93505" lon="-0.17009">
        <ele>1276</ele>
        <time>2013-11-29T09:05:17Z</time>
      </trkpt>
      <trkpt lat="42.93501" lon="-0.16999">
        <ele>1278</ele>
        <time>2013-11-29T09:05:31Z</time>
      </trkpt>
      <trkpt lat="42.93496" lon="-0.16993">
        <ele>1281</ele>
        <time>2013-11-29T09:05:45Z</time>
      </trkpt>
      <trkpt lat="42.93491" lon="-0.16992">
        <ele>1282</ele>
        <time>2013-11-29T09:06:00Z</time>
      </trkpt>
      <trkpt lat="42.93493" lon="-0.16995">
        <ele>1282</ele>
        <time>2013-11-29T09:06:15Z</time>
      </trkpt>
      <trkpt lat="42.93499" lon="-0.16994">
        <ele>1283</ele>
        <time>2013-11-29T09:06:34Z</time>
      </trkpt>
      <trkpt lat="42.93509" lon="-0.1699">
        <ele>1285</ele>
        <time>2013-11-29T09:06:51Z</time>
      </trkpt>
      <trkpt lat="42.93517" lon="-0.16985">
        <ele>1288</ele>
        <time>2013-11-29T09:07:08Z</time>
      </trkpt>
      <trkpt lat="42.9352" lon="-0.16972">
        <ele>1292</ele>
        <time>2013-11-29T09:07:24Z</time>
      </trkpt>
      <trkpt lat="42.93527" lon="-0.16964">
        <ele>1293</ele>
        <time>2013-11-29T09:07:40Z</time>
      </trkpt>
      <trkpt lat="42.93529" lon="-0.16963">
        <ele>1293</ele>
        <time>2013-11-29T09:07:58Z</time>
      </trkpt>
      <trkpt lat="42.93525" lon="-0.16962">
        <ele>1294</ele>
        <time>2013-11-29T09:08:16Z</time>
      </trkpt>
      <trkpt lat="42.93519" lon="-0.16959">
        <ele>1295</ele>
        <time>2013-11-29T09:08:30Z</time>
      </trkpt>
      <trkpt lat="42.93506" lon="-0.16963">
        <ele>1296</ele>
        <time>2013-11-29T09:08:42Z</time>
      </trkpt>
      <trkpt lat="42.935" lon="-0.16966">
        <ele>1297</ele>
        <time>2013-11-29T09:08:59Z</time>
      </trkpt>
      <trkpt lat="42.93496" lon="-0.16966">
        <ele>1296</ele>
        <time>2013-11-29T09:09:15Z</time>
      </trkpt>
      <trkpt lat="42.93496" lon="-0.16962">
        <ele>1297</ele>
        <time>2013-11-29T09:09:35Z</time>
      </trkpt>
      <trkpt lat="42.93495" lon="-0.16963">
        <ele>1297</ele>
        <time>2013-11-29T09:09:49Z</time>
      </trkpt>
      <trkpt lat="42.93497" lon="-0.16967">
        <ele>1298</ele>
        <time>2013-11-29T09:10:06Z</time>
      </trkpt>
      <trkpt lat="42.93496" lon="-0.1696">
        <ele>1299</ele>
        <time>2013-11-29T09:10:25Z</time>
      </trkpt>
      <trkpt lat="42.93494" lon="-0.16958">
        <ele>1300</ele>
        <time>2013-11-29T09:10:40Z</time>
      </trkpt>
      <trkpt lat="42.93484" lon="-0.16956">
        <ele>1299</ele>
        <time>2013-11-29T09:10:58Z</time>
      </trkpt>
      <trkpt lat="42.9348" lon="-0.16954">
        <ele>1301</ele>
        <time>2013-11-29T09:11:10Z</time>
      </trkpt>
      <trkpt lat="42.93483" lon="-0.16955">
        <ele>1302</ele>
        <time>2013-11-29T09:11:24Z</time>
      </trkpt>
      <trkpt lat="42.93482" lon="-0.16948">
        <ele>1304</ele>
        <time>2013-11-29T09:11:41Z</time>
      </trkpt>
      <trkpt lat="42.93479" lon="-0.1695">
        <ele>1303</ele>
        <time>2013-11-29T09:11:53Z</time>
      </trkpt>
      <trkpt lat="42.93488" lon="-0.16955">
        <ele>1306</ele>
        <time>2013-11-29T09:12:06Z</time>
      </trkpt>
      <trkpt lat="42.93497" lon="-0.16952">
        <ele>1308</ele>
        <time>2013-11-29T09:12:18Z</time>
      </trkpt>
      <trkpt lat="42.93498" lon="-0.16946">
        <ele>1308</ele>
        <time>2013-11-29T09:12:31Z</time>
      </trkpt>
      <trkpt lat="42.93491" lon="-0.16939">
        <ele>1310</ele>
        <time>2013-11-29T09:12:46Z</time>
      </trkpt>
      <trkpt lat="42.93492" lon="-0.16941">
        <ele>1311</ele>
        <time>2013-11-29T09:12:58Z</time>
      </trkpt>
      <trkpt lat="42.93494" lon="-0.16933">
        <ele>1312</ele>
        <time>2013-11-29T09:13:16Z</time>
      </trkpt>
      <trkpt lat="42.9349" lon="-0.1693">
        <ele>1313</ele>
        <time>2013-11-29T09:13:37Z</time>
      </trkpt>
      <trkpt lat="42.93483" lon="-0.1692">
        <ele>1316</ele>
        <time>2013-11-29T09:13:52Z</time>
      </trkpt>
      <trkpt lat="42.9348" lon="-0.1692">
        <ele>1316</ele>
        <time>2013-11-29T09:14:09Z</time>
      </trkpt>
      <trkpt lat="42.93479" lon="-0.16924">
        <ele>1316</ele>
        <time>2013-11-29T09:14:23Z</time>
      </trkpt>
      <trkpt lat="42.93483" lon="-0.16926">
        <ele>1318</ele>
        <time>2013-11-29T09:14:40Z</time>
      </trkpt>
      <trkpt lat="42.93485" lon="-0.16922">
        <ele>1319</ele>
        <time>2013-11-29T09:14:52Z</time>
      </trkpt>
      <trkpt lat="42.93486" lon="-0.16923">
        <ele>1320</ele>
        <time>2013-11-29T09:15:06Z</time>
      </trkpt>
      <trkpt lat="42.93488" lon="-0.16922">
        <ele>1320</ele>
        <time>2013-11-29T09:15:19Z</time>
      </trkpt>
      <trkpt lat="42.93486" lon="-0.16913">
        <ele>1321</ele>
        <time>2013-11-29T09:15:34Z</time>
      </trkpt>
      <trkpt lat="42.93487" lon="-0.16913">
        <ele>1322</ele>
        <time>2013-11-29T09:15:53Z</time>
      </trkpt>
      <trkpt lat="42.93487" lon="-0.16911">
        <ele>1323</ele>
        <time>2013-11-29T09:16:08Z</time>
      </trkpt>
      <trkpt lat="42.93488" lon="-0.16913">
        <ele>1323</ele>
        <time>2013-11-29T09:16:18Z</time>
      </trkpt>
      <trkpt lat="42.93496" lon="-0.16915">
        <ele>1324</ele>
        <time>2013-11-29T09:16:33Z</time>
      </trkpt>
      <trkpt lat="42.93504" lon="-0.16915">
        <ele>1326</ele>
        <time>2013-11-29T09:16:47Z</time>
      </trkpt>
      <trkpt lat="42.93502" lon="-0.16906">
        <ele>1328</ele>
        <time>2013-11-29T09:17:01Z</time>
      </trkpt>
      <trkpt lat="42.93497" lon="-0.16904">
        <ele>1330</ele>
        <time>2013-11-29T09:17:16Z</time>
      </trkpt>
      <trkpt lat="42.93498" lon="-0.16904">
        <ele>1331</ele>
        <time>2013-11-29T09:17:38Z</time>
      </trkpt>
      <trkpt lat="42.93498" lon="-0.16897">
        <ele>1332</ele>
        <time>2013-11-29T09:17:53Z</time>
      </trkpt>
      <trkpt lat="42.93493" lon="-0.1689">
        <ele>1333</ele>
        <time>2013-11-29T09:18:08Z</time>
      </trkpt>
      <trkpt lat="42.93493" lon="-0.16893">
        <ele>1334</ele>
        <time>2013-11-29T09:18:23Z</time>
      </trkpt>
      <trkpt lat="42.93497" lon="-0.16886">
        <ele>1336</ele>
        <time>2013-11-29T09:18:35Z</time>
      </trkpt>
      <trkpt lat="42.93496" lon="-0.16881">
        <ele>1338</ele>
        <time>2013-11-29T09:18:50Z</time>
      </trkpt>
      <trkpt lat="42.93501" lon="-0.16883">
        <ele>1340</ele>
        <time>2013-11-29T09:19:07Z</time>
      </trkpt>
      <trkpt lat="42.935" lon="-0.16877">
        <ele>1340</ele>
        <time>2013-11-29T09:19:19Z</time>
      </trkpt>
      <trkpt lat="42.93498" lon="-0.16873">
        <ele>1342</ele>
        <time>2013-11-29T09:19:33Z</time>
      </trkpt>
      <trkpt lat="42.93496" lon="-0.16871">
        <ele>1344</ele>
        <time>2013-11-29T09:19:49Z</time>
      </trkpt>
      <trkpt lat="42.93492" lon="-0.16863">
        <ele>1345</ele>
        <time>2013-11-29T09:20:04Z</time>
      </trkpt>
      <trkpt lat="42.93493" lon="-0.16867">
        <ele>1346</ele>
        <time>2013-11-29T09:20:18Z</time>
      </trkpt>
      <trkpt lat="42.93501" lon="-0.16865">
        <ele>1348</ele>
        <time>2013-11-29T09:20:33Z</time>
      </trkpt>
      <trkpt lat="42.93501" lon="-0.16857">
        <ele>1348</ele>
        <time>2013-11-29T09:20:49Z</time>
      </trkpt>
      <trkpt lat="42.93498" lon="-0.16855">
        <ele>1351</ele>
        <time>2013-11-29T09:21:03Z</time>
      </trkpt>
      <trkpt lat="42.93498" lon="-0.16859">
        <ele>1351</ele>
        <time>2013-11-29T09:21:17Z</time>
      </trkpt>
      <trkpt lat="42.93503" lon="-0.16856">
        <ele>1353</ele>
        <time>2013-11-29T09:21:31Z</time>
      </trkpt>
      <trkpt lat="42.935" lon="-0.16845">
        <ele>1355</ele>
        <time>2013-11-29T09:21:46Z</time>
      </trkpt>
      <trkpt lat="42.93497" lon="-0.16836">
        <ele>1356</ele>
        <time>2013-11-29T09:22:00Z</time>
      </trkpt>
      <trkpt lat="42.93494" lon="-0.1684">
        <ele>1357</ele>
        <time>2013-11-29T09:22:12Z</time>
      </trkpt>
      <trkpt lat="42.93497" lon="-0.16844">
        <ele>1359</ele>
        <time>2013-11-29T09:22:26Z</time>
      </trkpt>
      <trkpt lat="42.93503" lon="-0.1684">
        <ele>1360</ele>
        <time>2013-11-29T09:22:43Z</time>
      </trkpt>
      <trkpt lat="42.93501" lon="-0.16835">
        <ele>1362</ele>
        <time>2013-11-29T09:22:58Z</time>
      </trkpt>
      <trkpt lat="42.93502" lon="-0.16835">
        <ele>1362</ele>
        <time>2013-11-29T09:23:12Z</time>
      </trkpt>
      <trkpt lat="42.93503" lon="-0.16838">
        <ele>1363</ele>
        <time>2013-11-29T09:23:36Z</time>
      </trkpt>
      <trkpt lat="42.93509" lon="-0.1684">
        <ele>1365</ele>
        <time>2013-11-29T09:23:50Z</time>
      </trkpt>
      <trkpt lat="42.9351" lon="-0.16831">
        <ele>1366</ele>
        <time>2013-11-29T09:24:04Z</time>
      </trkpt>
      <trkpt lat="42.93506" lon="-0.16822">
        <ele>1367</ele>
        <time>2013-11-29T09:24:16Z</time>
      </trkpt>
      <trkpt lat="42.93503" lon="-0.16816">
        <ele>1370</ele>
        <time>2013-11-29T09:24:31Z</time>
      </trkpt>
      <trkpt lat="42.93502" lon="-0.16817">
        <ele>1370</ele>
        <time>2013-11-29T09:24:48Z</time>
      </trkpt>
      <trkpt lat="42.93507" lon="-0.1682">
        <ele>1371</ele>
        <time>2013-11-29T09:25:03Z</time>
      </trkpt>
      <trkpt lat="42.93506" lon="-0.16814">
        <ele>1372</ele>
        <time>2013-11-29T09:25:19Z</time>
      </trkpt>
      <trkpt lat="42.93506" lon="-0.16812">
        <ele>1371</ele>
        <time>2013-11-29T09:25:34Z</time>
      </trkpt>
      <trkpt lat="42.93504" lon="-0.16809">
        <ele>1371</ele>
        <time>2013-11-29T09:26:05Z</time>
      </trkpt>
      <trkpt lat="42.935" lon="-0.16804">
        <ele>1372</ele>
        <time>2013-11-29T09:26:23Z</time>
      </trkpt>
      <trkpt lat="42.93495" lon="-0.16795">
        <ele>1374</ele>
        <time>2013-11-29T09:26:37Z</time>
      </trkpt>
      <trkpt lat="42.935" lon="-0.16803">
        <ele>1375</ele>
        <time>2013-11-29T09:26:51Z</time>
      </trkpt>
      <trkpt lat="42.93507" lon="-0.16804">
        <ele>1377</ele>
        <time>2013-11-29T09:27:07Z</time>
      </trkpt>
      <trkpt lat="42.93503" lon="-0.16791">
        <ele>1380</ele>
        <time>2013-11-29T09:27:22Z</time>
      </trkpt>
      <trkpt lat="42.93498" lon="-0.16781">
        <ele>1382</ele>
        <time>2013-11-29T09:27:36Z</time>
      </trkpt>
      <trkpt lat="42.93497" lon="-0.1678">
        <ele>1382</ele>
        <time>2013-11-29T09:27:38Z</time>
      </trkpt>
      <trkpt lat="42.93482" lon="-0.16767">
        <ele>1384</ele>
        <time>2013-11-29T09:27:56Z</time>
      </trkpt>
      <trkpt lat="42.93476" lon="-0.16762">
        <ele>1386</ele>
        <time>2013-11-29T09:28:06Z</time>
      </trkpt>
      <trkpt lat="42.93467" lon="-0.16753">
        <ele>1387</ele>
        <time>2013-11-29T09:28:18Z</time>
      </trkpt>
      <trkpt lat="42.93459" lon="-0.16747">
        <ele>1389</ele>
        <time>2013-11-29T09:28:32Z</time>
      </trkpt>
      <trkpt lat="42.93454" lon="-0.16742">
        <ele>1391</ele>
        <time>2013-11-29T09:28:48Z</time>
      </trkpt>
      <trkpt lat="42.93461" lon="-0.16744">
        <ele>1392</ele>
        <time>2013-11-29T09:29:02Z</time>
      </trkpt>
      <trkpt lat="42.9346" lon="-0.16736">
        <ele>1394</ele>
        <time>2013-11-29T09:29:15Z</time>
      </trkpt>
      <trkpt lat="42.93454" lon="-0.1673">
        <ele>1396</ele>
        <time>2013-11-29T09:29:23Z</time>
      </trkpt>
      <trkpt lat="42.93441" lon="-0.16712">
        <ele>1396</ele>
        <time>2013-11-29T09:29:38Z</time>
      </trkpt>
      <trkpt lat="42.93431" lon="-0.16697">
        <ele>1398</ele>
        <time>2013-11-29T09:29:52Z</time>
      </trkpt>
      <trkpt lat="42.93417" lon="-0.16682">
        <ele>1401</ele>
        <time>2013-11-29T09:30:07Z</time>
      </trkpt>
      <trkpt lat="42.93402" lon="-0.16667">
        <ele>1403</ele>
        <time>2013-11-29T09:30:22Z</time>
      </trkpt>
      <trkpt lat="42.93394" lon="-0.1666">
        <ele>1403</ele>
        <time>2013-11-29T09:30:30Z</time>
      </trkpt>
      <trkpt lat="42.93382" lon="-0.16654">
        <ele>1403</ele>
        <time>2013-11-29T09:30:45Z</time>
      </trkpt>
      <trkpt lat="42.93379" lon="-0.16645">
        <ele>1406</ele>
        <time>2013-11-29T09:31:00Z</time>
      </trkpt>
      <trkpt lat="42.93371" lon="-0.16641">
        <ele>1406</ele>
        <time>2013-11-29T09:31:13Z</time>
      </trkpt>
      <trkpt lat="42.93363" lon="-0.16632">
        <ele>1409</ele>
        <time>2013-11-29T09:31:26Z</time>
      </trkpt>
      <trkpt lat="42.93361" lon="-0.16619">
        <ele>1411</ele>
        <time>2013-11-29T09:31:41Z</time>
      </trkpt>
      <trkpt lat="42.93359" lon="-0.16607">
        <ele>1414</ele>
        <time>2013-11-29T09:31:56Z</time>
      </trkpt>
      <trkpt lat="42.93355" lon="-0.16597">
        <ele>1417</ele>
        <time>2013-11-29T09:32:09Z</time>
      </trkpt>
      <trkpt lat="42.93351" lon="-0.16585">
        <ele>1420</ele>
        <time>2013-11-29T09:32:24Z</time>
      </trkpt>
      <trkpt lat="42.93345" lon="-0.16572">
        <ele>1423</ele>
        <time>2013-11-29T09:32:40Z</time>
      </trkpt>
      <trkpt lat="42.9334" lon="-0.1656">
        <ele>1425</ele>
        <time>2013-11-29T09:32:54Z</time>
      </trkpt>
      <trkpt lat="42.93328" lon="-0.16547">
        <ele>1429</ele>
        <time>2013-11-29T09:33:11Z</time>
      </trkpt>
      <trkpt lat="42.9332" lon="-0.16538">
        <ele>1432</ele>
        <time>2013-11-29T09:33:24Z</time>
      </trkpt>
      <trkpt lat="42.93314" lon="-0.16534">
        <ele>1431</ele>
        <time>2013-11-29T09:33:31Z</time>
      </trkpt>
      <trkpt lat="42.93307" lon="-0.1652">
        <ele>1434</ele>
        <time>2013-11-29T09:33:46Z</time>
      </trkpt>
      <trkpt lat="42.93296" lon="-0.16506">
        <ele>1437</ele>
        <time>2013-11-29T09:34:05Z</time>
      </trkpt>
      <trkpt lat="42.9329" lon="-0.16502">
        <ele>1440</ele>
        <time>2013-11-29T09:34:15Z</time>
      </trkpt>
      <trkpt lat="42.93283" lon="-0.1649">
        <ele>1443</ele>
        <time>2013-11-29T09:34:32Z</time>
      </trkpt>
      <trkpt lat="42.93279" lon="-0.16477">
        <ele>1445</ele>
        <time>2013-11-29T09:34:47Z</time>
      </trkpt>
      <trkpt lat="42.93279" lon="-0.16475">
        <ele>1445</ele>
        <time>2013-11-29T09:34:50Z</time>
      </trkpt>
      <trkpt lat="42.93275" lon="-0.16465">
        <ele>1448</ele>
        <time>2013-11-29T09:35:02Z</time>
      </trkpt>
      <trkpt lat="42.93264" lon="-0.16456">
        <ele>1450</ele>
        <time>2013-11-29T09:35:18Z</time>
      </trkpt>
      <trkpt lat="42.93257" lon="-0.16446">
        <ele>1452</ele>
        <time>2013-11-29T09:35:33Z</time>
      </trkpt>
      <trkpt lat="42.93259" lon="-0.16448">
        <ele>1452</ele>
        <time>2013-11-29T09:35:59Z</time>
      </trkpt>
      <trkpt lat="42.93253" lon="-0.1644">
        <ele>1454</ele>
        <time>2013-11-29T09:36:12Z</time>
      </trkpt>
      <trkpt lat="42.93243" lon="-0.1643">
        <ele>1456</ele>
        <time>2013-11-29T09:36:28Z</time>
      </trkpt>
      <trkpt lat="42.93233" lon="-0.16419">
        <ele>1459</ele>
        <time>2013-11-29T09:36:44Z</time>
      </trkpt>
      <trkpt lat="42.93228" lon="-0.16413">
        <ele>1461</ele>
        <time>2013-11-29T09:36:54Z</time>
      </trkpt>
      <trkpt lat="42.93222" lon="-0.16398">
        <ele>1463</ele>
        <time>2013-11-29T09:37:10Z</time>
      </trkpt>
      <trkpt lat="42.93214" lon="-0.16388">
        <ele>1467</ele>
        <time>2013-11-29T09:37:24Z</time>
      </trkpt>
      <trkpt lat="42.93216" lon="-0.16374">
        <ele>1469</ele>
        <time>2013-11-29T09:37:40Z</time>
      </trkpt>
      <trkpt lat="42.93215" lon="-0.16361">
        <ele>1472</ele>
        <time>2013-11-29T09:37:54Z</time>
      </trkpt>
      <trkpt lat="42.93209" lon="-0.16352">
        <ele>1474</ele>
        <time>2013-11-29T09:38:10Z</time>
      </trkpt>
      <trkpt lat="42.93201" lon="-0.16342">
        <ele>1477</ele>
        <time>2013-11-29T09:38:23Z</time>
      </trkpt>
      <trkpt lat="42.93193" lon="-0.16332">
        <ele>1480</ele>
        <time>2013-11-29T09:38:38Z</time>
      </trkpt>
      <trkpt lat="42.93182" lon="-0.16321">
        <ele>1483</ele>
        <time>2013-11-29T09:38:54Z</time>
      </trkpt>
      <trkpt lat="42.93175" lon="-0.16311">
        <ele>1485</ele>
        <time>2013-11-29T09:39:10Z</time>
      </trkpt>
      <trkpt lat="42.93173" lon="-0.16301">
        <ele>1488</ele>
        <time>2013-11-29T09:39:25Z</time>
      </trkpt>
      <trkpt lat="42.93171" lon="-0.16299">
        <ele>1489</ele>
        <time>2013-11-29T09:39:40Z</time>
      </trkpt>
      <trkpt lat="42.9316" lon="-0.16294">
        <ele>1491</ele>
        <time>2013-11-29T09:39:56Z</time>
      </trkpt>
      <trkpt lat="42.93159" lon="-0.16292">
        <ele>1493</ele>
        <time>2013-11-29T09:40:13Z</time>
      </trkpt>
      <trkpt lat="42.93158" lon="-0.1628">
        <ele>1495</ele>
        <time>2013-11-29T09:40:28Z</time>
      </trkpt>
      <trkpt lat="42.93151" lon="-0.16269">
        <ele>1498</ele>
        <time>2013-11-29T09:40:43Z</time>
      </trkpt>
      <trkpt lat="42.93145" lon="-0.16263">
        <ele>1500</ele>
        <time>2013-11-29T09:40:58Z</time>
      </trkpt>
      <trkpt lat="42.93137" lon="-0.16253">
        <ele>1503</ele>
        <time>2013-11-29T09:41:17Z</time>
      </trkpt>
      <trkpt lat="42.93126" lon="-0.16242">
        <ele>1506</ele>
        <time>2013-11-29T09:41:33Z</time>
      </trkpt>
      <trkpt lat="42.93124" lon="-0.16241">
        <ele>1506</ele>
        <time>2013-11-29T09:41:36Z</time>
      </trkpt>
      <trkpt lat="42.9312" lon="-0.16238">
        <ele>1506</ele>
        <time>2013-11-29T09:41:47Z</time>
      </trkpt>
      <trkpt lat="42.93117" lon="-0.16233">
        <ele>1507</ele>
        <time>2013-11-29T09:41:55Z</time>
      </trkpt>
      <trkpt lat="42.93113" lon="-0.16225">
        <ele>1509</ele>
        <time>2013-11-29T09:42:11Z</time>
      </trkpt>
      <trkpt lat="42.93107" lon="-0.16212">
        <ele>1512</ele>
        <time>2013-11-29T09:42:28Z</time>
      </trkpt>
      <trkpt lat="42.93102" lon="-0.16202">
        <ele>1515</ele>
        <time>2013-11-29T09:42:42Z</time>
      </trkpt>
      <trkpt lat="42.93093" lon="-0.16194">
        <ele>1517</ele>
        <time>2013-11-29T09:42:58Z</time>
      </trkpt>
      <trkpt lat="42.9309" lon="-0.16195">
        <ele>1517</ele>
        <time>2013-11-29T09:43:10Z</time>
      </trkpt>
      <trkpt lat="42.93089" lon="-0.16188">
        <ele>1519</ele>
        <time>2013-11-29T09:43:26Z</time>
      </trkpt>
      <trkpt lat="42.93089" lon="-0.16187">
        <ele>1519</ele>
        <time>2013-11-29T09:43:27Z</time>
      </trkpt>
      <trkpt lat="42.93083" lon="-0.16178">
        <ele>1521</ele>
        <time>2013-11-29T09:43:43Z</time>
      </trkpt>
      <trkpt lat="42.93076" lon="-0.16184">
        <ele>1522</ele>
        <time>2013-11-29T09:43:57Z</time>
      </trkpt>
      <trkpt lat="42.93076" lon="-0.16183">
        <ele>1523</ele>
        <time>2013-11-29T09:43:58Z</time>
      </trkpt>
      <trkpt lat="42.93074" lon="-0.16171">
        <ele>1526</ele>
        <time>2013-11-29T09:44:13Z</time>
      </trkpt>
      <trkpt lat="42.93073" lon="-0.1616">
        <ele>1528</ele>
        <time>2013-11-29T09:44:28Z</time>
      </trkpt>
      <trkpt lat="42.93067" lon="-0.16153">
        <ele>1531</ele>
        <time>2013-11-29T09:44:40Z</time>
      </trkpt>
      <trkpt lat="42.93062" lon="-0.16145">
        <ele>1533</ele>
        <time>2013-11-29T09:44:55Z</time>
      </trkpt>
      <trkpt lat="42.93058" lon="-0.16136">
        <ele>1536</ele>
        <time>2013-11-29T09:45:10Z</time>
      </trkpt>
      <trkpt lat="42.93054" lon="-0.16123">
        <ele>1539</ele>
        <time>2013-11-29T09:45:26Z</time>
      </trkpt>
      <trkpt lat="42.9305" lon="-0.16113">
        <ele>1542</ele>
        <time>2013-11-29T09:45:41Z</time>
      </trkpt>
      <trkpt lat="42.93048" lon="-0.16103">
        <ele>1544</ele>
        <time>2013-11-29T09:45:55Z</time>
      </trkpt>
      <trkpt lat="42.93042" lon="-0.16094">
        <ele>1547</ele>
        <time>2013-11-29T09:46:09Z</time>
      </trkpt>
      <trkpt lat="42.93041" lon="-0.16092">
        <ele>1549</ele>
        <time>2013-11-29T09:46:24Z</time>
      </trkpt>
      <trkpt lat="42.93038" lon="-0.16096">
        <ele>1550</ele>
        <time>2013-11-29T09:46:44Z</time>
      </trkpt>
      <trkpt lat="42.93037" lon="-0.16085">
        <ele>1552</ele>
        <time>2013-11-29T09:46:58Z</time>
      </trkpt>
      <trkpt lat="42.93035" lon="-0.16079">
        <ele>1554</ele>
        <time>2013-11-29T09:47:12Z</time>
      </trkpt>
      <trkpt lat="42.93029" lon="-0.16077">
        <ele>1557</ele>
        <time>2013-11-29T09:47:28Z</time>
      </trkpt>
      <trkpt lat="42.93028" lon="-0.16076">
        <ele>1557</ele>
        <time>2013-11-29T09:47:30Z</time>
      </trkpt>
      <trkpt lat="42.93017" lon="-0.16063">
        <ele>1560</ele>
        <time>2013-11-29T09:47:44Z</time>
      </trkpt>
      <trkpt lat="42.93015" lon="-0.16062">
        <ele>1560</ele>
        <time>2013-11-29T09:47:51Z</time>
      </trkpt>
      <trkpt lat="42.93008" lon="-0.16052">
        <ele>1563</ele>
        <time>2013-11-29T09:48:06Z</time>
      </trkpt>
      <trkpt lat="42.92995" lon="-0.16051">
        <ele>1565</ele>
        <time>2013-11-29T09:48:20Z</time>
      </trkpt>
      <trkpt lat="42.92988" lon="-0.16053">
        <ele>1568</ele>
        <time>2013-11-29T09:48:32Z</time>
      </trkpt>
      <trkpt lat="42.92987" lon="-0.1605">
        <ele>1569</ele>
        <time>2013-11-29T09:48:48Z</time>
      </trkpt>
      <trkpt lat="42.92985" lon="-0.16052">
        <ele>1569</ele>
        <time>2013-11-29T09:49:00Z</time>
      </trkpt>
      <trkpt lat="42.92983" lon="-0.16049">
        <ele>1569</ele>
        <time>2013-11-29T09:49:24Z</time>
      </trkpt>
      <trkpt lat="42.92983" lon="-0.1605">
        <ele>1569</ele>
        <time>2013-11-29T09:49:45Z</time>
      </trkpt>
      <trkpt lat="42.92984" lon="-0.16047">
        <ele>1569</ele>
        <time>2013-11-29T09:50:17Z</time>
      </trkpt>
      <trkpt lat="42.92984" lon="-0.16047">
        <ele>1568</ele>
        <time>2013-11-29T09:50:50Z</time>
      </trkpt>
      <trkpt lat="42.92981" lon="-0.16052">
        <ele>1569</ele>
        <time>2013-11-29T09:51:24Z</time>
      </trkpt>
      <trkpt lat="42.9298" lon="-0.16052">
        <ele>1567</ele>
        <time>2013-11-29T09:51:26Z</time>
      </trkpt>
      <trkpt lat="42.9298" lon="-0.16052">
        <ele>1571</ele>
        <time>2013-11-29T09:51:27Z</time>
      </trkpt>
      <trkpt lat="42.9298" lon="-0.16052">
        <ele>1569</ele>
        <time>2013-11-29T09:51:28Z</time>
      </trkpt>
      <trkpt lat="42.9298" lon="-0.16046">
        <ele>1569</ele>
        <time>2013-11-29T09:51:43Z</time>
      </trkpt>
      <trkpt lat="42.92981" lon="-0.1605">
        <ele>1569</ele>
        <time>2013-11-29T09:52:16Z</time>
      </trkpt>
      <trkpt lat="42.92977" lon="-0.16052">
        <ele>1570</ele>
        <time>2013-11-29T09:52:33Z</time>
      </trkpt>
      <trkpt lat="42.92973" lon="-0.16054">
        <ele>1573</ele>
        <time>2013-11-29T09:52:46Z</time>
      </trkpt>
      <trkpt lat="42.9297" lon="-0.16056">
        <ele>1573</ele>
        <time>2013-11-29T09:53:03Z</time>
      </trkpt>
      <trkpt lat="42.9297" lon="-0.16055">
        <ele>1573</ele>
        <time>2013-11-29T09:53:14Z</time>
      </trkpt>
      <trkpt lat="42.92967" lon="-0.16057">
        <ele>1574</ele>
        <time>2013-11-29T09:53:31Z</time>
      </trkpt>
      <trkpt lat="42.92964" lon="-0.16053">
        <ele>1576</ele>
        <time>2013-11-29T09:53:41Z</time>
      </trkpt>
      <trkpt lat="42.92964" lon="-0.16051">
        <ele>1575</ele>
        <time>2013-11-29T09:54:08Z</time>
      </trkpt>
      <trkpt lat="42.92964" lon="-0.16051">
        <ele>1578</ele>
        <time>2013-11-29T09:54:09Z</time>
      </trkpt>
      <trkpt lat="42.92965" lon="-0.16052">
        <ele>1575</ele>
        <time>2013-11-29T09:54:16Z</time>
      </trkpt>
      <trkpt lat="42.92961" lon="-0.16055">
        <ele>1576</ele>
        <time>2013-11-29T09:54:40Z</time>
      </trkpt>
      <trkpt lat="42.92963" lon="-0.16052">
        <ele>1577</ele>
        <time>2013-11-29T09:55:02Z</time>
      </trkpt>
      <trkpt lat="42.92966" lon="-0.16047">
        <ele>1577</ele>
        <time>2013-11-29T09:55:33Z</time>
      </trkpt>
      <trkpt lat="42.92963" lon="-0.16049">
        <ele>1576</ele>
        <time>2013-11-29T09:56:05Z</time>
      </trkpt>
      <trkpt lat="42.9296" lon="-0.16054">
        <ele>1576</ele>
        <time>2013-11-29T09:56:24Z</time>
      </trkpt>
      <trkpt lat="42.92962" lon="-0.16054">
        <ele>1577</ele>
        <time>2013-11-29T09:56:49Z</time>
      </trkpt>
      <trkpt lat="42.92959" lon="-0.16046">
        <ele>1580</ele>
        <time>2013-11-29T09:57:02Z</time>
      </trkpt>
      <trkpt lat="42.92954" lon="-0.16043">
        <ele>1581</ele>
        <time>2013-11-29T09:57:15Z</time>
      </trkpt>
      <trkpt lat="42.92952" lon="-0.16045">
        <ele>1583</ele>
        <time>2013-11-29T09:57:28Z</time>
      </trkpt>
      <trkpt lat="42.92951" lon="-0.16035">
        <ele>1586</ele>
        <time>2013-11-29T09:57:43Z</time>
      </trkpt>
      <trkpt lat="42.92951" lon="-0.16029">
        <ele>1588</ele>
        <time>2013-11-29T09:57:56Z</time>
      </trkpt>
      <trkpt lat="42.92942" lon="-0.16019">
        <ele>1591</ele>
        <time>2013-11-29T09:58:10Z</time>
      </trkpt>
      <trkpt lat="42.92935" lon="-0.1601">
        <ele>1594</ele>
        <time>2013-11-29T09:58:24Z</time>
      </trkpt>
      <trkpt lat="42.92931" lon="-0.16001">
        <ele>1596</ele>
        <time>2013-11-29T09:58:38Z</time>
      </trkpt>
      <trkpt lat="42.92924" lon="-0.15994">
        <ele>1600</ele>
        <time>2013-11-29T09:58:51Z</time>
      </trkpt>
      <trkpt lat="42.92914" lon="-0.15989">
        <ele>1602</ele>
        <time>2013-11-29T09:59:06Z</time>
      </trkpt>
      <trkpt lat="42.9291" lon="-0.16001">
        <ele>1604</ele>
        <time>2013-11-29T09:59:22Z</time>
      </trkpt>
      <trkpt lat="42.92904" lon="-0.16008">
        <ele>1607</ele>
        <time>2013-11-29T09:59:36Z</time>
      </trkpt>
      <trkpt lat="42.92904" lon="-0.16006">
        <ele>1609</ele>
        <time>2013-11-29T09:59:49Z</time>
      </trkpt>
      <trkpt lat="42.92902" lon="-0.15997">
        <ele>1611</ele>
        <time>2013-11-29T10:00:04Z</time>
      </trkpt>
      <trkpt lat="42.92899" lon="-0.15987">
        <ele>1615</ele>
        <time>2013-11-29T10:00:19Z</time>
      </trkpt>
      <trkpt lat="42.92899" lon="-0.15985">
        <ele>1615</ele>
        <time>2013-11-29T10:00:20Z</time>
      </trkpt>
      <trkpt lat="42.92896" lon="-0.15973">
        <ele>1618</ele>
        <time>2013-11-29T10:00:36Z</time>
      </trkpt>
      <trkpt lat="42.92896" lon="-0.15967">
        <ele>1619</ele>
        <time>2013-11-29T10:00:49Z</time>
      </trkpt>
      <trkpt lat="42.92894" lon="-0.15956">
        <ele>1623</ele>
        <time>2013-11-29T10:01:04Z</time>
      </trkpt>
      <trkpt lat="42.9289" lon="-0.15943">
        <ele>1625</ele>
        <time>2013-11-29T10:01:19Z</time>
      </trkpt>
      <trkpt lat="42.92886" lon="-0.15931">
        <ele>1628</ele>
        <time>2013-11-29T10:01:36Z</time>
      </trkpt>
      <trkpt lat="42.92885" lon="-0.15924">
        <ele>1629</ele>
        <time>2013-11-29T10:01:52Z</time>
      </trkpt>
      <trkpt lat="42.92879" lon="-0.1592">
        <ele>1631</ele>
        <time>2013-11-29T10:02:08Z</time>
      </trkpt>
      <trkpt lat="42.92875" lon="-0.15926">
        <ele>1632</ele>
        <time>2013-11-29T10:02:19Z</time>
      </trkpt>
      <trkpt lat="42.92865" lon="-0.15938">
        <ele>1635</ele>
        <time>2013-11-29T10:02:35Z</time>
      </trkpt>
      <trkpt lat="42.92858" lon="-0.1595">
        <ele>1636</ele>
        <time>2013-11-29T10:02:49Z</time>
      </trkpt>
      <trkpt lat="42.92852" lon="-0.15962">
        <ele>1638</ele>
        <time>2013-11-29T10:03:04Z</time>
      </trkpt>
      <trkpt lat="42.92847" lon="-0.15975">
        <ele>1641</ele>
        <time>2013-11-29T10:03:19Z</time>
      </trkpt>
      <trkpt lat="42.92842" lon="-0.15984">
        <ele>1643</ele>
        <time>2013-11-29T10:03:34Z</time>
      </trkpt>
      <trkpt lat="42.9284" lon="-0.15987">
        <ele>1644</ele>
        <time>2013-11-29T10:03:40Z</time>
      </trkpt>
      <trkpt lat="42.92837" lon="-0.15994">
        <ele>1646</ele>
        <time>2013-11-29T10:03:56Z</time>
      </trkpt>
      <trkpt lat="42.92842" lon="-0.15993">
        <ele>1646</ele>
        <time>2013-11-29T10:04:12Z</time>
      </trkpt>
      <trkpt lat="42.92841" lon="-0.15983">
        <ele>1649</ele>
        <time>2013-11-29T10:04:26Z</time>
      </trkpt>
      <trkpt lat="42.92841" lon="-0.15979">
        <ele>1651</ele>
        <time>2013-11-29T10:04:40Z</time>
      </trkpt>
      <trkpt lat="42.92841" lon="-0.1597">
        <ele>1653</ele>
        <time>2013-11-29T10:04:54Z</time>
      </trkpt>
      <trkpt lat="42.92839" lon="-0.15961">
        <ele>1655</ele>
        <time>2013-11-29T10:05:14Z</time>
      </trkpt>
      <trkpt lat="42.92837" lon="-0.15953">
        <ele>1656</ele>
        <time>2013-11-29T10:05:29Z</time>
      </trkpt>
      <trkpt lat="42.92828" lon="-0.15963">
        <ele>1659</ele>
        <time>2013-11-29T10:05:44Z</time>
      </trkpt>
      <trkpt lat="42.92819" lon="-0.15974">
        <ele>1660</ele>
        <time>2013-11-29T10:05:58Z</time>
      </trkpt>
      <trkpt lat="42.92812" lon="-0.15985">
        <ele>1662</ele>
        <time>2013-11-29T10:06:14Z</time>
      </trkpt>
      <trkpt lat="42.92806" lon="-0.15993">
        <ele>1665</ele>
        <time>2013-11-29T10:06:29Z</time>
      </trkpt>
      <trkpt lat="42.92808" lon="-0.1599">
        <ele>1666</ele>
        <time>2013-11-29T10:06:44Z</time>
      </trkpt>
      <trkpt lat="42.92809" lon="-0.15976">
        <ele>1668</ele>
        <time>2013-11-29T10:07:01Z</time>
      </trkpt>
      <trkpt lat="42.9281" lon="-0.15965">
        <ele>1671</ele>
        <time>2013-11-29T10:07:15Z</time>
      </trkpt>
      <trkpt lat="42.92806" lon="-0.15963">
        <ele>1673</ele>
        <time>2013-11-29T10:07:28Z</time>
      </trkpt>
      <trkpt lat="42.92796" lon="-0.15972">
        <ele>1675</ele>
        <time>2013-11-29T10:07:44Z</time>
      </trkpt>
      <trkpt lat="42.9279" lon="-0.15983">
        <ele>1677</ele>
        <time>2013-11-29T10:08:00Z</time>
      </trkpt>
      <trkpt lat="42.92787" lon="-0.15986">
        <ele>1679</ele>
        <time>2013-11-29T10:08:14Z</time>
      </trkpt>
      <trkpt lat="42.9279" lon="-0.15986">
        <ele>1680</ele>
        <time>2013-11-29T10:08:19Z</time>
      </trkpt>
      <trkpt lat="42.92792" lon="-0.15974">
        <ele>1681</ele>
        <time>2013-11-29T10:08:33Z</time>
      </trkpt>
      <trkpt lat="42.92793" lon="-0.15963">
        <ele>1683</ele>
        <time>2013-11-29T10:08:46Z</time>
      </trkpt>
      <trkpt lat="42.92794" lon="-0.15945">
        <ele>1685</ele>
        <time>2013-11-29T10:09:02Z</time>
      </trkpt>
      <trkpt lat="42.92796" lon="-0.15929">
        <ele>1687</ele>
        <time>2013-11-29T10:09:16Z</time>
      </trkpt>
      <trkpt lat="42.92797" lon="-0.15917">
        <ele>1689</ele>
        <time>2013-11-29T10:09:31Z</time>
      </trkpt>
      <trkpt lat="42.92798" lon="-0.15911">
        <ele>1691</ele>
        <time>2013-11-29T10:09:46Z</time>
      </trkpt>
      <trkpt lat="42.92796" lon="-0.15911">
        <ele>1691</ele>
        <time>2013-11-29T10:09:51Z</time>
      </trkpt>
      <trkpt lat="42.92785" lon="-0.15921">
        <ele>1693</ele>
        <time>2013-11-29T10:10:05Z</time>
      </trkpt>
      <trkpt lat="42.92777" lon="-0.15929">
        <ele>1695</ele>
        <time>2013-11-29T10:10:22Z</time>
      </trkpt>
      <trkpt lat="42.92769" lon="-0.15942">
        <ele>1699</ele>
        <time>2013-11-29T10:10:38Z</time>
      </trkpt>
      <trkpt lat="42.92764" lon="-0.15948">
        <ele>1700</ele>
        <time>2013-11-29T10:10:56Z</time>
      </trkpt>
      <trkpt lat="42.92767" lon="-0.15944">
        <ele>1702</ele>
        <time>2013-11-29T10:11:08Z</time>
      </trkpt>
      <trkpt lat="42.92768" lon="-0.1593">
        <ele>1704</ele>
        <time>2013-11-29T10:11:24Z</time>
      </trkpt>
      <trkpt lat="42.92768" lon="-0.15926">
        <ele>1705</ele>
        <time>2013-11-29T10:11:27Z</time>
      </trkpt>
      <trkpt lat="42.92768" lon="-0.1591">
        <ele>1707</ele>
        <time>2013-11-29T10:11:43Z</time>
      </trkpt>
      <trkpt lat="42.92767" lon="-0.15895">
        <ele>1710</ele>
        <time>2013-11-29T10:11:59Z</time>
      </trkpt>
      <trkpt lat="42.92765" lon="-0.1588">
        <ele>1714</ele>
        <time>2013-11-29T10:12:15Z</time>
      </trkpt>
      <trkpt lat="42.92764" lon="-0.15868">
        <ele>1716</ele>
        <time>2013-11-29T10:12:29Z</time>
      </trkpt>
      <trkpt lat="42.92759" lon="-0.15855">
        <ele>1718</ele>
        <time>2013-11-29T10:12:43Z</time>
      </trkpt>
      <trkpt lat="42.92756" lon="-0.15842">
        <ele>1720</ele>
        <time>2013-11-29T10:12:57Z</time>
      </trkpt>
      <trkpt lat="42.92755" lon="-0.15844">
        <ele>1720</ele>
        <time>2013-11-29T10:13:13Z</time>
      </trkpt>
      <trkpt lat="42.92752" lon="-0.15845">
        <ele>1720</ele>
        <time>2013-11-29T10:13:33Z</time>
      </trkpt>
      <trkpt lat="42.92749" lon="-0.15847">
        <ele>1720</ele>
        <time>2013-11-29T10:13:56Z</time>
      </trkpt>
      <trkpt lat="42.92748" lon="-0.15847">
        <ele>1720</ele>
        <time>2013-11-29T10:13:59Z</time>
      </trkpt>
      <trkpt lat="42.92744" lon="-0.15852">
        <ele>1724</ele>
        <time>2013-11-29T10:14:13Z</time>
      </trkpt>
      <trkpt lat="42.92741" lon="-0.1586">
        <ele>1726</ele>
        <time>2013-11-29T10:14:30Z</time>
      </trkpt>
      <trkpt lat="42.92737" lon="-0.15847">
        <ele>1729</ele>
        <time>2013-11-29T10:14:45Z</time>
      </trkpt>
      <trkpt lat="42.92737" lon="-0.15845">
        <ele>1730</ele>
        <time>2013-11-29T10:14:48Z</time>
      </trkpt>
      <trkpt lat="42.92736" lon="-0.15842">
        <ele>1730</ele>
        <time>2013-11-29T10:14:52Z</time>
      </trkpt>
      <trkpt lat="42.92732" lon="-0.15827">
        <ele>1733</ele>
        <time>2013-11-29T10:15:09Z</time>
      </trkpt>
      <trkpt lat="42.92725" lon="-0.15815">
        <ele>1735</ele>
        <time>2013-11-29T10:15:25Z</time>
      </trkpt>
      <trkpt lat="42.92718" lon="-0.15801">
        <ele>1737</ele>
        <time>2013-11-29T10:15:41Z</time>
      </trkpt>
      <trkpt lat="42.92718" lon="-0.15792">
        <ele>1738</ele>
        <time>2013-11-29T10:15:52Z</time>
      </trkpt>
      <trkpt lat="42.9272" lon="-0.15777">
        <ele>1740</ele>
        <time>2013-11-29T10:16:05Z</time>
      </trkpt>
      <trkpt lat="42.92721" lon="-0.15766">
        <ele>1742</ele>
        <time>2013-11-29T10:16:15Z</time>
      </trkpt>
      <trkpt lat="42.92714" lon="-0.15749">
        <ele>1744</ele>
        <time>2013-11-29T10:16:31Z</time>
      </trkpt>
      <trkpt lat="42.92714" lon="-0.15748">
        <ele>1744</ele>
        <time>2013-11-29T10:16:32Z</time>
      </trkpt>
      <trkpt lat="42.92708" lon="-0.15742">
        <ele>1745</ele>
        <time>2013-11-29T10:16:40Z</time>
      </trkpt>
      <trkpt lat="42.92698" lon="-0.15736">
        <ele>1747</ele>
        <time>2013-11-29T10:16:51Z</time>
      </trkpt>
      <trkpt lat="42.92687" lon="-0.1573">
        <ele>1749</ele>
        <time>2013-11-29T10:17:05Z</time>
      </trkpt>
      <trkpt lat="42.92681" lon="-0.15727">
        <ele>1750</ele>
        <time>2013-11-29T10:17:12Z</time>
      </trkpt>
      <trkpt lat="42.92678" lon="-0.15726">
        <ele>1750</ele>
        <time>2013-11-29T10:17:15Z</time>
      </trkpt>
      <trkpt lat="42.92672" lon="-0.15724">
        <ele>1752</ele>
        <time>2013-11-29T10:17:28Z</time>
      </trkpt>
      <trkpt lat="42.92668" lon="-0.15735">
        <ele>1754</ele>
        <time>2013-11-29T10:17:43Z</time>
      </trkpt>
      <trkpt lat="42.92667" lon="-0.15737">
        <ele>1755</ele>
        <time>2013-11-29T10:17:46Z</time>
      </trkpt>
      <trkpt lat="42.92661" lon="-0.15749">
        <ele>1757</ele>
        <time>2013-11-29T10:17:58Z</time>
      </trkpt>
      <trkpt lat="42.92663" lon="-0.15758">
        <ele>1758</ele>
        <time>2013-11-29T10:18:13Z</time>
      </trkpt>
      <trkpt lat="42.92659" lon="-0.1575">
        <ele>1759</ele>
        <time>2013-11-29T10:18:33Z</time>
      </trkpt>
      <trkpt lat="42.92657" lon="-0.15739">
        <ele>1762</ele>
        <time>2013-11-29T10:18:48Z</time>
      </trkpt>
      <trkpt lat="42.92656" lon="-0.15727">
        <ele>1763</ele>
        <time>2013-11-29T10:19:02Z</time>
      </trkpt>
      <trkpt lat="42.92653" lon="-0.15714">
        <ele>1766</ele>
        <time>2013-11-29T10:19:16Z</time>
      </trkpt>
      <trkpt lat="42.92646" lon="-0.15701">
        <ele>1768</ele>
        <time>2013-11-29T10:19:31Z</time>
      </trkpt>
      <trkpt lat="42.92638" lon="-0.15692">
        <ele>1772</ele>
        <time>2013-11-29T10:19:47Z</time>
      </trkpt>
      <trkpt lat="42.92634" lon="-0.15697">
        <ele>1773</ele>
        <time>2013-11-29T10:20:00Z</time>
      </trkpt>
      <trkpt lat="42.92632" lon="-0.15711">
        <ele>1776</ele>
        <time>2013-11-29T10:20:15Z</time>
      </trkpt>
      <trkpt lat="42.92628" lon="-0.15721">
        <ele>1778</ele>
        <time>2013-11-29T10:20:29Z</time>
      </trkpt>
      <trkpt lat="42.92622" lon="-0.15734">
        <ele>1780</ele>
        <time>2013-11-29T10:20:44Z</time>
      </trkpt>
      <trkpt lat="42.92618" lon="-0.15739">
        <ele>1783</ele>
        <time>2013-11-29T10:20:54Z</time>
      </trkpt>
      <trkpt lat="42.9261" lon="-0.1574">
        <ele>1785</ele>
        <time>2013-11-29T10:21:08Z</time>
      </trkpt>
      <trkpt lat="42.92608" lon="-0.15739">
        <ele>1785</ele>
        <time>2013-11-29T10:21:11Z</time>
      </trkpt>
      <trkpt lat="42.92596" lon="-0.15738">
        <ele>1787</ele>
        <time>2013-11-29T10:21:25Z</time>
      </trkpt>
      <trkpt lat="42.92583" lon="-0.15734">
        <ele>1788</ele>
        <time>2013-11-29T10:21:38Z</time>
      </trkpt>
      <trkpt lat="42.92581" lon="-0.15731">
        <ele>1789</ele>
        <time>2013-11-29T10:21:42Z</time>
      </trkpt>
      <trkpt lat="42.92576" lon="-0.15718">
        <ele>1792</ele>
        <time>2013-11-29T10:21:56Z</time>
      </trkpt>
      <trkpt lat="42.92571" lon="-0.15705">
        <ele>1793</ele>
        <time>2013-11-29T10:22:09Z</time>
      </trkpt>
      <trkpt lat="42.92566" lon="-0.15687">
        <ele>1795</ele>
        <time>2013-11-29T10:22:27Z</time>
      </trkpt>
      <trkpt lat="42.92562" lon="-0.15672">
        <ele>1797</ele>
        <time>2013-11-29T10:22:42Z</time>
      </trkpt>
      <trkpt lat="42.92557" lon="-0.15656">
        <ele>1800</ele>
        <time>2013-11-29T10:22:57Z</time>
      </trkpt>
      <trkpt lat="42.92554" lon="-0.15642">
        <ele>1803</ele>
        <time>2013-11-29T10:23:11Z</time>
      </trkpt>
      <trkpt lat="42.92549" lon="-0.1563">
        <ele>1805</ele>
        <time>2013-11-29T10:23:23Z</time>
      </trkpt>
      <trkpt lat="42.9254" lon="-0.15623">
        <ele>1806</ele>
        <time>2013-11-29T10:23:37Z</time>
      </trkpt>
      <trkpt lat="42.92532" lon="-0.15635">
        <ele>1809</ele>
        <time>2013-11-29T10:23:54Z</time>
      </trkpt>
      <trkpt lat="42.92527" lon="-0.15633">
        <ele>1812</ele>
        <time>2013-11-29T10:24:08Z</time>
      </trkpt>
      <trkpt lat="42.9252" lon="-0.15618">
        <ele>1814</ele>
        <time>2013-11-29T10:24:24Z</time>
      </trkpt>
      <trkpt lat="42.92517" lon="-0.15606">
        <ele>1817</ele>
        <time>2013-11-29T10:24:38Z</time>
      </trkpt>
      <trkpt lat="42.92511" lon="-0.15592">
        <ele>1819</ele>
        <time>2013-11-29T10:24:52Z</time>
      </trkpt>
      <trkpt lat="42.92511" lon="-0.15597">
        <ele>1818</ele>
        <time>2013-11-29T10:25:08Z</time>
      </trkpt>
      <trkpt lat="42.92507" lon="-0.15585">
        <ele>1820</ele>
        <time>2013-11-29T10:25:26Z</time>
      </trkpt>
      <trkpt lat="42.92505" lon="-0.15581">
        <ele>1821</ele>
        <time>2013-11-29T10:25:31Z</time>
      </trkpt>
      <trkpt lat="42.92498" lon="-0.15566">
        <ele>1823</ele>
        <time>2013-11-29T10:25:47Z</time>
      </trkpt>
      <trkpt lat="42.92494" lon="-0.15554">
        <ele>1825</ele>
        <time>2013-11-29T10:26:02Z</time>
      </trkpt>
      <trkpt lat="42.92491" lon="-0.15545">
        <ele>1826</ele>
        <time>2013-11-29T10:26:13Z</time>
      </trkpt>
      <trkpt lat="42.9249" lon="-0.15538">
        <ele>1826</ele>
        <time>2013-11-29T10:26:27Z</time>
      </trkpt>
      <trkpt lat="42.9249" lon="-0.15535">
        <ele>1827</ele>
        <time>2013-11-29T10:26:49Z</time>
      </trkpt>
      <trkpt lat="42.92489" lon="-0.15528">
        <ele>1828</ele>
        <time>2013-11-29T10:26:56Z</time>
      </trkpt>
      <trkpt lat="42.92488" lon="-0.15515">
        <ele>1830</ele>
        <time>2013-11-29T10:27:10Z</time>
      </trkpt>
      <trkpt lat="42.92487" lon="-0.15501">
        <ele>1832</ele>
        <time>2013-11-29T10:27:26Z</time>
      </trkpt>
      <trkpt lat="42.92486" lon="-0.15487">
        <ele>1835</ele>
        <time>2013-11-29T10:27:41Z</time>
      </trkpt>
      <trkpt lat="42.92483" lon="-0.15475">
        <ele>1837</ele>
        <time>2013-11-29T10:27:55Z</time>
      </trkpt>
      <trkpt lat="42.92481" lon="-0.15468">
        <ele>1838</ele>
        <time>2013-11-29T10:28:11Z</time>
      </trkpt>
      <trkpt lat="42.92481" lon="-0.15471">
        <ele>1838</ele>
        <time>2013-11-29T10:28:29Z</time>
      </trkpt>
      <trkpt lat="42.92475" lon="-0.15479">
        <ele>1841</ele>
        <time>2013-11-29T10:28:51Z</time>
      </trkpt>
      <trkpt lat="42.92475" lon="-0.15479">
        <ele>1841</ele>
        <time>2013-11-29T10:28:52Z</time>
      </trkpt>
      <trkpt lat="42.92473" lon="-0.15482">
        <ele>1842</ele>
        <time>2013-11-29T10:29:11Z</time>
      </trkpt>
      <trkpt lat="42.9247" lon="-0.15477">
        <ele>1843</ele>
        <time>2013-11-29T10:29:23Z</time>
      </trkpt>
      <trkpt lat="42.92465" lon="-0.15464">
        <ele>1845</ele>
        <time>2013-11-29T10:29:38Z</time>
      </trkpt>
      <trkpt lat="42.9246" lon="-0.15459">
        <ele>1848</ele>
        <time>2013-11-29T10:29:53Z</time>
      </trkpt>
      <trkpt lat="42.92456" lon="-0.15464">
        <ele>1848</ele>
        <time>2013-11-29T10:30:07Z</time>
      </trkpt>
      <trkpt lat="42.9245" lon="-0.15469">
        <ele>1850</ele>
        <time>2013-11-29T10:30:17Z</time>
      </trkpt>
      <trkpt lat="42.92445" lon="-0.15474">
        <ele>1851</ele>
        <time>2013-11-29T10:30:30Z</time>
      </trkpt>
      <trkpt lat="42.92444" lon="-0.15476">
        <ele>1847</ele>
        <time>2013-11-29T10:30:42Z</time>
      </trkpt>
      <trkpt lat="42.92444" lon="-0.15476">
        <ele>1854</ele>
        <time>2013-11-29T10:30:43Z</time>
      </trkpt>
      <trkpt lat="42.92444" lon="-0.15475">
        <ele>1851</ele>
        <time>2013-11-29T10:30:44Z</time>
      </trkpt>
      <trkpt lat="42.92444" lon="-0.15476">
        <ele>1851</ele>
        <time>2013-11-29T10:31:21Z</time>
      </trkpt>
      <trkpt lat="42.92446" lon="-0.15474">
        <ele>1851</ele>
        <time>2013-11-29T10:31:55Z</time>
      </trkpt>
      <trkpt lat="42.92444" lon="-0.15474">
        <ele>1848</ele>
        <time>2013-11-29T10:32:11Z</time>
      </trkpt>
      <trkpt lat="42.92444" lon="-0.15475">
        <ele>1851</ele>
        <time>2013-11-29T10:32:12Z</time>
      </trkpt>
      <trkpt lat="42.92443" lon="-0.15476">
        <ele>1850</ele>
        <time>2013-11-29T10:32:44Z</time>
      </trkpt>
      <trkpt lat="42.92444" lon="-0.15476">
        <ele>1850</ele>
        <time>2013-11-29T10:33:11Z</time>
      </trkpt>
      <trkpt lat="42.92442" lon="-0.15481">
        <ele>1851</ele>
        <time>2013-11-29T10:33:23Z</time>
      </trkpt>
      <trkpt lat="42.92441" lon="-0.15489">
        <ele>1852</ele>
        <time>2013-11-29T10:33:33Z</time>
      </trkpt>
      <trkpt lat="42.92439" lon="-0.15489">
        <ele>1853</ele>
        <time>2013-11-29T10:33:45Z</time>
      </trkpt>
      <trkpt lat="42.92439" lon="-0.15482">
        <ele>1855</ele>
        <time>2013-11-29T10:33:57Z</time>
      </trkpt>
      <trkpt lat="42.92441" lon="-0.15482">
        <ele>1852</ele>
        <time>2013-11-29T10:34:11Z</time>
      </trkpt>
      <trkpt lat="42.92441" lon="-0.15482">
        <ele>1857</ele>
        <time>2013-11-29T10:34:12Z</time>
      </trkpt>
      <trkpt lat="42.92441" lon="-0.15483">
        <ele>1853</ele>
        <time>2013-11-29T10:34:16Z</time>
      </trkpt>
      <trkpt lat="42.92441" lon="-0.15483">
        <ele>1858</ele>
        <time>2013-11-29T10:34:17Z</time>
      </trkpt>
      <trkpt lat="42.92441" lon="-0.15483">
        <ele>1855</ele>
        <time>2013-11-29T10:34:18Z</time>
      </trkpt>
      <trkpt lat="42.92437" lon="-0.15481">
        <ele>1855</ele>
        <time>2013-11-29T10:34:46Z</time>
      </trkpt>
      <trkpt lat="42.92432" lon="-0.15471">
        <ele>1857</ele>
        <time>2013-11-29T10:35:00Z</time>
      </trkpt>
      <trkpt lat="42.92429" lon="-0.15464">
        <ele>1856</ele>
        <time>2013-11-29T10:35:11Z</time>
      </trkpt>
      <trkpt lat="42.92428" lon="-0.15464">
        <ele>1859</ele>
        <time>2013-11-29T10:35:35Z</time>
      </trkpt>
      <trkpt lat="42.92428" lon="-0.15464">
        <ele>1855</ele>
        <time>2013-11-29T10:35:36Z</time>
      </trkpt>
      <trkpt lat="42.92428" lon="-0.15464">
        <ele>1859</ele>
        <time>2013-11-29T10:35:37Z</time>
      </trkpt>
      <trkpt lat="42.92425" lon="-0.15463">
        <ele>1858</ele>
        <time>2013-11-29T10:35:46Z</time>
      </trkpt>
      <trkpt lat="42.92426" lon="-0.1546">
        <ele>1856</ele>
        <time>2013-11-29T10:36:02Z</time>
      </trkpt>
      <trkpt lat="42.92426" lon="-0.1546">
        <ele>1861</ele>
        <time>2013-11-29T10:36:03Z</time>
      </trkpt>
      <trkpt lat="42.92425" lon="-0.15457">
        <ele>1859</ele>
        <time>2013-11-29T10:36:21Z</time>
      </trkpt>
      <trkpt lat="42.92421" lon="-0.15464">
        <ele>1860</ele>
        <time>2013-11-29T10:36:32Z</time>
      </trkpt>
      <trkpt lat="42.92416" lon="-0.15475">
        <ele>1862</ele>
        <time>2013-11-29T10:36:44Z</time>
      </trkpt>
      <trkpt lat="42.92415" lon="-0.15481">
        <ele>1864</ele>
        <time>2013-11-29T10:36:57Z</time>
      </trkpt>
      <trkpt lat="42.92413" lon="-0.15484">
        <ele>1864</ele>
        <time>2013-11-29T10:37:16Z</time>
      </trkpt>
      <trkpt lat="42.92411" lon="-0.1547">
        <ele>1867</ele>
        <time>2013-11-29T10:37:29Z</time>
      </trkpt>
      <trkpt lat="42.92411" lon="-0.1547">
        <ele>1866</ele>
        <time>2013-11-29T10:37:44Z</time>
      </trkpt>
      <trkpt lat="42.92407" lon="-0.15462">
        <ele>1868</ele>
        <time>2013-11-29T10:37:57Z</time>
      </trkpt>
      <trkpt lat="42.92404" lon="-0.15449">
        <ele>1871</ele>
        <time>2013-11-29T10:38:11Z</time>
      </trkpt>
      <trkpt lat="42.92402" lon="-0.15436">
        <ele>1873</ele>
        <time>2013-11-29T10:38:23Z</time>
      </trkpt>
      <trkpt lat="42.92399" lon="-0.15427">
        <ele>1875</ele>
        <time>2013-11-29T10:38:37Z</time>
      </trkpt>
      <trkpt lat="42.92394" lon="-0.15432">
        <ele>1876</ele>
        <time>2013-11-29T10:38:57Z</time>
      </trkpt>
      <trkpt lat="42.92386" lon="-0.15442">
        <ele>1878</ele>
        <time>2013-11-29T10:39:12Z</time>
      </trkpt>
      <trkpt lat="42.92381" lon="-0.15452">
        <ele>1880</ele>
        <time>2013-11-29T10:39:26Z</time>
      </trkpt>
      <trkpt lat="42.92379" lon="-0.15443">
        <ele>1883</ele>
        <time>2013-11-29T10:39:39Z</time>
      </trkpt>
      <trkpt lat="42.92373" lon="-0.15431">
        <ele>1886</ele>
        <time>2013-11-29T10:39:54Z</time>
      </trkpt>
      <trkpt lat="42.92368" lon="-0.1542">
        <ele>1889</ele>
        <time>2013-11-29T10:40:09Z</time>
      </trkpt>
      <trkpt lat="42.92362" lon="-0.15409">
        <ele>1890</ele>
        <time>2013-11-29T10:40:24Z</time>
      </trkpt>
      <trkpt lat="42.92357" lon="-0.15401">
        <ele>1893</ele>
        <time>2013-11-29T10:40:35Z</time>
      </trkpt>
      <trkpt lat="42.92349" lon="-0.15391">
        <ele>1896</ele>
        <time>2013-11-29T10:40:50Z</time>
      </trkpt>
      <trkpt lat="42.92346" lon="-0.15389">
        <ele>1897</ele>
        <time>2013-11-29T10:40:54Z</time>
      </trkpt>
      <trkpt lat="42.92339" lon="-0.15376">
        <ele>1900</ele>
        <time>2013-11-29T10:41:09Z</time>
      </trkpt>
      <trkpt lat="42.92332" lon="-0.15366">
        <ele>1903</ele>
        <time>2013-11-29T10:41:23Z</time>
      </trkpt>
      <trkpt lat="42.92321" lon="-0.15359">
        <ele>1904</ele>
        <time>2013-11-29T10:41:39Z</time>
      </trkpt>
      <trkpt lat="42.92318" lon="-0.15356">
        <ele>1905</ele>
        <time>2013-11-29T10:41:43Z</time>
      </trkpt>
      <trkpt lat="42.92309" lon="-0.15349">
        <ele>1908</ele>
        <time>2013-11-29T10:41:56Z</time>
      </trkpt>
      <trkpt lat="42.92299" lon="-0.15339">
        <ele>1910</ele>
        <time>2013-11-29T10:42:12Z</time>
      </trkpt>
      <trkpt lat="42.92298" lon="-0.15336">
        <ele>1911</ele>
        <time>2013-11-29T10:42:26Z</time>
      </trkpt>
      <trkpt lat="42.92296" lon="-0.15328">
        <ele>1912</ele>
        <time>2013-11-29T10:42:51Z</time>
      </trkpt>
      <trkpt lat="42.92288" lon="-0.15315">
        <ele>1915</ele>
        <time>2013-11-29T10:43:07Z</time>
      </trkpt>
      <trkpt lat="42.92282" lon="-0.15299">
        <ele>1916</ele>
        <time>2013-11-29T10:43:22Z</time>
      </trkpt>
      <trkpt lat="42.92276" lon="-0.15287">
        <ele>1918</ele>
        <time>2013-11-29T10:43:35Z</time>
      </trkpt>
      <trkpt lat="42.92268" lon="-0.15271">
        <ele>1920</ele>
        <time>2013-11-29T10:43:50Z</time>
      </trkpt>
      <trkpt lat="42.9226" lon="-0.15255">
        <ele>1922</ele>
        <time>2013-11-29T10:44:04Z</time>
      </trkpt>
      <trkpt lat="42.9225" lon="-0.15243">
        <ele>1924</ele>
        <time>2013-11-29T10:44:18Z</time>
      </trkpt>
      <trkpt lat="42.92234" lon="-0.15238">
        <ele>1925</ele>
        <time>2013-11-29T10:44:33Z</time>
      </trkpt>
      <trkpt lat="42.92232" lon="-0.15238">
        <ele>1926</ele>
        <time>2013-11-29T10:44:34Z</time>
      </trkpt>
      <trkpt lat="42.92222" lon="-0.15231">
        <ele>1927</ele>
        <time>2013-11-29T10:44:49Z</time>
      </trkpt>
      <trkpt lat="42.9222" lon="-0.15223">
        <ele>1929</ele>
        <time>2013-11-29T10:44:58Z</time>
      </trkpt>
      <trkpt lat="42.92219" lon="-0.15207">
        <ele>1931</ele>
        <time>2013-11-29T10:45:13Z</time>
      </trkpt>
      <trkpt lat="42.92217" lon="-0.15187">
        <ele>1933</ele>
        <time>2013-11-29T10:45:29Z</time>
      </trkpt>
      <trkpt lat="42.92212" lon="-0.15175">
        <ele>1933</ele>
        <time>2013-11-29T10:45:38Z</time>
      </trkpt>
      <trkpt lat="42.92204" lon="-0.1517">
        <ele>1934</ele>
        <time>2013-11-29T10:45:53Z</time>
      </trkpt>
      <trkpt lat="42.92198" lon="-0.1517">
        <ele>1934</ele>
        <time>2013-11-29T10:45:58Z</time>
      </trkpt>
      <trkpt lat="42.92183" lon="-0.15168">
        <ele>1935</ele>
        <time>2013-11-29T10:46:11Z</time>
      </trkpt>
      <trkpt lat="42.92172" lon="-0.15166">
        <ele>1935</ele>
        <time>2013-11-29T10:46:23Z</time>
      </trkpt>
      <trkpt lat="42.92172" lon="-0.15165">
        <ele>1936</ele>
        <time>2013-11-29T10:46:24Z</time>
      </trkpt>
      <trkpt lat="42.92159" lon="-0.15152">
        <ele>1937</ele>
        <time>2013-11-29T10:46:42Z</time>
      </trkpt>
      <trkpt lat="42.92147" lon="-0.15143">
        <ele>1938</ele>
        <time>2013-11-29T10:46:55Z</time>
      </trkpt>
      <trkpt lat="42.9214" lon="-0.15141">
        <ele>1939</ele>
        <time>2013-11-29T10:47:00Z</time>
      </trkpt>
      <trkpt lat="42.92131" lon="-0.15132">
        <ele>1938</ele>
        <time>2013-11-29T10:47:09Z</time>
      </trkpt>
      <trkpt lat="42.92124" lon="-0.15123">
        <ele>1940</ele>
        <time>2013-11-29T10:47:20Z</time>
      </trkpt>
      <trkpt lat="42.92123" lon="-0.15121">
        <ele>1939</ele>
        <time>2013-11-29T10:47:22Z</time>
      </trkpt>
      <trkpt lat="42.9212" lon="-0.15117">
        <ele>1940</ele>
        <time>2013-11-29T10:47:26Z</time>
      </trkpt>
      <trkpt lat="42.92117" lon="-0.15115">
        <ele>1940</ele>
        <time>2013-11-29T10:47:29Z</time>
      </trkpt>
      <trkpt lat="42.92116" lon="-0.15113">
        <ele>1940</ele>
        <time>2013-11-29T10:47:31Z</time>
      </trkpt>
      <trkpt lat="42.9211" lon="-0.15096">
        <ele>1942</ele>
        <time>2013-11-29T10:47:47Z</time>
      </trkpt>
      <trkpt lat="42.92103" lon="-0.15086">
        <ele>1943</ele>
        <time>2013-11-29T10:48:01Z</time>
      </trkpt>
      <trkpt lat="42.92105" lon="-0.15084">
        <ele>1944</ele>
        <time>2013-11-29T10:48:18Z</time>
      </trkpt>
      <trkpt lat="42.92097" lon="-0.15076">
        <ele>1944</ele>
        <time>2013-11-29T10:48:33Z</time>
      </trkpt>
      <trkpt lat="42.92091" lon="-0.15066">
        <ele>1947</ele>
        <time>2013-11-29T10:48:48Z</time>
      </trkpt>
      <trkpt lat="42.92081" lon="-0.15059">
        <ele>1949</ele>
        <time>2013-11-29T10:49:03Z</time>
      </trkpt>
      <trkpt lat="42.92071" lon="-0.15057">
        <ele>1952</ele>
        <time>2013-11-29T10:49:16Z</time>
      </trkpt>
      <trkpt lat="42.92063" lon="-0.15054">
        <ele>1954</ele>
        <time>2013-11-29T10:49:29Z</time>
      </trkpt>
      <trkpt lat="42.9206" lon="-0.15052">
        <ele>1955</ele>
        <time>2013-11-29T10:49:34Z</time>
      </trkpt>
      <trkpt lat="42.9205" lon="-0.15051">
        <ele>1956</ele>
        <time>2013-11-29T10:49:48Z</time>
      </trkpt>
      <trkpt lat="42.92042" lon="-0.15046">
        <ele>1958</ele>
        <time>2013-11-29T10:50:01Z</time>
      </trkpt>
      <trkpt lat="42.92035" lon="-0.15036">
        <ele>1960</ele>
        <time>2013-11-29T10:50:14Z</time>
      </trkpt>
      <trkpt lat="42.92028" lon="-0.15028">
        <ele>1961</ele>
        <time>2013-11-29T10:50:26Z</time>
      </trkpt>
      <trkpt lat="42.92019" lon="-0.15019">
        <ele>1963</ele>
        <time>2013-11-29T10:50:39Z</time>
      </trkpt>
      <trkpt lat="42.92012" lon="-0.15009">
        <ele>1966</ele>
        <time>2013-11-29T10:50:53Z</time>
      </trkpt>
      <trkpt lat="42.92005" lon="-0.14999">
        <ele>1968</ele>
        <time>2013-11-29T10:51:07Z</time>
      </trkpt>
      <trkpt lat="42.91996" lon="-0.1499">
        <ele>1972</ele>
        <time>2013-11-29T10:51:22Z</time>
      </trkpt>
      <trkpt lat="42.91989" lon="-0.14983">
        <ele>1974</ele>
        <time>2013-11-29T10:51:34Z</time>
      </trkpt>
      <trkpt lat="42.91989" lon="-0.14978">
        <ele>1975</ele>
        <time>2013-11-29T10:51:49Z</time>
      </trkpt>
      <trkpt lat="42.9198" lon="-0.14974">
        <ele>1976</ele>
        <time>2013-11-29T10:52:09Z</time>
      </trkpt>
      <trkpt lat="42.91972" lon="-0.14969">
        <ele>1979</ele>
        <time>2013-11-29T10:52:23Z</time>
      </trkpt>
      <trkpt lat="42.91962" lon="-0.14962">
        <ele>1981</ele>
        <time>2013-11-29T10:52:37Z</time>
      </trkpt>
      <trkpt lat="42.91954" lon="-0.14961">
        <ele>1983</ele>
        <time>2013-11-29T10:52:51Z</time>
      </trkpt>
      <trkpt lat="42.91948" lon="-0.14973">
        <ele>1986</ele>
        <time>2013-11-29T10:53:05Z</time>
      </trkpt>
      <trkpt lat="42.91946" lon="-0.14979">
        <ele>1987</ele>
        <time>2013-11-29T10:53:19Z</time>
      </trkpt>
      <trkpt lat="42.91944" lon="-0.14979">
        <ele>1987</ele>
        <time>2013-11-29T10:53:43Z</time>
      </trkpt>
      <trkpt lat="42.91938" lon="-0.14994">
        <ele>1991</ele>
        <time>2013-11-29T10:54:00Z</time>
      </trkpt>
      <trkpt lat="42.91931" lon="-0.15006">
        <ele>1992</ele>
        <time>2013-11-29T10:54:16Z</time>
      </trkpt>
      <trkpt lat="42.91924" lon="-0.15021">
        <ele>1996</ele>
        <time>2013-11-29T10:54:33Z</time>
      </trkpt>
      <trkpt lat="42.91922" lon="-0.15029">
        <ele>1997</ele>
        <time>2013-11-29T10:54:48Z</time>
      </trkpt>
      <trkpt lat="42.91921" lon="-0.15036">
        <ele>1998</ele>
        <time>2013-11-29T10:55:09Z</time>
      </trkpt>
      <trkpt lat="42.91918" lon="-0.15036">
        <ele>1999</ele>
        <time>2013-11-29T10:55:21Z</time>
      </trkpt>
      <trkpt lat="42.91907" lon="-0.15036">
        <ele>2003</ele>
        <time>2013-11-29T10:55:38Z</time>
      </trkpt>
      <trkpt lat="42.91903" lon="-0.15037">
        <ele>2004</ele>
        <time>2013-11-29T10:55:44Z</time>
      </trkpt>
      <trkpt lat="42.91903" lon="-0.15045">
        <ele>2004</ele>
        <time>2013-11-29T10:55:59Z</time>
      </trkpt>
      <trkpt lat="42.91902" lon="-0.15044">
        <ele>2004</ele>
        <time>2013-11-29T10:56:28Z</time>
      </trkpt>
      <trkpt lat="42.91902" lon="-0.15046">
        <ele>2004</ele>
        <time>2013-11-29T10:56:52Z</time>
      </trkpt>
      <trkpt lat="42.91902" lon="-0.15048">
        <ele>2004</ele>
        <time>2013-11-29T10:57:19Z</time>
      </trkpt>
      <trkpt lat="42.91901" lon="-0.15048">
        <ele>2004</ele>
        <time>2013-11-29T10:57:44Z</time>
      </trkpt>
      <trkpt lat="42.91902" lon="-0.15048">
        <ele>2004</ele>
        <time>2013-11-29T10:58:19Z</time>
      </trkpt>
      <trkpt lat="42.91902" lon="-0.15047">
        <ele>2005</ele>
        <time>2013-11-29T10:58:37Z</time>
      </trkpt>
      <trkpt lat="42.91904" lon="-0.15057">
        <ele>2006</ele>
        <time>2013-11-29T10:58:52Z</time>
      </trkpt>
      <trkpt lat="42.91893" lon="-0.15053">
        <ele>2009</ele>
        <time>2013-11-29T10:59:09Z</time>
      </trkpt>
      <trkpt lat="42.91884" lon="-0.15048">
        <ele>2012</ele>
        <time>2013-11-29T10:59:25Z</time>
      </trkpt>
      <trkpt lat="42.91876" lon="-0.15042">
        <ele>2014</ele>
        <time>2013-11-29T10:59:42Z</time>
      </trkpt>
      <trkpt lat="42.91866" lon="-0.15035">
        <ele>2017</ele>
        <time>2013-11-29T10:59:58Z</time>
      </trkpt>
      <trkpt lat="42.91865" lon="-0.15038">
        <ele>2017</ele>
        <time>2013-11-29T11:00:15Z</time>
      </trkpt>
      <trkpt lat="42.91866" lon="-0.15044">
        <ele>2018</ele>
        <time>2013-11-29T11:00:31Z</time>
      </trkpt>
      <trkpt lat="42.91871" lon="-0.15057">
        <ele>2021</ele>
        <time>2013-11-29T11:00:49Z</time>
      </trkpt>
      <trkpt lat="42.91871" lon="-0.15056">
        <ele>2022</ele>
        <time>2013-11-29T11:01:02Z</time>
      </trkpt>
      <trkpt lat="42.91863" lon="-0.15051">
        <ele>2023</ele>
        <time>2013-11-29T11:01:19Z</time>
      </trkpt>
      <trkpt lat="42.91858" lon="-0.15045">
        <ele>2025</ele>
        <time>2013-11-29T11:01:35Z</time>
      </trkpt>
      <trkpt lat="42.91859" lon="-0.15047">
        <ele>2026</ele>
        <time>2013-11-29T11:01:47Z</time>
      </trkpt>
      <trkpt lat="42.91861" lon="-0.1506">
        <ele>2027</ele>
        <time>2013-11-29T11:02:01Z</time>
      </trkpt>
      <trkpt lat="42.91863" lon="-0.15071">
        <ele>2028</ele>
        <time>2013-11-29T11:02:14Z</time>
      </trkpt>
      <trkpt lat="42.91861" lon="-0.15069">
        <ele>2029</ele>
        <time>2013-11-29T11:02:26Z</time>
      </trkpt>
      <trkpt lat="42.91854" lon="-0.1506">
        <ele>2031</ele>
        <time>2013-11-29T11:02:42Z</time>
      </trkpt>
      <trkpt lat="42.9185" lon="-0.15055">
        <ele>2032</ele>
        <time>2013-11-29T11:02:58Z</time>
      </trkpt>
      <trkpt lat="42.91853" lon="-0.15067">
        <ele>2034</ele>
        <time>2013-11-29T11:03:15Z</time>
      </trkpt>
      <trkpt lat="42.91853" lon="-0.15073">
        <ele>2035</ele>
        <time>2013-11-29T11:03:31Z</time>
      </trkpt>
      <trkpt lat="42.9185" lon="-0.15067">
        <ele>2036</ele>
        <time>2013-11-29T11:03:44Z</time>
      </trkpt>
      <trkpt lat="42.91843" lon="-0.1506">
        <ele>2039</ele>
        <time>2013-11-29T11:04:02Z</time>
      </trkpt>
      <trkpt lat="42.91843" lon="-0.15069">
        <ele>2040</ele>
        <time>2013-11-29T11:04:17Z</time>
      </trkpt>
      <trkpt lat="42.91847" lon="-0.15082">
        <ele>2041</ele>
        <time>2013-11-29T11:04:32Z</time>
      </trkpt>
      <trkpt lat="42.91848" lon="-0.15078">
        <ele>2041</ele>
        <time>2013-11-29T11:04:47Z</time>
      </trkpt>
      <trkpt lat="42.91838" lon="-0.1507">
        <ele>2044</ele>
        <time>2013-11-29T11:05:05Z</time>
      </trkpt>
      <trkpt lat="42.91834" lon="-0.15073">
        <ele>2045</ele>
        <time>2013-11-29T11:05:21Z</time>
      </trkpt>
      <trkpt lat="42.91834" lon="-0.15077">
        <ele>2047</ele>
        <time>2013-11-29T11:05:39Z</time>
      </trkpt>
      <trkpt lat="42.9183" lon="-0.1507">
        <ele>2048</ele>
        <time>2013-11-29T11:05:51Z</time>
      </trkpt>
      <trkpt lat="42.91829" lon="-0.15078">
        <ele>2049</ele>
        <time>2013-11-29T11:06:07Z</time>
      </trkpt>
      <trkpt lat="42.91829" lon="-0.15076">
        <ele>2050</ele>
        <time>2013-11-29T11:06:18Z</time>
      </trkpt>
      <trkpt lat="42.91826" lon="-0.15069">
        <ele>2052</ele>
        <time>2013-11-29T11:06:33Z</time>
      </trkpt>
      <trkpt lat="42.91825" lon="-0.1508">
        <ele>2053</ele>
        <time>2013-11-29T11:06:45Z</time>
      </trkpt>
      <trkpt lat="42.91824" lon="-0.15079">
        <ele>2053</ele>
        <time>2013-11-29T11:06:55Z</time>
      </trkpt>
      <trkpt lat="42.91818" lon="-0.15071">
        <ele>2056</ele>
        <time>2013-11-29T11:07:09Z</time>
      </trkpt>
      <trkpt lat="42.91807" lon="-0.15069">
        <ele>2059</ele>
        <time>2013-11-29T11:07:28Z</time>
      </trkpt>
      <trkpt lat="42.91801" lon="-0.15072">
        <ele>2061</ele>
        <time>2013-11-29T11:07:44Z</time>
      </trkpt>
      <trkpt lat="42.91794" lon="-0.15082">
        <ele>2064</ele>
        <time>2013-11-29T11:07:59Z</time>
      </trkpt>
      <trkpt lat="42.91796" lon="-0.15084">
        <ele>2065</ele>
        <time>2013-11-29T11:08:14Z</time>
      </trkpt>
      <trkpt lat="42.91802" lon="-0.15091">
        <ele>2066</ele>
        <time>2013-11-29T11:08:28Z</time>
      </trkpt>
      <trkpt lat="42.91808" lon="-0.15105">
        <ele>2068</ele>
        <time>2013-11-29T11:08:46Z</time>
      </trkpt>
      <trkpt lat="42.91819" lon="-0.15108">
        <ele>2071</ele>
        <time>2013-11-29T11:09:01Z</time>
      </trkpt>
      <trkpt lat="42.91813" lon="-0.15111">
        <ele>2071</ele>
        <time>2013-11-29T11:09:15Z</time>
      </trkpt>
      <trkpt lat="42.918" lon="-0.15113">
        <ele>2074</ele>
        <time>2013-11-29T11:09:32Z</time>
      </trkpt>
      <trkpt lat="42.91787" lon="-0.15123">
        <ele>2076</ele>
        <time>2013-11-29T11:09:50Z</time>
      </trkpt>
      <trkpt lat="42.9178" lon="-0.1513">
        <ele>2078</ele>
        <time>2013-11-29T11:10:02Z</time>
      </trkpt>
      <trkpt lat="42.91771" lon="-0.15137">
        <ele>2079</ele>
        <time>2013-11-29T11:10:16Z</time>
      </trkpt>
      <trkpt lat="42.91761" lon="-0.15145">
        <ele>2082</ele>
        <time>2013-11-29T11:10:33Z</time>
      </trkpt>
      <trkpt lat="42.91752" lon="-0.15153">
        <ele>2085</ele>
        <time>2013-11-29T11:10:48Z</time>
      </trkpt>
      <trkpt lat="42.91744" lon="-0.15161">
        <ele>2087</ele>
        <time>2013-11-29T11:11:03Z</time>
      </trkpt>
      <trkpt lat="42.91743" lon="-0.15164">
        <ele>2088</ele>
        <time>2013-11-29T11:11:19Z</time>
      </trkpt>
      <trkpt lat="42.91734" lon="-0.15165">
        <ele>2090</ele>
        <time>2013-11-29T11:11:36Z</time>
      </trkpt>
      <trkpt lat="42.91724" lon="-0.15171">
        <ele>2092</ele>
        <time>2013-11-29T11:11:53Z</time>
      </trkpt>
      <trkpt lat="42.91716" lon="-0.15178">
        <ele>2094</ele>
        <time>2013-11-29T11:12:09Z</time>
      </trkpt>
      <trkpt lat="42.91707" lon="-0.15186">
        <ele>2097</ele>
        <time>2013-11-29T11:12:25Z</time>
      </trkpt>
      <trkpt lat="42.91708" lon="-0.15193">
        <ele>2100</ele>
        <time>2013-11-29T11:12:37Z</time>
      </trkpt>
      <trkpt lat="42.91716" lon="-0.152">
        <ele>2103</ele>
        <time>2013-11-29T11:12:54Z</time>
      </trkpt>
      <trkpt lat="42.91724" lon="-0.15208">
        <ele>2105</ele>
        <time>2013-11-29T11:13:12Z</time>
      </trkpt>
      <trkpt lat="42.91724" lon="-0.1521">
        <ele>2106</ele>
        <time>2013-11-29T11:13:16Z</time>
      </trkpt>
      <trkpt lat="42.91716" lon="-0.15218">
        <ele>2109</ele>
        <time>2013-11-29T11:13:31Z</time>
      </trkpt>
      <trkpt lat="42.91707" lon="-0.15227">
        <ele>2112</ele>
        <time>2013-11-29T11:13:46Z</time>
      </trkpt>
      <trkpt lat="42.91698" lon="-0.15236">
        <ele>2115</ele>
        <time>2013-11-29T11:14:02Z</time>
      </trkpt>
      <trkpt lat="42.91691" lon="-0.15249">
        <ele>2117</ele>
        <time>2013-11-29T11:14:17Z</time>
      </trkpt>
      <trkpt lat="42.91684" lon="-0.15256">
        <ele>2120</ele>
        <time>2013-11-29T11:14:31Z</time>
      </trkpt>
      <trkpt lat="42.9168" lon="-0.15263">
        <ele>2122</ele>
        <time>2013-11-29T11:14:44Z</time>
      </trkpt>
      <trkpt lat="42.91677" lon="-0.15268">
        <ele>2123</ele>
        <time>2013-11-29T11:15:06Z</time>
      </trkpt>
      <trkpt lat="42.91683" lon="-0.15272">
        <ele>2124</ele>
        <time>2013-11-29T11:15:29Z</time>
      </trkpt>
      <trkpt lat="42.91692" lon="-0.15278">
        <ele>2127</ele>
        <time>2013-11-29T11:15:47Z</time>
      </trkpt>
      <trkpt lat="42.91701" lon="-0.1528">
        <ele>2129</ele>
        <time>2013-11-29T11:16:01Z</time>
      </trkpt>
      <trkpt lat="42.91706" lon="-0.15283">
        <ele>2131</ele>
        <time>2013-11-29T11:16:14Z</time>
      </trkpt>
      <trkpt lat="42.91707" lon="-0.15285">
        <ele>2132</ele>
        <time>2013-11-29T11:16:30Z</time>
      </trkpt>
      <trkpt lat="42.91698" lon="-0.15286">
        <ele>2134</ele>
        <time>2013-11-29T11:16:44Z</time>
      </trkpt>
      <trkpt lat="42.91691" lon="-0.1529">
        <ele>2137</ele>
        <time>2013-11-29T11:16:59Z</time>
      </trkpt>
      <trkpt lat="42.91689" lon="-0.15293">
        <ele>2139</ele>
        <time>2013-11-29T11:17:14Z</time>
      </trkpt>
      <trkpt lat="42.91694" lon="-0.15301">
        <ele>2139</ele>
        <time>2013-11-29T11:17:36Z</time>
      </trkpt>
      <trkpt lat="42.91705" lon="-0.15306">
        <ele>2141</ele>
        <time>2013-11-29T11:17:52Z</time>
      </trkpt>
      <trkpt lat="42.91713" lon="-0.15309">
        <ele>2144</ele>
        <time>2013-11-29T11:18:08Z</time>
      </trkpt>
      <trkpt lat="42.91719" lon="-0.15312">
        <ele>2146</ele>
        <time>2013-11-29T11:18:24Z</time>
      </trkpt>
      <trkpt lat="42.91712" lon="-0.15316">
        <ele>2148</ele>
        <time>2013-11-29T11:18:36Z</time>
      </trkpt>
      <trkpt lat="42.91704" lon="-0.15316">
        <ele>2152</ele>
        <time>2013-11-29T11:18:49Z</time>
      </trkpt>
      <trkpt lat="42.91697" lon="-0.15317">
        <ele>2154</ele>
        <time>2013-11-29T11:19:03Z</time>
      </trkpt>
      <trkpt lat="42.91694" lon="-0.15321">
        <ele>2154</ele>
        <time>2013-11-29T11:19:18Z</time>
      </trkpt>
      <trkpt lat="42.91692" lon="-0.15316">
        <ele>2155</ele>
        <time>2013-11-29T11:19:37Z</time>
      </trkpt>
      <trkpt lat="42.9169" lon="-0.15323">
        <ele>2156</ele>
        <time>2013-11-29T11:19:53Z</time>
      </trkpt>
      <trkpt lat="42.91686" lon="-0.15328">
        <ele>2159</ele>
        <time>2013-11-29T11:20:10Z</time>
      </trkpt>
      <trkpt lat="42.91683" lon="-0.15333">
        <ele>2162</ele>
        <time>2013-11-29T11:20:26Z</time>
      </trkpt>
      <trkpt lat="42.91682" lon="-0.15338">
        <ele>2163</ele>
        <time>2013-11-29T11:20:39Z</time>
      </trkpt>
      <trkpt lat="42.9168" lon="-0.1534">
        <ele>2163</ele>
        <time>2013-11-29T11:21:04Z</time>
      </trkpt>
      <trkpt lat="42.91682" lon="-0.15344">
        <ele>2165</ele>
        <time>2013-11-29T11:21:23Z</time>
      </trkpt>
      <trkpt lat="42.91683" lon="-0.15348">
        <ele>2166</ele>
        <time>2013-11-29T11:21:36Z</time>
      </trkpt>
      <trkpt lat="42.91678" lon="-0.15355">
        <ele>2169</ele>
        <time>2013-11-29T11:21:51Z</time>
      </trkpt>
      <trkpt lat="42.91673" lon="-0.15361">
        <ele>2172</ele>
        <time>2013-11-29T11:22:06Z</time>
      </trkpt>
      <trkpt lat="42.91675" lon="-0.15366">
        <ele>2172</ele>
        <time>2013-11-29T11:22:24Z</time>
      </trkpt>
      <trkpt lat="42.91677" lon="-0.15368">
        <ele>2172</ele>
        <time>2013-11-29T11:22:55Z</time>
      </trkpt>
      <trkpt lat="42.91685" lon="-0.15368">
        <ele>2174</ele>
        <time>2013-11-29T11:23:11Z</time>
      </trkpt>
      <trkpt lat="42.91694" lon="-0.15371">
        <ele>2178</ele>
        <time>2013-11-29T11:23:29Z</time>
      </trkpt>
      <trkpt lat="42.91698" lon="-0.15375">
        <ele>2181</ele>
        <time>2013-11-29T11:23:45Z</time>
      </trkpt>
      <trkpt lat="42.917" lon="-0.15377">
        <ele>2182</ele>
        <time>2013-11-29T11:23:58Z</time>
      </trkpt>
      <trkpt lat="42.91698" lon="-0.15373">
        <ele>2182</ele>
        <time>2013-11-29T11:24:11Z</time>
      </trkpt>
      <trkpt lat="42.91696" lon="-0.15373">
        <ele>2184</ele>
        <time>2013-11-29T11:24:26Z</time>
      </trkpt>
      <trkpt lat="42.91687" lon="-0.15377">
        <ele>2187</ele>
        <time>2013-11-29T11:24:39Z</time>
      </trkpt>
      <trkpt lat="42.91679" lon="-0.15384">
        <ele>2190</ele>
        <time>2013-11-29T11:24:55Z</time>
      </trkpt>
      <trkpt lat="42.91669" lon="-0.1539">
        <ele>2192</ele>
        <time>2013-11-29T11:25:12Z</time>
      </trkpt>
      <trkpt lat="42.91659" lon="-0.15396">
        <ele>2196</ele>
        <time>2013-11-29T11:25:30Z</time>
      </trkpt>
      <trkpt lat="42.91651" lon="-0.15402">
        <ele>2199</ele>
        <time>2013-11-29T11:25:45Z</time>
      </trkpt>
      <trkpt lat="42.91641" lon="-0.15406">
        <ele>2202</ele>
        <time>2013-11-29T11:26:01Z</time>
      </trkpt>
      <trkpt lat="42.91634" lon="-0.15411">
        <ele>2203</ele>
        <time>2013-11-29T11:26:14Z</time>
      </trkpt>
      <trkpt lat="42.91625" lon="-0.15418">
        <ele>2205</ele>
        <time>2013-11-29T11:26:29Z</time>
      </trkpt>
      <trkpt lat="42.91615" lon="-0.15423">
        <ele>2208</ele>
        <time>2013-11-29T11:26:45Z</time>
      </trkpt>
      <trkpt lat="42.91607" lon="-0.15429">
        <ele>2210</ele>
        <time>2013-11-29T11:27:01Z</time>
      </trkpt>
      <trkpt lat="42.91599" lon="-0.15437">
        <ele>2213</ele>
        <time>2013-11-29T11:27:17Z</time>
      </trkpt>
      <trkpt lat="42.91593" lon="-0.15442">
        <ele>2215</ele>
        <time>2013-11-29T11:27:35Z</time>
      </trkpt>
      <trkpt lat="42.91587" lon="-0.15445">
        <ele>2216</ele>
        <time>2013-11-29T11:28:07Z</time>
      </trkpt>
      <trkpt lat="42.91585" lon="-0.15445">
        <ele>2217</ele>
        <time>2013-11-29T11:28:21Z</time>
      </trkpt>
      <trkpt lat="42.91586" lon="-0.1544">
        <ele>2219</ele>
        <time>2013-11-29T11:28:34Z</time>
      </trkpt>
      <trkpt lat="42.91585" lon="-0.15428">
        <ele>2221</ele>
        <time>2013-11-29T11:28:50Z</time>
      </trkpt>
      <trkpt lat="42.91585" lon="-0.15416">
        <ele>2223</ele>
        <time>2013-11-29T11:29:05Z</time>
      </trkpt>
      <trkpt lat="42.91584" lon="-0.15409">
        <ele>2224</ele>
        <time>2013-11-29T11:29:21Z</time>
      </trkpt>
      <trkpt lat="42.91579" lon="-0.15416">
        <ele>2225</ele>
        <time>2013-11-29T11:29:33Z</time>
      </trkpt>
      <trkpt lat="42.91574" lon="-0.1542">
        <ele>2227</ele>
        <time>2013-11-29T11:29:47Z</time>
      </trkpt>
      <trkpt lat="42.91569" lon="-0.15428">
        <ele>2230</ele>
        <time>2013-11-29T11:30:01Z</time>
      </trkpt>
      <trkpt lat="42.91565" lon="-0.1543">
        <ele>2231</ele>
        <time>2013-11-29T11:30:16Z</time>
      </trkpt>
      <trkpt lat="42.91565" lon="-0.15423">
        <ele>2233</ele>
        <time>2013-11-29T11:30:32Z</time>
      </trkpt>
      <trkpt lat="42.91562" lon="-0.1541">
        <ele>2235</ele>
        <time>2013-11-29T11:30:49Z</time>
      </trkpt>
      <trkpt lat="42.91561" lon="-0.15407">
        <ele>2237</ele>
        <time>2013-11-29T11:31:05Z</time>
      </trkpt>
      <trkpt lat="42.91557" lon="-0.15414">
        <ele>2238</ele>
        <time>2013-11-29T11:31:21Z</time>
      </trkpt>
      <trkpt lat="42.9155" lon="-0.1542">
        <ele>2240</ele>
        <time>2013-11-29T11:31:37Z</time>
      </trkpt>
      <trkpt lat="42.91547" lon="-0.15425">
        <ele>2243</ele>
        <time>2013-11-29T11:31:56Z</time>
      </trkpt>
      <trkpt lat="42.91541" lon="-0.1543">
        <ele>2246</ele>
        <time>2013-11-29T11:32:19Z</time>
      </trkpt>
      <trkpt lat="42.91535" lon="-0.15436">
        <ele>2248</ele>
        <time>2013-11-29T11:32:38Z</time>
      </trkpt>
      <trkpt lat="42.91527" lon="-0.15442">
        <ele>2251</ele>
        <time>2013-11-29T11:32:54Z</time>
      </trkpt>
      <trkpt lat="42.91527" lon="-0.15444">
        <ele>2252</ele>
        <time>2013-11-29T11:33:13Z</time>
      </trkpt>
      <trkpt lat="42.91526" lon="-0.15435">
        <ele>2254</ele>
        <time>2013-11-29T11:33:27Z</time>
      </trkpt>
      <trkpt lat="42.91525" lon="-0.15425">
        <ele>2256</ele>
        <time>2013-11-29T11:33:41Z</time>
      </trkpt>
      <trkpt lat="42.91524" lon="-0.15413">
        <ele>2259</ele>
        <time>2013-11-29T11:34:00Z</time>
      </trkpt>
      <trkpt lat="42.91522" lon="-0.15407">
        <ele>2261</ele>
        <time>2013-11-29T11:34:19Z</time>
      </trkpt>
      <trkpt lat="42.91523" lon="-0.15401">
        <ele>2262</ele>
        <time>2013-11-29T11:34:43Z</time>
      </trkpt>
      <trkpt lat="42.91519" lon="-0.15394">
        <ele>2264</ele>
        <time>2013-11-29T11:34:56Z</time>
      </trkpt>
      <trkpt lat="42.91515" lon="-0.15385">
        <ele>2266</ele>
        <time>2013-11-29T11:35:13Z</time>
      </trkpt>
      <trkpt lat="42.91512" lon="-0.15388">
        <ele>2268</ele>
        <time>2013-11-29T11:35:30Z</time>
      </trkpt>
      <trkpt lat="42.91507" lon="-0.15393">
        <ele>2270</ele>
        <time>2013-11-29T11:35:46Z</time>
      </trkpt>
      <trkpt lat="42.91501" lon="-0.15399">
        <ele>2273</ele>
        <time>2013-11-29T11:36:03Z</time>
      </trkpt>
      <trkpt lat="42.91493" lon="-0.15403">
        <ele>2277</ele>
        <time>2013-11-29T11:36:19Z</time>
      </trkpt>
      <trkpt lat="42.91487" lon="-0.15407">
        <ele>2279</ele>
        <time>2013-11-29T11:36:34Z</time>
      </trkpt>
      <trkpt lat="42.91482" lon="-0.15412">
        <ele>2282</ele>
        <time>2013-11-29T11:36:48Z</time>
      </trkpt>
      <trkpt lat="42.91481" lon="-0.15406">
        <ele>2282</ele>
        <time>2013-11-29T11:37:09Z</time>
      </trkpt>
      <trkpt lat="42.91479" lon="-0.15396">
        <ele>2284</ele>
        <time>2013-11-29T11:37:25Z</time>
      </trkpt>
      <trkpt lat="42.91479" lon="-0.15395">
        <ele>2284</ele>
        <time>2013-11-29T11:37:26Z</time>
      </trkpt>
      <trkpt lat="42.91475" lon="-0.15386">
        <ele>2287</ele>
        <time>2013-11-29T11:37:38Z</time>
      </trkpt>
      <trkpt lat="42.91469" lon="-0.1538">
        <ele>2290</ele>
        <time>2013-11-29T11:37:53Z</time>
      </trkpt>
      <trkpt lat="42.91462" lon="-0.15387">
        <ele>2293</ele>
        <time>2013-11-29T11:38:07Z</time>
      </trkpt>
      <trkpt lat="42.91458" lon="-0.15377">
        <ele>2295</ele>
        <time>2013-11-29T11:38:22Z</time>
      </trkpt>
      <trkpt lat="42.91455" lon="-0.15366">
        <ele>2299</ele>
        <time>2013-11-29T11:38:36Z</time>
      </trkpt>
      <trkpt lat="42.91449" lon="-0.15352">
        <ele>2302</ele>
        <time>2013-11-29T11:38:53Z</time>
      </trkpt>
      <trkpt lat="42.91443" lon="-0.15342">
        <ele>2304</ele>
        <time>2013-11-29T11:39:09Z</time>
      </trkpt>
      <trkpt lat="42.91437" lon="-0.15334">
        <ele>2306</ele>
        <time>2013-11-29T11:39:25Z</time>
      </trkpt>
      <trkpt lat="42.91433" lon="-0.15348">
        <ele>2310</ele>
        <time>2013-11-29T11:39:42Z</time>
      </trkpt>
      <trkpt lat="42.91425" lon="-0.15357">
        <ele>2312</ele>
        <time>2013-11-29T11:39:59Z</time>
      </trkpt>
      <trkpt lat="42.9142" lon="-0.15363">
        <ele>2315</ele>
        <time>2013-11-29T11:40:14Z</time>
      </trkpt>
      <trkpt lat="42.9142" lon="-0.15363">
        <ele>2315</ele>
        <time>2013-11-29T11:40:42Z</time>
      </trkpt>
      <trkpt lat="42.9142" lon="-0.15364">
        <ele>2315</ele>
        <time>2013-11-29T11:41:00Z</time>
      </trkpt>
      <trkpt lat="42.9142" lon="-0.15363">
        <ele>2314</ele>
        <time>2013-11-29T11:41:19Z</time>
      </trkpt>
      <trkpt lat="42.91419" lon="-0.15366">
        <ele>2315</ele>
        <time>2013-11-29T11:41:42Z</time>
      </trkpt>
      <trkpt lat="42.9142" lon="-0.15366">
        <ele>2315</ele>
        <time>2013-11-29T11:42:09Z</time>
      </trkpt>
      <trkpt lat="42.91422" lon="-0.15366">
        <ele>2315</ele>
        <time>2013-11-29T11:42:20Z</time>
      </trkpt>
      <trkpt lat="42.9142" lon="-0.15366">
        <ele>2314</ele>
        <time>2013-11-29T11:42:53Z</time>
      </trkpt>
      <trkpt lat="42.91421" lon="-0.15367">
        <ele>2315</ele>
        <time>2013-11-29T11:43:16Z</time>
      </trkpt>
      <trkpt lat="42.91421" lon="-0.15366">
        <ele>2315</ele>
        <time>2013-11-29T11:43:36Z</time>
      </trkpt>
      <trkpt lat="42.91421" lon="-0.15365">
        <ele>2316</ele>
        <time>2013-11-29T11:43:46Z</time>
      </trkpt>
      <trkpt lat="42.9142" lon="-0.15367">
        <ele>2315</ele>
        <time>2013-11-29T11:44:08Z</time>
      </trkpt>
      <trkpt lat="42.9142" lon="-0.15365">
        <ele>2315</ele>
        <time>2013-11-29T11:44:29Z</time>
      </trkpt>
      <trkpt lat="42.91419" lon="-0.15367">
        <ele>2315</ele>
        <time>2013-11-29T11:44:45Z</time>
      </trkpt>
      <trkpt lat="42.9142" lon="-0.15362">
        <ele>2316</ele>
        <time>2013-11-29T11:45:06Z</time>
      </trkpt>
      <trkpt lat="42.91418" lon="-0.15359">
        <ele>2316</ele>
        <time>2013-11-29T11:45:19Z</time>
      </trkpt>
      <trkpt lat="42.91418" lon="-0.15361">
        <ele>2315</ele>
        <time>2013-11-29T11:45:47Z</time>
      </trkpt>
      <trkpt lat="42.91418" lon="-0.15365">
        <ele>2316</ele>
        <time>2013-11-29T11:46:11Z</time>
      </trkpt>
      <trkpt lat="42.9142" lon="-0.15367">
        <ele>2314</ele>
        <time>2013-11-29T11:46:27Z</time>
      </trkpt>
      <trkpt lat="42.9142" lon="-0.15366">
        <ele>2314</ele>
        <time>2013-11-29T11:46:55Z</time>
      </trkpt>
      <trkpt lat="42.9142" lon="-0.15366">
        <ele>2314</ele>
        <time>2013-11-29T11:47:38Z</time>
      </trkpt>
      <trkpt lat="42.9142" lon="-0.15366">
        <ele>2314</ele>
        <time>2013-11-29T11:48:14Z</time>
      </trkpt>
      <trkpt lat="42.9142" lon="-0.15366">
        <ele>2314</ele>
        <time>2013-11-29T11:48:48Z</time>
      </trkpt>
      <trkpt lat="42.9142" lon="-0.15366">
        <ele>2314</ele>
        <time>2013-11-29T11:49:11Z</time>
      </trkpt>
      <trkpt lat="42.9142" lon="-0.15366">
        <ele>2315</ele>
        <time>2013-11-29T11:49:49Z</time>
      </trkpt>
      <trkpt lat="42.91419" lon="-0.15366">
        <ele>2314</ele>
        <time>2013-11-29T11:50:26Z</time>
      </trkpt>
      <trkpt lat="42.9142" lon="-0.15366">
        <ele>2314</ele>
        <time>2013-11-29T11:51:05Z</time>
      </trkpt>
      <trkpt lat="42.9142" lon="-0.15366">
        <ele>2314</ele>
        <time>2013-11-29T11:51:42Z</time>
      </trkpt>
      <trkpt lat="42.91419" lon="-0.15366">
        <ele>2314</ele>
        <time>2013-11-29T11:52:18Z</time>
      </trkpt>
      <trkpt lat="42.9142" lon="-0.15367">
        <ele>2313</ele>
        <time>2013-11-29T11:52:57Z</time>
      </trkpt>
      <trkpt lat="42.9142" lon="-0.15367">
        <ele>2314</ele>
        <time>2013-11-29T11:53:37Z</time>
      </trkpt>
      <trkpt lat="42.9142" lon="-0.15366">
        <ele>2313</ele>
        <time>2013-11-29T11:54:21Z</time>
      </trkpt>
      <trkpt lat="42.9142" lon="-0.15366">
        <ele>2313</ele>
        <time>2013-11-29T11:55:07Z</time>
      </trkpt>
      <trkpt lat="42.9142" lon="-0.15367">
        <ele>2313</ele>
        <time>2013-11-29T11:55:45Z</time>
      </trkpt>
      <trkpt lat="42.91421" lon="-0.15366">
        <ele>2313</ele>
        <time>2013-11-29T11:56:23Z</time>
      </trkpt>
      <trkpt lat="42.91421" lon="-0.15366">
        <ele>2313</ele>
        <time>2013-11-29T11:57:04Z</time>
      </trkpt>
      <trkpt lat="42.91421" lon="-0.15366">
        <ele>2314</ele>
        <time>2013-11-29T11:57:43Z</time>
      </trkpt>
      <trkpt lat="42.91421" lon="-0.15366">
        <ele>2314</ele>
        <time>2013-11-29T11:58:24Z</time>
      </trkpt>
      <trkpt lat="42.91422" lon="-0.15366">
        <ele>2314</ele>
        <time>2013-11-29T11:58:53Z</time>
      </trkpt>
      <trkpt lat="42.91421" lon="-0.15367">
        <ele>2314</ele>
        <time>2013-11-29T11:59:24Z</time>
      </trkpt>
      <trkpt lat="42.91421" lon="-0.15367">
        <ele>2314</ele>
        <time>2013-11-29T12:00:07Z</time>
      </trkpt>
      <trkpt lat="42.9142" lon="-0.15367">
        <ele>2314</ele>
        <time>2013-11-29T12:00:53Z</time>
      </trkpt>
      <trkpt lat="42.91421" lon="-0.15368">
        <ele>2314</ele>
        <time>2013-11-29T12:01:39Z</time>
      </trkpt>
      <trkpt lat="42.91421" lon="-0.15367">
        <ele>2314</ele>
        <time>2013-11-29T12:02:23Z</time>
      </trkpt>
      <trkpt lat="42.91421" lon="-0.15366">
        <ele>2314</ele>
        <time>2013-11-29T12:03:07Z</time>
      </trkpt>
      <trkpt lat="42.91421" lon="-0.15366">
        <ele>2315</ele>
        <time>2013-11-29T12:03:45Z</time>
      </trkpt>
      <trkpt lat="42.9142" lon="-0.15367">
        <ele>2314</ele>
        <time>2013-11-29T12:04:22Z</time>
      </trkpt>
      <trkpt lat="42.9142" lon="-0.15366">
        <ele>2314</ele>
        <time>2013-11-29T12:04:58Z</time>
      </trkpt>
      <trkpt lat="42.9142" lon="-0.15366">
        <ele>2314</ele>
        <time>2013-11-29T12:05:16Z</time>
      </trkpt>
      <trkpt lat="42.9142" lon="-0.15365">
        <ele>2314</ele>
        <time>2013-11-29T12:05:34Z</time>
      </trkpt>
      <trkpt lat="42.91421" lon="-0.15365">
        <ele>2314</ele>
        <time>2013-11-29T12:05:49Z</time>
      </trkpt>
      <trkpt lat="42.91421" lon="-0.15365">
        <ele>2314</ele>
        <time>2013-11-29T12:06:04Z</time>
      </trkpt>
      <trkpt lat="42.91422" lon="-0.15366">
        <ele>2315</ele>
        <time>2013-11-29T12:06:15Z</time>
      </trkpt>
      <trkpt lat="42.91421" lon="-0.15366">
        <ele>2314</ele>
        <time>2013-11-29T12:06:34Z</time>
      </trkpt>
      <trkpt lat="42.91422" lon="-0.15365">
        <ele>2314</ele>
        <time>2013-11-29T12:06:54Z</time>
      </trkpt>
      <trkpt lat="42.91422" lon="-0.15365">
        <ele>2314</ele>
        <time>2013-11-29T12:07:09Z</time>
      </trkpt>
      <trkpt lat="42.91422" lon="-0.15365">
        <ele>2314</ele>
        <time>2013-11-29T12:07:37Z</time>
      </trkpt>
      <trkpt lat="42.91421" lon="-0.15365">
        <ele>2314</ele>
        <time>2013-11-29T12:08:01Z</time>
      </trkpt>
      <trkpt lat="42.91421" lon="-0.15366">
        <ele>2314</ele>
        <time>2013-11-29T12:08:16Z</time>
      </trkpt>
      <trkpt lat="42.91421" lon="-0.15364">
        <ele>2314</ele>
        <time>2013-11-29T12:08:21Z</time>
      </trkpt>
      <trkpt lat="42.91425" lon="-0.15357">
        <ele>2313</ele>
        <time>2013-11-29T12:08:30Z</time>
      </trkpt>
      <trkpt lat="42.91426" lon="-0.15357">
        <ele>2313</ele>
        <time>2013-11-29T12:08:32Z</time>
      </trkpt>
      <trkpt lat="42.91428" lon="-0.15353">
        <ele>2311</ele>
        <time>2013-11-29T12:08:36Z</time>
      </trkpt>
      <trkpt lat="42.91429" lon="-0.1535">
        <ele>2311</ele>
        <time>2013-11-29T12:08:40Z</time>
      </trkpt>
      <trkpt lat="42.91434" lon="-0.15351">
        <ele>2309</ele>
        <time>2013-11-29T12:08:44Z</time>
      </trkpt>
      <trkpt lat="42.91434" lon="-0.15352">
        <ele>2309</ele>
        <time>2013-11-29T12:08:45Z</time>
      </trkpt>
      <trkpt lat="42.91435" lon="-0.15357">
        <ele>2307</ele>
        <time>2013-11-29T12:08:48Z</time>
      </trkpt>
      <trkpt lat="42.91442" lon="-0.15353">
        <ele>2304</ele>
        <time>2013-11-29T12:08:54Z</time>
      </trkpt>
      <trkpt lat="42.91443" lon="-0.15352">
        <ele>2303</ele>
        <time>2013-11-29T12:08:55Z</time>
      </trkpt>
      <trkpt lat="42.9145" lon="-0.15357">
        <ele>2300</ele>
        <time>2013-11-29T12:09:00Z</time>
      </trkpt>
      <trkpt lat="42.91454" lon="-0.15366">
        <ele>2298</ele>
        <time>2013-11-29T12:09:05Z</time>
      </trkpt>
      <trkpt lat="42.91458" lon="-0.15372">
        <ele>2295</ele>
        <time>2013-11-29T12:09:14Z</time>
      </trkpt>
      <trkpt lat="42.91461" lon="-0.15378">
        <ele>2293</ele>
        <time>2013-11-29T12:09:20Z</time>
      </trkpt>
      <trkpt lat="42.91465" lon="-0.15379">
        <ele>2291</ele>
        <time>2013-11-29T12:09:22Z</time>
      </trkpt>
      <trkpt lat="42.91472" lon="-0.1538">
        <ele>2288</ele>
        <time>2013-11-29T12:09:27Z</time>
      </trkpt>
      <trkpt lat="42.91473" lon="-0.1538">
        <ele>2288</ele>
        <time>2013-11-29T12:09:28Z</time>
      </trkpt>
      <trkpt lat="42.91476" lon="-0.15388">
        <ele>2286</ele>
        <time>2013-11-29T12:09:34Z</time>
      </trkpt>
      <trkpt lat="42.91479" lon="-0.15393">
        <ele>2284</ele>
        <time>2013-11-29T12:09:46Z</time>
      </trkpt>
      <trkpt lat="42.9148" lon="-0.15395">
        <ele>2283</ele>
        <time>2013-11-29T12:09:47Z</time>
      </trkpt>
      <trkpt lat="42.91486" lon="-0.15391">
        <ele>2279</ele>
        <time>2013-11-29T12:09:54Z</time>
      </trkpt>
      <trkpt lat="42.91491" lon="-0.15385">
        <ele>2278</ele>
        <time>2013-11-29T12:09:59Z</time>
      </trkpt>
      <trkpt lat="42.91496" lon="-0.15388">
        <ele>2276</ele>
        <time>2013-11-29T12:10:02Z</time>
      </trkpt>
      <trkpt lat="42.91499" lon="-0.15398">
        <ele>2273</ele>
        <time>2013-11-29T12:10:07Z</time>
      </trkpt>
      <trkpt lat="42.91503" lon="-0.15398">
        <ele>2271</ele>
        <time>2013-11-29T12:10:10Z</time>
      </trkpt>
      <trkpt lat="42.91505" lon="-0.15395">
        <ele>2270</ele>
        <time>2013-11-29T12:10:16Z</time>
      </trkpt>
      <trkpt lat="42.91512" lon="-0.15399">
        <ele>2266</ele>
        <time>2013-11-29T12:10:21Z</time>
      </trkpt>
      <trkpt lat="42.91513" lon="-0.15398">
        <ele>2265</ele>
        <time>2013-11-29T12:10:23Z</time>
      </trkpt>
      <trkpt lat="42.91517" lon="-0.15399">
        <ele>2264</ele>
        <time>2013-11-29T12:10:26Z</time>
      </trkpt>
      <trkpt lat="42.91519" lon="-0.15399">
        <ele>2262</ele>
        <time>2013-11-29T12:10:34Z</time>
      </trkpt>
      <trkpt lat="42.91522" lon="-0.15407">
        <ele>2259</ele>
        <time>2013-11-29T12:10:38Z</time>
      </trkpt>
      <trkpt lat="42.91526" lon="-0.15407">
        <ele>2257</ele>
        <time>2013-11-29T12:10:49Z</time>
      </trkpt>
      <trkpt lat="42.91529" lon="-0.15412">
        <ele>2254</ele>
        <time>2013-11-29T12:10:53Z</time>
      </trkpt>
      <trkpt lat="42.91532" lon="-0.15413">
        <ele>2252</ele>
        <time>2013-11-29T12:10:56Z</time>
      </trkpt>
      <trkpt lat="42.91533" lon="-0.15412">
        <ele>2252</ele>
        <time>2013-11-29T12:10:57Z</time>
      </trkpt>
      <trkpt lat="42.91539" lon="-0.1541">
        <ele>2250</ele>
        <time>2013-11-29T12:11:01Z</time>
      </trkpt>
      <trkpt lat="42.9154" lon="-0.15411">
        <ele>2249</ele>
        <time>2013-11-29T12:11:02Z</time>
      </trkpt>
      <trkpt lat="42.91544" lon="-0.15413">
        <ele>2244</ele>
        <time>2013-11-29T12:11:08Z</time>
      </trkpt>
      <trkpt lat="42.9155" lon="-0.15409">
        <ele>2241</ele>
        <time>2013-11-29T12:11:16Z</time>
      </trkpt>
      <trkpt lat="42.91556" lon="-0.15411">
        <ele>2238</ele>
        <time>2013-11-29T12:11:21Z</time>
      </trkpt>
      <trkpt lat="42.91557" lon="-0.15411">
        <ele>2238</ele>
        <time>2013-11-29T12:11:22Z</time>
      </trkpt>
      <trkpt lat="42.91558" lon="-0.15411">
        <ele>2238</ele>
        <time>2013-11-29T12:11:23Z</time>
      </trkpt>
      <trkpt lat="42.9156" lon="-0.15419">
        <ele>2235</ele>
        <time>2013-11-29T12:11:29Z</time>
      </trkpt>
      <trkpt lat="42.91561" lon="-0.1542">
        <ele>2234</ele>
        <time>2013-11-29T12:11:30Z</time>
      </trkpt>
      <trkpt lat="42.91566" lon="-0.15419">
        <ele>2231</ele>
        <time>2013-11-29T12:11:36Z</time>
      </trkpt>
      <trkpt lat="42.91572" lon="-0.15421">
        <ele>2228</ele>
        <time>2013-11-29T12:11:40Z</time>
      </trkpt>
      <trkpt lat="42.91578" lon="-0.15423">
        <ele>2225</ele>
        <time>2013-11-29T12:11:46Z</time>
      </trkpt>
      <trkpt lat="42.9158" lon="-0.15422">
        <ele>2224</ele>
        <time>2013-11-29T12:11:48Z</time>
      </trkpt>
      <trkpt lat="42.91581" lon="-0.15421">
        <ele>2223</ele>
        <time>2013-11-29T12:11:49Z</time>
      </trkpt>
      <trkpt lat="42.91586" lon="-0.15424">
        <ele>2220</ele>
        <time>2013-11-29T12:11:52Z</time>
      </trkpt>
      <trkpt lat="42.91587" lon="-0.15423">
        <ele>2220</ele>
        <time>2013-11-29T12:11:53Z</time>
      </trkpt>
      <trkpt lat="42.91587" lon="-0.15423">
        <ele>2220</ele>
        <time>2013-11-29T12:11:54Z</time>
      </trkpt>
      <trkpt lat="42.91592" lon="-0.15424">
        <ele>2217</ele>
        <time>2013-11-29T12:11:58Z</time>
      </trkpt>
      <trkpt lat="42.91601" lon="-0.1542">
        <ele>2213</ele>
        <time>2013-11-29T12:12:05Z</time>
      </trkpt>
      <trkpt lat="42.91605" lon="-0.15419">
        <ele>2212</ele>
        <time>2013-11-29T12:12:13Z</time>
      </trkpt>
      <trkpt lat="42.91611" lon="-0.15423">
        <ele>2209</ele>
        <time>2013-11-29T12:12:16Z</time>
      </trkpt>
      <trkpt lat="42.91617" lon="-0.15422">
        <ele>2207</ele>
        <time>2013-11-29T12:12:19Z</time>
      </trkpt>
      <trkpt lat="42.91619" lon="-0.15418">
        <ele>2206</ele>
        <time>2013-11-29T12:12:21Z</time>
      </trkpt>
      <trkpt lat="42.91627" lon="-0.15413">
        <ele>2203</ele>
        <time>2013-11-29T12:12:28Z</time>
      </trkpt>
      <trkpt lat="42.91634" lon="-0.15408">
        <ele>2202</ele>
        <time>2013-11-29T12:12:32Z</time>
      </trkpt>
      <trkpt lat="42.91645" lon="-0.15411">
        <ele>2198</ele>
        <time>2013-11-29T12:12:36Z</time>
      </trkpt>
      <trkpt lat="42.91648" lon="-0.15409">
        <ele>2196</ele>
        <time>2013-11-29T12:12:37Z</time>
      </trkpt>
      <trkpt lat="42.91652" lon="-0.15402">
        <ele>2195</ele>
        <time>2013-11-29T12:12:41Z</time>
      </trkpt>
      <trkpt lat="42.91661" lon="-0.15396">
        <ele>2193</ele>
        <time>2013-11-29T12:12:46Z</time>
      </trkpt>
      <trkpt lat="42.91667" lon="-0.154">
        <ele>2190</ele>
        <time>2013-11-29T12:12:49Z</time>
      </trkpt>
      <trkpt lat="42.91668" lon="-0.15397">
        <ele>2190</ele>
        <time>2013-11-29T12:12:50Z</time>
      </trkpt>
      <trkpt lat="42.9168" lon="-0.15394">
        <ele>2188</ele>
        <time>2013-11-29T12:12:54Z</time>
      </trkpt>
      <trkpt lat="42.91684" lon="-0.15387">
        <ele>2187</ele>
        <time>2013-11-29T12:12:56Z</time>
      </trkpt>
      <trkpt lat="42.91693" lon="-0.15379">
        <ele>2184</ele>
        <time>2013-11-29T12:13:04Z</time>
      </trkpt>
      <trkpt lat="42.91695" lon="-0.15374">
        <ele>2183</ele>
        <time>2013-11-29T12:13:16Z</time>
      </trkpt>
      <trkpt lat="42.91694" lon="-0.15375">
        <ele>2184</ele>
        <time>2013-11-29T12:13:35Z</time>
      </trkpt>
      <trkpt lat="42.91697" lon="-0.15374">
        <ele>2183</ele>
        <time>2013-11-29T12:13:47Z</time>
      </trkpt>
      <trkpt lat="42.91704" lon="-0.1537">
        <ele>2179</ele>
        <time>2013-11-29T12:13:55Z</time>
      </trkpt>
      <trkpt lat="42.91705" lon="-0.15369">
        <ele>2178</ele>
        <time>2013-11-29T12:13:56Z</time>
      </trkpt>
      <trkpt lat="42.91701" lon="-0.1536">
        <ele>2175</ele>
        <time>2013-11-29T12:14:00Z</time>
      </trkpt>
      <trkpt lat="42.91702" lon="-0.15352">
        <ele>2171</ele>
        <time>2013-11-29T12:14:03Z</time>
      </trkpt>
      <trkpt lat="42.91703" lon="-0.15345">
        <ele>2167</ele>
        <time>2013-11-29T12:14:05Z</time>
      </trkpt>
      <trkpt lat="42.91705" lon="-0.15338">
        <ele>2166</ele>
        <time>2013-11-29T12:14:07Z</time>
      </trkpt>
      <trkpt lat="42.91706" lon="-0.15333">
        <ele>2161</ele>
        <time>2013-11-29T12:14:09Z</time>
      </trkpt>
      <trkpt lat="42.91708" lon="-0.15328">
        <ele>2157</ele>
        <time>2013-11-29T12:14:12Z</time>
      </trkpt>
      <trkpt lat="42.91707" lon="-0.15324">
        <ele>2156</ele>
        <time>2013-11-29T12:14:14Z</time>
      </trkpt>
      <trkpt lat="42.91708" lon="-0.15321">
        <ele>2153</ele>
        <time>2013-11-29T12:14:15Z</time>
      </trkpt>
      <trkpt lat="42.91706" lon="-0.15316">
        <ele>2150</ele>
        <time>2013-11-29T12:14:17Z</time>
      </trkpt>
      <trkpt lat="42.91705" lon="-0.15304">
        <ele>2144</ele>
        <time>2013-11-29T12:14:20Z</time>
      </trkpt>
      <trkpt lat="42.91706" lon="-0.15299">
        <ele>2139</ele>
        <time>2013-11-29T12:14:21Z</time>
      </trkpt>
      <trkpt lat="42.91708" lon="-0.15295">
        <ele>2140</ele>
        <time>2013-11-29T12:14:22Z</time>
      </trkpt>
      <trkpt lat="42.91705" lon="-0.15296">
        <ele>2140</ele>
        <time>2013-11-29T12:14:33Z</time>
      </trkpt>
      <trkpt lat="42.91704" lon="-0.15298">
        <ele>2140</ele>
        <time>2013-11-29T12:14:46Z</time>
      </trkpt>
      <trkpt lat="42.91704" lon="-0.15298">
        <ele>2140</ele>
        <time>2013-11-29T12:14:52Z</time>
      </trkpt>
      <trkpt lat="42.91706" lon="-0.15295">
        <ele>2140</ele>
        <time>2013-11-29T12:14:54Z</time>
      </trkpt>
      <trkpt lat="42.917" lon="-0.1529">
        <ele>2137</ele>
        <time>2013-11-29T12:14:58Z</time>
      </trkpt>
      <trkpt lat="42.91699" lon="-0.15287">
        <ele>2137</ele>
        <time>2013-11-29T12:14:59Z</time>
      </trkpt>
      <trkpt lat="42.91701" lon="-0.15283">
        <ele>2133</ele>
        <time>2013-11-29T12:15:01Z</time>
      </trkpt>
      <trkpt lat="42.91697" lon="-0.15275">
        <ele>2129</ele>
        <time>2013-11-29T12:15:04Z</time>
      </trkpt>
      <trkpt lat="42.91694" lon="-0.15266">
        <ele>2125</ele>
        <time>2013-11-29T12:15:08Z</time>
      </trkpt>
      <trkpt lat="42.91694" lon="-0.15266">
        <ele>2125</ele>
        <time>2013-11-29T12:15:09Z</time>
      </trkpt>
      <trkpt lat="42.91698" lon="-0.15265">
        <ele>2124</ele>
        <time>2013-11-29T12:15:31Z</time>
      </trkpt>
      <trkpt lat="42.91697" lon="-0.15267">
        <ele>2124</ele>
        <time>2013-11-29T12:15:58Z</time>
      </trkpt>
      <trkpt lat="42.91696" lon="-0.1527">
        <ele>2124</ele>
        <time>2013-11-29T12:16:22Z</time>
      </trkpt>
      <trkpt lat="42.91698" lon="-0.15266">
        <ele>2124</ele>
        <time>2013-11-29T12:16:52Z</time>
      </trkpt>
      <trkpt lat="42.91696" lon="-0.15263">
        <ele>2124</ele>
        <time>2013-11-29T12:17:17Z</time>
      </trkpt>
      <trkpt lat="42.91694" lon="-0.15267">
        <ele>2125</ele>
        <time>2013-11-29T12:17:43Z</time>
      </trkpt>
      <trkpt lat="42.91695" lon="-0.15262">
        <ele>2125</ele>
        <time>2013-11-29T12:18:09Z</time>
      </trkpt>
      <trkpt lat="42.91696" lon="-0.15268">
        <ele>2125</ele>
        <time>2013-11-29T12:18:37Z</time>
      </trkpt>
      <trkpt lat="42.91702" lon="-0.15257">
        <ele>2123</ele>
        <time>2013-11-29T12:18:49Z</time>
      </trkpt>
      <trkpt lat="42.91701" lon="-0.15247">
        <ele>2118</ele>
        <time>2013-11-29T12:18:54Z</time>
      </trkpt>
      <trkpt lat="42.917" lon="-0.15244">
        <ele>2119</ele>
        <time>2013-11-29T12:18:55Z</time>
      </trkpt>
      <trkpt lat="42.91699" lon="-0.15237">
        <ele>2114</ele>
        <time>2013-11-29T12:18:57Z</time>
      </trkpt>
      <trkpt lat="42.91698" lon="-0.15232">
        <ele>2116</ele>
        <time>2013-11-29T12:18:58Z</time>
      </trkpt>
      <trkpt lat="42.91699" lon="-0.15222">
        <ele>2111</ele>
        <time>2013-11-29T12:19:00Z</time>
      </trkpt>
      <trkpt lat="42.91701" lon="-0.15207">
        <ele>2106</ele>
        <time>2013-11-29T12:19:03Z</time>
      </trkpt>
      <trkpt lat="42.91716" lon="-0.15197">
        <ele>2103</ele>
        <time>2013-11-29T12:19:08Z</time>
      </trkpt>
      <trkpt lat="42.91735" lon="-0.15184">
        <ele>2098</ele>
        <time>2013-11-29T12:19:14Z</time>
      </trkpt>
      <trkpt lat="42.91741" lon="-0.15183">
        <ele>2095</ele>
        <time>2013-11-29T12:19:17Z</time>
      </trkpt>
      <trkpt lat="42.91764" lon="-0.15171">
        <ele>2092</ele>
        <time>2013-11-29T12:19:25Z</time>
      </trkpt>
      <trkpt lat="42.91767" lon="-0.15164">
        <ele>2091</ele>
        <time>2013-11-29T12:19:27Z</time>
      </trkpt>
      <trkpt lat="42.91767" lon="-0.1516">
        <ele>2089</ele>
        <time>2013-11-29T12:19:28Z</time>
      </trkpt>
      <trkpt lat="42.91775" lon="-0.15136">
        <ele>2080</ele>
        <time>2013-11-29T12:19:32Z</time>
      </trkpt>
      <trkpt lat="42.9178" lon="-0.15125">
        <ele>2077</ele>
        <time>2013-11-29T12:19:34Z</time>
      </trkpt>
      <trkpt lat="42.91784" lon="-0.15119">
        <ele>2074</ele>
        <time>2013-11-29T12:19:35Z</time>
      </trkpt>
      <trkpt lat="42.91792" lon="-0.15111">
        <ele>2071</ele>
        <time>2013-11-29T12:19:37Z</time>
      </trkpt>
      <trkpt lat="42.91806" lon="-0.15098">
        <ele>2064</ele>
        <time>2013-11-29T12:19:41Z</time>
      </trkpt>
      <trkpt lat="42.9181" lon="-0.15094">
        <ele>2064</ele>
        <time>2013-11-29T12:19:42Z</time>
      </trkpt>
      <trkpt lat="42.91814" lon="-0.15093">
        <ele>2060</ele>
        <time>2013-11-29T12:19:43Z</time>
      </trkpt>
      <trkpt lat="42.91819" lon="-0.15096">
        <ele>2060</ele>
        <time>2013-11-29T12:19:45Z</time>
      </trkpt>
      <trkpt lat="42.91824" lon="-0.151">
        <ele>2058</ele>
        <time>2013-11-29T12:19:53Z</time>
      </trkpt>
      <trkpt lat="42.91826" lon="-0.15089">
        <ele>2056</ele>
        <time>2013-11-29T12:19:57Z</time>
      </trkpt>
      <trkpt lat="42.9183" lon="-0.15088">
        <ele>2053</ele>
        <time>2013-11-29T12:19:59Z</time>
      </trkpt>
      <trkpt lat="42.91831" lon="-0.15088">
        <ele>2052</ele>
        <time>2013-11-29T12:20:01Z</time>
      </trkpt>
      <trkpt lat="42.91833" lon="-0.15088">
        <ele>2050</ele>
        <time>2013-11-29T12:20:03Z</time>
      </trkpt>
      <trkpt lat="42.91834" lon="-0.15077">
        <ele>2047</ele>
        <time>2013-11-29T12:20:07Z</time>
      </trkpt>
      <trkpt lat="42.91833" lon="-0.15074">
        <ele>2046</ele>
        <time>2013-11-29T12:20:14Z</time>
      </trkpt>
      <trkpt lat="42.91834" lon="-0.15071">
        <ele>2046</ele>
        <time>2013-11-29T12:20:16Z</time>
      </trkpt>
      <trkpt lat="42.91839" lon="-0.15074">
        <ele>2043</ele>
        <time>2013-11-29T12:20:18Z</time>
      </trkpt>
      <trkpt lat="42.91839" lon="-0.15076">
        <ele>2043</ele>
        <time>2013-11-29T12:20:19Z</time>
      </trkpt>
      <trkpt lat="42.91838" lon="-0.15083">
        <ele>2042</ele>
        <time>2013-11-29T12:20:31Z</time>
      </trkpt>
      <trkpt lat="42.91839" lon="-0.15084">
        <ele>2042</ele>
        <time>2013-11-29T12:20:32Z</time>
      </trkpt>
      <trkpt lat="42.91845" lon="-0.15089">
        <ele>2040</ele>
        <time>2013-11-29T12:20:37Z</time>
      </trkpt>
      <trkpt lat="42.91851" lon="-0.15088">
        <ele>2037</ele>
        <time>2013-11-29T12:20:45Z</time>
      </trkpt>
      <trkpt lat="42.91854" lon="-0.15081">
        <ele>2035</ele>
        <time>2013-11-29T12:20:48Z</time>
      </trkpt>
      <trkpt lat="42.91858" lon="-0.15083">
        <ele>2031</ele>
        <time>2013-11-29T12:20:50Z</time>
      </trkpt>
      <trkpt lat="42.91862" lon="-0.15079">
        <ele>2030</ele>
        <time>2013-11-29T12:20:52Z</time>
      </trkpt>
      <trkpt lat="42.91868" lon="-0.1508">
        <ele>2026</ele>
        <time>2013-11-29T12:20:54Z</time>
      </trkpt>
      <trkpt lat="42.91871" lon="-0.15079">
        <ele>2024</ele>
        <time>2013-11-29T12:20:55Z</time>
      </trkpt>
      <trkpt lat="42.91876" lon="-0.15074">
        <ele>2020</ele>
        <time>2013-11-29T12:20:58Z</time>
      </trkpt>
      <trkpt lat="42.91878" lon="-0.15071">
        <ele>2018</ele>
        <time>2013-11-29T12:20:59Z</time>
      </trkpt>
      <trkpt lat="42.9188" lon="-0.15063">
        <ele>2015</ele>
        <time>2013-11-29T12:21:01Z</time>
      </trkpt>
      <trkpt lat="42.91886" lon="-0.15053">
        <ele>2012</ele>
        <time>2013-11-29T12:21:04Z</time>
      </trkpt>
      <trkpt lat="42.91901" lon="-0.15053">
        <ele>2010</ele>
        <time>2013-11-29T12:21:07Z</time>
      </trkpt>
      <trkpt lat="42.91922" lon="-0.15053">
        <ele>2007</ele>
        <time>2013-11-29T12:21:12Z</time>
      </trkpt>
      <trkpt lat="42.9193" lon="-0.15037">
        <ele>2004</ele>
        <time>2013-11-29T12:21:16Z</time>
      </trkpt>
      <trkpt lat="42.91933" lon="-0.15026">
        <ele>2002</ele>
        <time>2013-11-29T12:21:18Z</time>
      </trkpt>
      <trkpt lat="42.91938" lon="-0.15023">
        <ele>1996</ele>
        <time>2013-11-29T12:21:21Z</time>
      </trkpt>
      <trkpt lat="42.91951" lon="-0.15012">
        <ele>1990</ele>
        <time>2013-11-29T12:21:24Z</time>
      </trkpt>
      <trkpt lat="42.91976" lon="-0.15005">
        <ele>1984</ele>
        <time>2013-11-29T12:21:28Z</time>
      </trkpt>
      <trkpt lat="42.91982" lon="-0.15016">
        <ele>1983</ele>
        <time>2013-11-29T12:21:38Z</time>
      </trkpt>
      <trkpt lat="42.91985" lon="-0.15021">
        <ele>1984</ele>
        <time>2013-11-29T12:21:47Z</time>
      </trkpt>
      <trkpt lat="42.91992" lon="-0.15026">
        <ele>1982</ele>
        <time>2013-11-29T12:21:52Z</time>
      </trkpt>
      <trkpt lat="42.91994" lon="-0.15029">
        <ele>1980</ele>
        <time>2013-11-29T12:21:55Z</time>
      </trkpt>
      <trkpt lat="42.91992" lon="-0.15027">
        <ele>1980</ele>
        <time>2013-11-29T12:22:05Z</time>
      </trkpt>
      <trkpt lat="42.91993" lon="-0.15017">
        <ele>1979</ele>
        <time>2013-11-29T12:22:09Z</time>
      </trkpt>
      <trkpt lat="42.91986" lon="-0.1499">
        <ele>1976</ele>
        <time>2013-11-29T12:22:15Z</time>
      </trkpt>
      <trkpt lat="42.91985" lon="-0.14979">
        <ele>1975</ele>
        <time>2013-11-29T12:22:18Z</time>
      </trkpt>
      <trkpt lat="42.91983" lon="-0.14943">
        <ele>1971</ele>
        <time>2013-11-29T12:22:27Z</time>
      </trkpt>
      <trkpt lat="42.91991" lon="-0.14939">
        <ele>1969</ele>
        <time>2013-11-29T12:22:30Z</time>
      </trkpt>
      <trkpt lat="42.91995" lon="-0.14929">
        <ele>1966</ele>
        <time>2013-11-29T12:22:33Z</time>
      </trkpt>
      <trkpt lat="42.91994" lon="-0.1492">
        <ele>1964</ele>
        <time>2013-11-29T12:22:35Z</time>
      </trkpt>
      <trkpt lat="42.92" lon="-0.14911">
        <ele>1960</ele>
        <time>2013-11-29T12:22:38Z</time>
      </trkpt>
      <trkpt lat="42.92037" lon="-0.14899">
        <ele>1956</ele>
        <time>2013-11-29T12:22:48Z</time>
      </trkpt>
      <trkpt lat="42.92041" lon="-0.14898">
        <ele>1956</ele>
        <time>2013-11-29T12:22:49Z</time>
      </trkpt>
      <trkpt lat="42.92064" lon="-0.14903">
        <ele>1953</ele>
        <time>2013-11-29T12:22:53Z</time>
      </trkpt>
      <trkpt lat="42.92081" lon="-0.14912">
        <ele>1949</ele>
        <time>2013-11-29T12:22:56Z</time>
      </trkpt>
      <trkpt lat="42.92092" lon="-0.14917">
        <ele>1947</ele>
        <time>2013-11-29T12:22:58Z</time>
      </trkpt>
      <trkpt lat="42.92112" lon="-0.14927">
        <ele>1944</ele>
        <time>2013-11-29T12:23:02Z</time>
      </trkpt>
      <trkpt lat="42.92128" lon="-0.14933">
        <ele>1942</ele>
        <time>2013-11-29T12:23:05Z</time>
      </trkpt>
      <trkpt lat="42.92144" lon="-0.1494">
        <ele>1940</ele>
        <time>2013-11-29T12:23:08Z</time>
      </trkpt>
      <trkpt lat="42.92149" lon="-0.14944">
        <ele>1939</ele>
        <time>2013-11-29T12:23:09Z</time>
      </trkpt>
      <trkpt lat="42.92159" lon="-0.14948">
        <ele>1938</ele>
        <time>2013-11-29T12:23:11Z</time>
      </trkpt>
      <trkpt lat="42.92169" lon="-0.14953">
        <ele>1936</ele>
        <time>2013-11-29T12:23:13Z</time>
      </trkpt>
      <trkpt lat="42.9219" lon="-0.14965">
        <ele>1932</ele>
        <time>2013-11-29T12:23:17Z</time>
      </trkpt>
      <trkpt lat="42.92216" lon="-0.14978">
        <ele>1928</ele>
        <time>2013-11-29T12:23:22Z</time>
      </trkpt>
      <trkpt lat="42.92229" lon="-0.14981">
        <ele>1925</ele>
        <time>2013-11-29T12:23:24Z</time>
      </trkpt>
      <trkpt lat="42.92232" lon="-0.14991">
        <ele>1924</ele>
        <time>2013-11-29T12:23:30Z</time>
      </trkpt>
      <trkpt lat="42.9223" lon="-0.14993">
        <ele>1924</ele>
        <time>2013-11-29T12:23:34Z</time>
      </trkpt>
      <trkpt lat="42.92244" lon="-0.14995">
        <ele>1922</ele>
        <time>2013-11-29T12:23:45Z</time>
      </trkpt>
      <trkpt lat="42.9226" lon="-0.15003">
        <ele>1919</ele>
        <time>2013-11-29T12:23:49Z</time>
      </trkpt>
      <trkpt lat="42.9227" lon="-0.15009">
        <ele>1917</ele>
        <time>2013-11-29T12:23:51Z</time>
      </trkpt>
      <trkpt lat="42.92288" lon="-0.1503">
        <ele>1913</ele>
        <time>2013-11-29T12:23:56Z</time>
      </trkpt>
      <trkpt lat="42.92309" lon="-0.15053">
        <ele>1908</ele>
        <time>2013-11-29T12:24:01Z</time>
      </trkpt>
      <trkpt lat="42.92313" lon="-0.15058">
        <ele>1906</ele>
        <time>2013-11-29T12:24:02Z</time>
      </trkpt>
      <trkpt lat="42.92328" lon="-0.15074">
        <ele>1903</ele>
        <time>2013-11-29T12:24:05Z</time>
      </trkpt>
      <trkpt lat="42.92348" lon="-0.15091">
        <ele>1898</ele>
        <time>2013-11-29T12:24:09Z</time>
      </trkpt>
      <trkpt lat="42.92364" lon="-0.15108">
        <ele>1894</ele>
        <time>2013-11-29T12:24:13Z</time>
      </trkpt>
      <trkpt lat="42.92375" lon="-0.15115">
        <ele>1891</ele>
        <time>2013-11-29T12:24:15Z</time>
      </trkpt>
      <trkpt lat="42.9239" lon="-0.15127">
        <ele>1885</ele>
        <time>2013-11-29T12:24:18Z</time>
      </trkpt>
      <trkpt lat="42.92401" lon="-0.15134">
        <ele>1884</ele>
        <time>2013-11-29T12:24:20Z</time>
      </trkpt>
      <trkpt lat="42.92405" lon="-0.15141">
        <ele>1881</ele>
        <time>2013-11-29T12:24:22Z</time>
      </trkpt>
      <trkpt lat="42.92405" lon="-0.15143">
        <ele>1880</ele>
        <time>2013-11-29T12:24:32Z</time>
      </trkpt>
      <trkpt lat="42.92413" lon="-0.15149">
        <ele>1880</ele>
        <time>2013-11-29T12:24:36Z</time>
      </trkpt>
      <trkpt lat="42.92423" lon="-0.15159">
        <ele>1877</ele>
        <time>2013-11-29T12:24:39Z</time>
      </trkpt>
      <trkpt lat="42.92433" lon="-0.15166">
        <ele>1873</ele>
        <time>2013-11-29T12:24:42Z</time>
      </trkpt>
      <trkpt lat="42.92439" lon="-0.15173">
        <ele>1868</ele>
        <time>2013-11-29T12:24:44Z</time>
      </trkpt>
      <trkpt lat="42.92442" lon="-0.15178">
        <ele>1867</ele>
        <time>2013-11-29T12:24:45Z</time>
      </trkpt>
      <trkpt lat="42.92451" lon="-0.15198">
        <ele>1861</ele>
        <time>2013-11-29T12:24:49Z</time>
      </trkpt>
      <trkpt lat="42.92453" lon="-0.15212">
        <ele>1857</ele>
        <time>2013-11-29T12:24:52Z</time>
      </trkpt>
      <trkpt lat="42.92452" lon="-0.15214">
        <ele>1856</ele>
        <time>2013-11-29T12:24:54Z</time>
      </trkpt>
      <trkpt lat="42.92452" lon="-0.15212">
        <ele>1856</ele>
        <time>2013-11-29T12:25:04Z</time>
      </trkpt>
      <trkpt lat="42.92455" lon="-0.15224">
        <ele>1854</ele>
        <time>2013-11-29T12:25:08Z</time>
      </trkpt>
      <trkpt lat="42.92458" lon="-0.15234">
        <ele>1850</ele>
        <time>2013-11-29T12:25:10Z</time>
      </trkpt>
      <trkpt lat="42.92463" lon="-0.15251">
        <ele>1846</ele>
        <time>2013-11-29T12:25:13Z</time>
      </trkpt>
      <trkpt lat="42.92465" lon="-0.15264">
        <ele>1843</ele>
        <time>2013-11-29T12:25:15Z</time>
      </trkpt>
      <trkpt lat="42.92469" lon="-0.1528">
        <ele>1839</ele>
        <time>2013-11-29T12:25:18Z</time>
      </trkpt>
      <trkpt lat="42.92475" lon="-0.1529">
        <ele>1835</ele>
        <time>2013-11-29T12:25:20Z</time>
      </trkpt>
      <trkpt lat="42.92479" lon="-0.15301">
        <ele>1832</ele>
        <time>2013-11-29T12:25:22Z</time>
      </trkpt>
      <trkpt lat="42.92486" lon="-0.1532">
        <ele>1828</ele>
        <time>2013-11-29T12:25:25Z</time>
      </trkpt>
      <trkpt lat="42.92496" lon="-0.15337">
        <ele>1826</ele>
        <time>2013-11-29T12:25:28Z</time>
      </trkpt>
      <trkpt lat="42.92503" lon="-0.15346">
        <ele>1824</ele>
        <time>2013-11-29T12:25:30Z</time>
      </trkpt>
      <trkpt lat="42.9251" lon="-0.15354">
        <ele>1823</ele>
        <time>2013-11-29T12:25:32Z</time>
      </trkpt>
      <trkpt lat="42.92523" lon="-0.15373">
        <ele>1819</ele>
        <time>2013-11-29T12:25:36Z</time>
      </trkpt>
      <trkpt lat="42.92528" lon="-0.15384">
        <ele>1817</ele>
        <time>2013-11-29T12:25:40Z</time>
      </trkpt>
      <trkpt lat="42.92523" lon="-0.15383">
        <ele>1816</ele>
        <time>2013-11-29T12:25:56Z</time>
      </trkpt>
      <trkpt lat="42.92529" lon="-0.15392">
        <ele>1815</ele>
        <time>2013-11-29T12:26:02Z</time>
      </trkpt>
      <trkpt lat="42.92532" lon="-0.15394">
        <ele>1814</ele>
        <time>2013-11-29T12:26:03Z</time>
      </trkpt>
      <trkpt lat="42.92549" lon="-0.154">
        <ele>1810</ele>
        <time>2013-11-29T12:26:09Z</time>
      </trkpt>
      <trkpt lat="42.92555" lon="-0.15406">
        <ele>1809</ele>
        <time>2013-11-29T12:26:11Z</time>
      </trkpt>
      <trkpt lat="42.92569" lon="-0.15416">
        <ele>1805</ele>
        <time>2013-11-29T12:26:15Z</time>
      </trkpt>
      <trkpt lat="42.92579" lon="-0.15429">
        <ele>1801</ele>
        <time>2013-11-29T12:26:18Z</time>
      </trkpt>
      <trkpt lat="42.92581" lon="-0.15435">
        <ele>1799</ele>
        <time>2013-11-29T12:26:19Z</time>
      </trkpt>
      <trkpt lat="42.92587" lon="-0.15445">
        <ele>1798</ele>
        <time>2013-11-29T12:26:21Z</time>
      </trkpt>
      <trkpt lat="42.9259" lon="-0.15453">
        <ele>1794</ele>
        <time>2013-11-29T12:26:23Z</time>
      </trkpt>
      <trkpt lat="42.92589" lon="-0.15453">
        <ele>1794</ele>
        <time>2013-11-29T12:26:24Z</time>
      </trkpt>
      <trkpt lat="42.92588" lon="-0.15454">
        <ele>1795</ele>
        <time>2013-11-29T12:26:34Z</time>
      </trkpt>
      <trkpt lat="42.92582" lon="-0.15467">
        <ele>1793</ele>
        <time>2013-11-29T12:26:45Z</time>
      </trkpt>
      <trkpt lat="42.92578" lon="-0.15472">
        <ele>1793</ele>
        <time>2013-11-29T12:26:51Z</time>
      </trkpt>
      <trkpt lat="42.92579" lon="-0.15479">
        <ele>1790</ele>
        <time>2013-11-29T12:26:59Z</time>
      </trkpt>
      <trkpt lat="42.92582" lon="-0.1549">
        <ele>1787</ele>
        <time>2013-11-29T12:27:04Z</time>
      </trkpt>
      <trkpt lat="42.92586" lon="-0.15496">
        <ele>1787</ele>
        <time>2013-11-29T12:27:16Z</time>
      </trkpt>
      <trkpt lat="42.92587" lon="-0.15501">
        <ele>1789</ele>
        <time>2013-11-29T12:27:29Z</time>
      </trkpt>
      <trkpt lat="42.92591" lon="-0.15529">
        <ele>1785</ele>
        <time>2013-11-29T12:27:39Z</time>
      </trkpt>
      <trkpt lat="42.92598" lon="-0.15559">
        <ele>1784</ele>
        <time>2013-11-29T12:27:50Z</time>
      </trkpt>
      <trkpt lat="42.92598" lon="-0.15565">
        <ele>1783</ele>
        <time>2013-11-29T12:27:53Z</time>
      </trkpt>
      <trkpt lat="42.92596" lon="-0.15573">
        <ele>1782</ele>
        <time>2013-11-29T12:27:55Z</time>
      </trkpt>
      <trkpt lat="42.92593" lon="-0.15605">
        <ele>1779</ele>
        <time>2013-11-29T12:28:00Z</time>
      </trkpt>
      <trkpt lat="42.92594" lon="-0.15614">
        <ele>1777</ele>
        <time>2013-11-29T12:28:02Z</time>
      </trkpt>
      <trkpt lat="42.92601" lon="-0.15634">
        <ele>1774</ele>
        <time>2013-11-29T12:28:07Z</time>
      </trkpt>
      <trkpt lat="42.92616" lon="-0.15649">
        <ele>1771</ele>
        <time>2013-11-29T12:28:12Z</time>
      </trkpt>
      <trkpt lat="42.92626" lon="-0.15658">
        <ele>1769</ele>
        <time>2013-11-29T12:28:15Z</time>
      </trkpt>
      <trkpt lat="42.92631" lon="-0.15664">
        <ele>1768</ele>
        <time>2013-11-29T12:28:17Z</time>
      </trkpt>
      <trkpt lat="42.9264" lon="-0.15675">
        <ele>1767</ele>
        <time>2013-11-29T12:28:20Z</time>
      </trkpt>
      <trkpt lat="42.9265" lon="-0.15701">
        <ele>1764</ele>
        <time>2013-11-29T12:28:27Z</time>
      </trkpt>
      <trkpt lat="42.92656" lon="-0.15722">
        <ele>1760</ele>
        <time>2013-11-29T12:28:32Z</time>
      </trkpt>
      <trkpt lat="42.92659" lon="-0.15739">
        <ele>1757</ele>
        <time>2013-11-29T12:28:35Z</time>
      </trkpt>
      <trkpt lat="42.92674" lon="-0.15761">
        <ele>1753</ele>
        <time>2013-11-29T12:28:40Z</time>
      </trkpt>
      <trkpt lat="42.92692" lon="-0.15785">
        <ele>1747</ele>
        <time>2013-11-29T12:28:46Z</time>
      </trkpt>
      <trkpt lat="42.92693" lon="-0.15789">
        <ele>1747</ele>
        <time>2013-11-29T12:28:47Z</time>
      </trkpt>
      <trkpt lat="42.92701" lon="-0.15814">
        <ele>1743</ele>
        <time>2013-11-29T12:28:53Z</time>
      </trkpt>
      <trkpt lat="42.92705" lon="-0.15823">
        <ele>1742</ele>
        <time>2013-11-29T12:28:55Z</time>
      </trkpt>
      <trkpt lat="42.92709" lon="-0.15845">
        <ele>1739</ele>
        <time>2013-11-29T12:29:02Z</time>
      </trkpt>
      <trkpt lat="42.92718" lon="-0.15848">
        <ele>1735</ele>
        <time>2013-11-29T12:29:05Z</time>
      </trkpt>
      <trkpt lat="42.92728" lon="-0.15853">
        <ele>1731</ele>
        <time>2013-11-29T12:29:08Z</time>
      </trkpt>
      <trkpt lat="42.92744" lon="-0.15864">
        <ele>1724</ele>
        <time>2013-11-29T12:29:13Z</time>
      </trkpt>
      <trkpt lat="42.9275" lon="-0.15866">
        <ele>1721</ele>
        <time>2013-11-29T12:29:15Z</time>
      </trkpt>
      <trkpt lat="42.92752" lon="-0.15867">
        <ele>1719</ele>
        <time>2013-11-29T12:29:16Z</time>
      </trkpt>
      <trkpt lat="42.92752" lon="-0.15865">
        <ele>1720</ele>
        <time>2013-11-29T12:29:32Z</time>
      </trkpt>
      <trkpt lat="42.92753" lon="-0.15866">
        <ele>1720</ele>
        <time>2013-11-29T12:29:35Z</time>
      </trkpt>
      <trkpt lat="42.92756" lon="-0.15878">
        <ele>1718</ele>
        <time>2013-11-29T12:29:39Z</time>
      </trkpt>
      <trkpt lat="42.92758" lon="-0.1589">
        <ele>1716</ele>
        <time>2013-11-29T12:29:42Z</time>
      </trkpt>
      <trkpt lat="42.92759" lon="-0.15893">
        <ele>1714</ele>
        <time>2013-11-29T12:29:43Z</time>
      </trkpt>
      <trkpt lat="42.92766" lon="-0.15895">
        <ele>1710</ele>
        <time>2013-11-29T12:29:46Z</time>
      </trkpt>
      <trkpt lat="42.92769" lon="-0.15904">
        <ele>1706</ele>
        <time>2013-11-29T12:29:48Z</time>
      </trkpt>
      <trkpt lat="42.92771" lon="-0.15916">
        <ele>1703</ele>
        <time>2013-11-29T12:29:52Z</time>
      </trkpt>
      <trkpt lat="42.92775" lon="-0.15915">
        <ele>1701</ele>
        <time>2013-11-29T12:29:54Z</time>
      </trkpt>
      <trkpt lat="42.92778" lon="-0.1592">
        <ele>1697</ele>
        <time>2013-11-29T12:29:56Z</time>
      </trkpt>
      <trkpt lat="42.92782" lon="-0.15928">
        <ele>1693</ele>
        <time>2013-11-29T12:29:59Z</time>
      </trkpt>
      <trkpt lat="42.92781" lon="-0.15928">
        <ele>1691</ele>
        <time>2013-11-29T12:30:05Z</time>
      </trkpt>
      <trkpt lat="42.92786" lon="-0.15927">
        <ele>1688</ele>
        <time>2013-11-29T12:30:09Z</time>
      </trkpt>
      <trkpt lat="42.92786" lon="-0.15928">
        <ele>1688</ele>
        <time>2013-11-29T12:30:10Z</time>
      </trkpt>
      <trkpt lat="42.92788" lon="-0.15928">
        <ele>1688</ele>
        <time>2013-11-29T12:30:11Z</time>
      </trkpt>
      <trkpt lat="42.92794" lon="-0.15924">
        <ele>1685</ele>
        <time>2013-11-29T12:30:14Z</time>
      </trkpt>
      <trkpt lat="42.92798" lon="-0.1593">
        <ele>1681</ele>
        <time>2013-11-29T12:30:16Z</time>
      </trkpt>
      <trkpt lat="42.92798" lon="-0.15937">
        <ele>1679</ele>
        <time>2013-11-29T12:30:19Z</time>
      </trkpt>
      <trkpt lat="42.92798" lon="-0.15937">
        <ele>1679</ele>
        <time>2013-11-29T12:30:26Z</time>
      </trkpt>
      <trkpt lat="42.92803" lon="-0.15939">
        <ele>1676</ele>
        <time>2013-11-29T12:30:29Z</time>
      </trkpt>
      <trkpt lat="42.92807" lon="-0.15944">
        <ele>1673</ele>
        <time>2013-11-29T12:30:32Z</time>
      </trkpt>
      <trkpt lat="42.92807" lon="-0.15943">
        <ele>1673</ele>
        <time>2013-11-29T12:30:34Z</time>
      </trkpt>
      <trkpt lat="42.92808" lon="-0.15948">
        <ele>1670</ele>
        <time>2013-11-29T12:30:42Z</time>
      </trkpt>
      <trkpt lat="42.92807" lon="-0.15948">
        <ele>1669</ele>
        <time>2013-11-29T12:30:50Z</time>
      </trkpt>
      <trkpt lat="42.9281" lon="-0.15947">
        <ele>1668</ele>
        <time>2013-11-29T12:30:53Z</time>
      </trkpt>
      <trkpt lat="42.92813" lon="-0.15943">
        <ele>1666</ele>
        <time>2013-11-29T12:30:58Z</time>
      </trkpt>
      <trkpt lat="42.92815" lon="-0.15943">
        <ele>1666</ele>
        <time>2013-11-29T12:31:02Z</time>
      </trkpt>
      <trkpt lat="42.92822" lon="-0.15933">
        <ele>1662</ele>
        <time>2013-11-29T12:31:09Z</time>
      </trkpt>
      <trkpt lat="42.92822" lon="-0.15932">
        <ele>1662</ele>
        <time>2013-11-29T12:31:10Z</time>
      </trkpt>
      <trkpt lat="42.92822" lon="-0.15933">
        <ele>1662</ele>
        <time>2013-11-29T12:31:12Z</time>
      </trkpt>
      <trkpt lat="42.92829" lon="-0.15936">
        <ele>1659</ele>
        <time>2013-11-29T12:31:16Z</time>
      </trkpt>
      <trkpt lat="42.92836" lon="-0.15938">
        <ele>1654</ele>
        <time>2013-11-29T12:31:19Z</time>
      </trkpt>
      <trkpt lat="42.92839" lon="-0.15944">
        <ele>1651</ele>
        <time>2013-11-29T12:31:21Z</time>
      </trkpt>
      <trkpt lat="42.92847" lon="-0.1594">
        <ele>1644</ele>
        <time>2013-11-29T12:31:24Z</time>
      </trkpt>
      <trkpt lat="42.9285" lon="-0.15939">
        <ele>1643</ele>
        <time>2013-11-29T12:31:25Z</time>
      </trkpt>
      <trkpt lat="42.92857" lon="-0.15945">
        <ele>1637</ele>
        <time>2013-11-29T12:31:29Z</time>
      </trkpt>
      <trkpt lat="42.92859" lon="-0.15946">
        <ele>1634</ele>
        <time>2013-11-29T12:31:30Z</time>
      </trkpt>
      <trkpt lat="42.92861" lon="-0.15949">
        <ele>1632</ele>
        <time>2013-11-29T12:31:31Z</time>
      </trkpt>
      <trkpt lat="42.92866" lon="-0.15953">
        <ele>1629</ele>
        <time>2013-11-29T12:31:34Z</time>
      </trkpt>
      <trkpt lat="42.92867" lon="-0.15954">
        <ele>1629</ele>
        <time>2013-11-29T12:31:35Z</time>
      </trkpt>
      <trkpt lat="42.92871" lon="-0.15958">
        <ele>1625</ele>
        <time>2013-11-29T12:31:38Z</time>
      </trkpt>
      <trkpt lat="42.92873" lon="-0.15963">
        <ele>1621</ele>
        <time>2013-11-29T12:31:40Z</time>
      </trkpt>
      <trkpt lat="42.92872" lon="-0.15984">
        <ele>1620</ele>
        <time>2013-11-29T12:31:52Z</time>
      </trkpt>
      <trkpt lat="42.92873" lon="-0.15986">
        <ele>1620</ele>
        <time>2013-11-29T12:32:04Z</time>
      </trkpt>
      <trkpt lat="42.92874" lon="-0.15985">
        <ele>1618</ele>
        <time>2013-11-29T12:32:06Z</time>
      </trkpt>
      <trkpt lat="42.92873" lon="-0.15984">
        <ele>1618</ele>
        <time>2013-11-29T12:32:10Z</time>
      </trkpt>
      <trkpt lat="42.92879" lon="-0.15977">
        <ele>1615</ele>
        <time>2013-11-29T12:32:18Z</time>
      </trkpt>
      <trkpt lat="42.92886" lon="-0.15984">
        <ele>1611</ele>
        <time>2013-11-29T12:32:21Z</time>
      </trkpt>
      <trkpt lat="42.92889" lon="-0.15992">
        <ele>1610</ele>
        <time>2013-11-29T12:32:23Z</time>
      </trkpt>
      <trkpt lat="42.92892" lon="-0.16002">
        <ele>1608</ele>
        <time>2013-11-29T12:32:26Z</time>
      </trkpt>
      <trkpt lat="42.92893" lon="-0.16004">
        <ele>1607</ele>
        <time>2013-11-29T12:32:27Z</time>
      </trkpt>
      <trkpt lat="42.92896" lon="-0.16009">
        <ele>1605</ele>
        <time>2013-11-29T12:32:30Z</time>
      </trkpt>
      <trkpt lat="42.92894" lon="-0.16005">
        <ele>1603</ele>
        <time>2013-11-29T12:32:36Z</time>
      </trkpt>
      <trkpt lat="42.92904" lon="-0.16005">
        <ele>1599</ele>
        <time>2013-11-29T12:32:44Z</time>
      </trkpt>
      <trkpt lat="42.92905" lon="-0.16015">
        <ele>1598</ele>
        <time>2013-11-29T12:32:48Z</time>
      </trkpt>
      <trkpt lat="42.92909" lon="-0.16016">
        <ele>1597</ele>
        <time>2013-11-29T12:32:50Z</time>
      </trkpt>
      <trkpt lat="42.9291" lon="-0.16015">
        <ele>1596</ele>
        <time>2013-11-29T12:32:51Z</time>
      </trkpt>
      <trkpt lat="42.92911" lon="-0.16009">
        <ele>1595</ele>
        <time>2013-11-29T12:32:53Z</time>
      </trkpt>
      <trkpt lat="42.92917" lon="-0.16004">
        <ele>1594</ele>
        <time>2013-11-29T12:32:55Z</time>
      </trkpt>
      <trkpt lat="42.92924" lon="-0.16005">
        <ele>1592</ele>
        <time>2013-11-29T12:32:57Z</time>
      </trkpt>
      <trkpt lat="42.92931" lon="-0.16016">
        <ele>1589</ele>
        <time>2013-11-29T12:33:01Z</time>
      </trkpt>
      <trkpt lat="42.9294" lon="-0.16023">
        <ele>1583</ele>
        <time>2013-11-29T12:33:05Z</time>
      </trkpt>
      <trkpt lat="42.92941" lon="-0.16026">
        <ele>1582</ele>
        <time>2013-11-29T12:33:06Z</time>
      </trkpt>
      <trkpt lat="42.92942" lon="-0.16028">
        <ele>1582</ele>
        <time>2013-11-29T12:33:07Z</time>
      </trkpt>
      <trkpt lat="42.92947" lon="-0.16036">
        <ele>1579</ele>
        <time>2013-11-29T12:33:11Z</time>
      </trkpt>
      <trkpt lat="42.92941" lon="-0.16048">
        <ele>1579</ele>
        <time>2013-11-29T12:33:23Z</time>
      </trkpt>
      <trkpt lat="42.92944" lon="-0.16054">
        <ele>1578</ele>
        <time>2013-11-29T12:33:30Z</time>
      </trkpt>
      <trkpt lat="42.92944" lon="-0.16052">
        <ele>1576</ele>
        <time>2013-11-29T12:33:32Z</time>
      </trkpt>
      <trkpt lat="42.92954" lon="-0.16053">
        <ele>1573</ele>
        <time>2013-11-29T12:33:37Z</time>
      </trkpt>
      <trkpt lat="42.92957" lon="-0.16054">
        <ele>1572</ele>
        <time>2013-11-29T12:33:38Z</time>
      </trkpt>
      <trkpt lat="42.92967" lon="-0.16048">
        <ele>1568</ele>
        <time>2013-11-29T12:33:42Z</time>
      </trkpt>
      <trkpt lat="42.92969" lon="-0.16047">
        <ele>1568</ele>
        <time>2013-11-29T12:33:49Z</time>
      </trkpt>
      <trkpt lat="42.9297" lon="-0.16055">
        <ele>1567</ele>
        <time>2013-11-29T12:33:53Z</time>
      </trkpt>
      <trkpt lat="42.92976" lon="-0.16059">
        <ele>1563</ele>
        <time>2013-11-29T12:33:58Z</time>
      </trkpt>
      <trkpt lat="42.92976" lon="-0.1606">
        <ele>1562</ele>
        <time>2013-11-29T12:34:02Z</time>
      </trkpt>
      <trkpt lat="42.92978" lon="-0.16065">
        <ele>1561</ele>
        <time>2013-11-29T12:34:03Z</time>
      </trkpt>
      <trkpt lat="42.92981" lon="-0.16072">
        <ele>1559</ele>
        <time>2013-11-29T12:34:11Z</time>
      </trkpt>
      <trkpt lat="42.92987" lon="-0.16078">
        <ele>1558</ele>
        <time>2013-11-29T12:34:22Z</time>
      </trkpt>
      <trkpt lat="42.9299" lon="-0.16078">
        <ele>1559</ele>
        <time>2013-11-29T12:34:25Z</time>
      </trkpt>
      <trkpt lat="42.92993" lon="-0.1608">
        <ele>1557</ele>
        <time>2013-11-29T12:34:28Z</time>
      </trkpt>
      <trkpt lat="42.92994" lon="-0.16088">
        <ele>1556</ele>
        <time>2013-11-29T12:34:37Z</time>
      </trkpt>
      <trkpt lat="42.92995" lon="-0.16091">
        <ele>1556</ele>
        <time>2013-11-29T12:34:51Z</time>
      </trkpt>
      <trkpt lat="42.92993" lon="-0.16094">
        <ele>1556</ele>
        <time>2013-11-29T12:35:03Z</time>
      </trkpt>
      <trkpt lat="42.93008" lon="-0.16096">
        <ele>1554</ele>
        <time>2013-11-29T12:35:19Z</time>
      </trkpt>
      <trkpt lat="42.93019" lon="-0.16104">
        <ele>1551</ele>
        <time>2013-11-29T12:35:25Z</time>
      </trkpt>
      <trkpt lat="42.93019" lon="-0.16112">
        <ele>1549</ele>
        <time>2013-11-29T12:35:38Z</time>
      </trkpt>
      <trkpt lat="42.93019" lon="-0.16112">
        <ele>1548</ele>
        <time>2013-11-29T12:35:39Z</time>
      </trkpt>
      <trkpt lat="42.93023" lon="-0.16113">
        <ele>1546</ele>
        <time>2013-11-29T12:35:43Z</time>
      </trkpt>
      <trkpt lat="42.93026" lon="-0.16115">
        <ele>1545</ele>
        <time>2013-11-29T12:35:45Z</time>
      </trkpt>
      <trkpt lat="42.93035" lon="-0.16125">
        <ele>1542</ele>
        <time>2013-11-29T12:35:51Z</time>
      </trkpt>
      <trkpt lat="42.93036" lon="-0.16125">
        <ele>1542</ele>
        <time>2013-11-29T12:35:52Z</time>
      </trkpt>
      <trkpt lat="42.93041" lon="-0.16132">
        <ele>1539</ele>
        <time>2013-11-29T12:35:55Z</time>
      </trkpt>
      <trkpt lat="42.93037" lon="-0.16146">
        <ele>1538</ele>
        <time>2013-11-29T12:36:05Z</time>
      </trkpt>
      <trkpt lat="42.9304" lon="-0.16158">
        <ele>1538</ele>
        <time>2013-11-29T12:36:25Z</time>
      </trkpt>
      <trkpt lat="42.93045" lon="-0.16169">
        <ele>1537</ele>
        <time>2013-11-29T12:36:32Z</time>
      </trkpt>
      <trkpt lat="42.93062" lon="-0.16168">
        <ele>1536</ele>
        <time>2013-11-29T12:36:51Z</time>
      </trkpt>
      <trkpt lat="42.93064" lon="-0.1617">
        <ele>1536</ele>
        <time>2013-11-29T12:37:11Z</time>
      </trkpt>
      <trkpt lat="42.93072" lon="-0.16182">
        <ele>1534</ele>
        <time>2013-11-29T12:37:17Z</time>
      </trkpt>
      <trkpt lat="42.93078" lon="-0.16195">
        <ele>1530</ele>
        <time>2013-11-29T12:37:21Z</time>
      </trkpt>
      <trkpt lat="42.93079" lon="-0.16199">
        <ele>1530</ele>
        <time>2013-11-29T12:37:22Z</time>
      </trkpt>
      <trkpt lat="42.93082" lon="-0.16208">
        <ele>1527</ele>
        <time>2013-11-29T12:37:24Z</time>
      </trkpt>
      <trkpt lat="42.93094" lon="-0.16231">
        <ele>1521</ele>
        <time>2013-11-29T12:37:29Z</time>
      </trkpt>
      <trkpt lat="42.93095" lon="-0.16236">
        <ele>1519</ele>
        <time>2013-11-29T12:37:30Z</time>
      </trkpt>
      <trkpt lat="42.93106" lon="-0.1625">
        <ele>1515</ele>
        <time>2013-11-29T12:37:34Z</time>
      </trkpt>
      <trkpt lat="42.93112" lon="-0.16256">
        <ele>1512</ele>
        <time>2013-11-29T12:37:36Z</time>
      </trkpt>
      <trkpt lat="42.93116" lon="-0.16266">
        <ele>1510</ele>
        <time>2013-11-29T12:37:38Z</time>
      </trkpt>
      <trkpt lat="42.9312" lon="-0.16279">
        <ele>1507</ele>
        <time>2013-11-29T12:37:48Z</time>
      </trkpt>
      <trkpt lat="42.9312" lon="-0.16279">
        <ele>1507</ele>
        <time>2013-11-29T12:38:03Z</time>
      </trkpt>
      <trkpt lat="42.93128" lon="-0.16285">
        <ele>1503</ele>
        <time>2013-11-29T12:38:09Z</time>
      </trkpt>
      <trkpt lat="42.93123" lon="-0.16285">
        <ele>1503</ele>
        <time>2013-11-29T12:38:25Z</time>
      </trkpt>
      <trkpt lat="42.93125" lon="-0.16286">
        <ele>1499</ele>
        <time>2013-11-29T12:38:36Z</time>
      </trkpt>
      <trkpt lat="42.93131" lon="-0.1629">
        <ele>1496</ele>
        <time>2013-11-29T12:38:40Z</time>
      </trkpt>
      <trkpt lat="42.93135" lon="-0.16304">
        <ele>1493</ele>
        <time>2013-11-29T12:38:44Z</time>
      </trkpt>
      <trkpt lat="42.93135" lon="-0.16311">
        <ele>1492</ele>
        <time>2013-11-29T12:38:46Z</time>
      </trkpt>
      <trkpt lat="42.9314" lon="-0.16326">
        <ele>1490</ele>
        <time>2013-11-29T12:38:52Z</time>
      </trkpt>
      <trkpt lat="42.93147" lon="-0.16333">
        <ele>1489</ele>
        <time>2013-11-29T12:39:07Z</time>
      </trkpt>
      <trkpt lat="42.93152" lon="-0.16331">
        <ele>1489</ele>
        <time>2013-11-29T12:39:21Z</time>
      </trkpt>
      <trkpt lat="42.93164" lon="-0.16331">
        <ele>1487</ele>
        <time>2013-11-29T12:39:26Z</time>
      </trkpt>
      <trkpt lat="42.9317" lon="-0.16325">
        <ele>1486</ele>
        <time>2013-11-29T12:39:30Z</time>
      </trkpt>
      <trkpt lat="42.93177" lon="-0.16333">
        <ele>1483</ele>
        <time>2013-11-29T12:39:34Z</time>
      </trkpt>
      <trkpt lat="42.93183" lon="-0.16337">
        <ele>1481</ele>
        <time>2013-11-29T12:39:40Z</time>
      </trkpt>
      <trkpt lat="42.93193" lon="-0.16353">
        <ele>1477</ele>
        <time>2013-11-29T12:39:45Z</time>
      </trkpt>
      <trkpt lat="42.93196" lon="-0.16357">
        <ele>1477</ele>
        <time>2013-11-29T12:39:46Z</time>
      </trkpt>
      <trkpt lat="42.932" lon="-0.16366">
        <ele>1476</ele>
        <time>2013-11-29T12:39:49Z</time>
      </trkpt>
      <trkpt lat="42.93204" lon="-0.16373">
        <ele>1474</ele>
        <time>2013-11-29T12:39:52Z</time>
      </trkpt>
      <trkpt lat="42.93206" lon="-0.16374">
        <ele>1474</ele>
        <time>2013-11-29T12:39:55Z</time>
      </trkpt>
      <trkpt lat="42.93213" lon="-0.16381">
        <ele>1469</ele>
        <time>2013-11-29T12:39:59Z</time>
      </trkpt>
      <trkpt lat="42.93213" lon="-0.16382">
        <ele>1469</ele>
        <time>2013-11-29T12:40:00Z</time>
      </trkpt>
      <trkpt lat="42.93216" lon="-0.16395">
        <ele>1467</ele>
        <time>2013-11-29T12:40:09Z</time>
      </trkpt>
      <trkpt lat="42.9322" lon="-0.16414">
        <ele>1465</ele>
        <time>2013-11-29T12:40:13Z</time>
      </trkpt>
      <trkpt lat="42.93218" lon="-0.16425">
        <ele>1465</ele>
        <time>2013-11-29T12:40:23Z</time>
      </trkpt>
      <trkpt lat="42.93223" lon="-0.16444">
        <ele>1463</ele>
        <time>2013-11-29T12:40:29Z</time>
      </trkpt>
      <trkpt lat="42.93231" lon="-0.16479">
        <ele>1460</ele>
        <time>2013-11-29T12:40:35Z</time>
      </trkpt>
      <trkpt lat="42.93233" lon="-0.1651">
        <ele>1458</ele>
        <time>2013-11-29T12:40:39Z</time>
      </trkpt>
      <trkpt lat="42.93233" lon="-0.16526">
        <ele>1457</ele>
        <time>2013-11-29T12:40:41Z</time>
      </trkpt>
      <trkpt lat="42.9324" lon="-0.16563">
        <ele>1453</ele>
        <time>2013-11-29T12:40:46Z</time>
      </trkpt>
      <trkpt lat="42.9324" lon="-0.16568">
        <ele>1453</ele>
        <time>2013-11-29T12:40:47Z</time>
      </trkpt>
      <trkpt lat="42.93247" lon="-0.16572">
        <ele>1446</ele>
        <time>2013-11-29T12:40:50Z</time>
      </trkpt>
      <trkpt lat="42.93253" lon="-0.1658">
        <ele>1445</ele>
        <time>2013-11-29T12:40:52Z</time>
      </trkpt>
      <trkpt lat="42.93257" lon="-0.16591">
        <ele>1442</ele>
        <time>2013-11-29T12:40:54Z</time>
      </trkpt>
      <trkpt lat="42.93268" lon="-0.16606">
        <ele>1438</ele>
        <time>2013-11-29T12:40:57Z</time>
      </trkpt>
      <trkpt lat="42.93272" lon="-0.16611">
        <ele>1437</ele>
        <time>2013-11-29T12:40:58Z</time>
      </trkpt>
      <trkpt lat="42.93287" lon="-0.16622">
        <ele>1431</ele>
        <time>2013-11-29T12:41:01Z</time>
      </trkpt>
      <trkpt lat="42.93292" lon="-0.16626">
        <ele>1428</ele>
        <time>2013-11-29T12:41:02Z</time>
      </trkpt>
      <trkpt lat="42.93307" lon="-0.16636">
        <ele>1422</ele>
        <time>2013-11-29T12:41:05Z</time>
      </trkpt>
      <trkpt lat="42.9331" lon="-0.16646">
        <ele>1420</ele>
        <time>2013-11-29T12:41:07Z</time>
      </trkpt>
      <trkpt lat="42.93316" lon="-0.16667">
        <ele>1417</ele>
        <time>2013-11-29T12:41:13Z</time>
      </trkpt>
      <trkpt lat="42.9332" lon="-0.16669">
        <ele>1417</ele>
        <time>2013-11-29T12:41:17Z</time>
      </trkpt>
      <trkpt lat="42.93323" lon="-0.16672">
        <ele>1417</ele>
        <time>2013-11-29T12:41:20Z</time>
      </trkpt>
      <trkpt lat="42.93325" lon="-0.16685">
        <ele>1416</ele>
        <time>2013-11-29T12:41:25Z</time>
      </trkpt>
      <trkpt lat="42.9333" lon="-0.16714">
        <ele>1412</ele>
        <time>2013-11-29T12:41:35Z</time>
      </trkpt>
      <trkpt lat="42.93333" lon="-0.16728">
        <ele>1410</ele>
        <time>2013-11-29T12:41:39Z</time>
      </trkpt>
      <trkpt lat="42.93334" lon="-0.16741">
        <ele>1408</ele>
        <time>2013-11-29T12:41:43Z</time>
      </trkpt>
      <trkpt lat="42.93333" lon="-0.16754">
        <ele>1405</ele>
        <time>2013-11-29T12:41:52Z</time>
      </trkpt>
      <trkpt lat="42.93335" lon="-0.16752">
        <ele>1405</ele>
        <time>2013-11-29T12:42:08Z</time>
      </trkpt>
      <trkpt lat="42.9333" lon="-0.16763">
        <ele>1405</ele>
        <time>2013-11-29T12:42:29Z</time>
      </trkpt>
      <trkpt lat="42.93332" lon="-0.16775">
        <ele>1405</ele>
        <time>2013-11-29T12:42:37Z</time>
      </trkpt>
      <trkpt lat="42.93332" lon="-0.16785">
        <ele>1403</ele>
        <time>2013-11-29T12:42:42Z</time>
      </trkpt>
      <trkpt lat="42.93328" lon="-0.16791">
        <ele>1402</ele>
        <time>2013-11-29T12:42:43Z</time>
      </trkpt>
      <trkpt lat="42.93334" lon="-0.16795">
        <ele>1399</ele>
        <time>2013-11-29T12:42:47Z</time>
      </trkpt>
      <trkpt lat="42.93336" lon="-0.16806">
        <ele>1397</ele>
        <time>2013-11-29T12:42:50Z</time>
      </trkpt>
      <trkpt lat="42.93336" lon="-0.16813">
        <ele>1396</ele>
        <time>2013-11-29T12:42:53Z</time>
      </trkpt>
      <trkpt lat="42.93337" lon="-0.16813">
        <ele>1395</ele>
        <time>2013-11-29T12:42:54Z</time>
      </trkpt>
      <trkpt lat="42.93343" lon="-0.16816">
        <ele>1393</ele>
        <time>2013-11-29T12:42:56Z</time>
      </trkpt>
      <trkpt lat="42.9334" lon="-0.16826">
        <ele>1390</ele>
        <time>2013-11-29T12:43:01Z</time>
      </trkpt>
      <trkpt lat="42.93339" lon="-0.16827">
        <ele>1391</ele>
        <time>2013-11-29T12:43:02Z</time>
      </trkpt>
      <trkpt lat="42.93345" lon="-0.16826">
        <ele>1389</ele>
        <time>2013-11-29T12:43:11Z</time>
      </trkpt>
      <trkpt lat="42.93346" lon="-0.16829">
        <ele>1387</ele>
        <time>2013-11-29T12:43:28Z</time>
      </trkpt>
      <trkpt lat="42.93348" lon="-0.16829">
        <ele>1384</ele>
        <time>2013-11-29T12:43:36Z</time>
      </trkpt>
      <trkpt lat="42.93351" lon="-0.16829">
        <ele>1383</ele>
        <time>2013-11-29T12:43:38Z</time>
      </trkpt>
      <trkpt lat="42.93353" lon="-0.16832">
        <ele>1382</ele>
        <time>2013-11-29T12:43:40Z</time>
      </trkpt>
      <trkpt lat="42.93354" lon="-0.16837">
        <ele>1380</ele>
        <time>2013-11-29T12:43:42Z</time>
      </trkpt>
      <trkpt lat="42.93361" lon="-0.16845">
        <ele>1379</ele>
        <time>2013-11-29T12:43:55Z</time>
      </trkpt>
      <trkpt lat="42.9336" lon="-0.16858">
        <ele>1375</ele>
        <time>2013-11-29T12:44:01Z</time>
      </trkpt>
      <trkpt lat="42.9336" lon="-0.16859">
        <ele>1374</ele>
        <time>2013-11-29T12:44:03Z</time>
      </trkpt>
      <trkpt lat="42.93359" lon="-0.1687">
        <ele>1373</ele>
        <time>2013-11-29T12:44:16Z</time>
      </trkpt>
      <trkpt lat="42.93366" lon="-0.16868">
        <ele>1371</ele>
        <time>2013-11-29T12:44:31Z</time>
      </trkpt>
      <trkpt lat="42.93359" lon="-0.16885">
        <ele>1368</ele>
        <time>2013-11-29T12:44:37Z</time>
      </trkpt>
      <trkpt lat="42.93357" lon="-0.16889">
        <ele>1367</ele>
        <time>2013-11-29T12:44:39Z</time>
      </trkpt>
      <trkpt lat="42.93359" lon="-0.16892">
        <ele>1365</ele>
        <time>2013-11-29T12:44:45Z</time>
      </trkpt>
      <trkpt lat="42.93361" lon="-0.16894">
        <ele>1364</ele>
        <time>2013-11-29T12:44:49Z</time>
      </trkpt>
      <trkpt lat="42.93362" lon="-0.16896">
        <ele>1364</ele>
        <time>2013-11-29T12:44:53Z</time>
      </trkpt>
      <trkpt lat="42.93365" lon="-0.16896">
        <ele>1363</ele>
        <time>2013-11-29T12:44:56Z</time>
      </trkpt>
      <trkpt lat="42.93371" lon="-0.16893">
        <ele>1360</ele>
        <time>2013-11-29T12:45:00Z</time>
      </trkpt>
      <trkpt lat="42.93373" lon="-0.169">
        <ele>1359</ele>
        <time>2013-11-29T12:45:14Z</time>
      </trkpt>
      <trkpt lat="42.93376" lon="-0.16902">
        <ele>1357</ele>
        <time>2013-11-29T12:45:18Z</time>
      </trkpt>
      <trkpt lat="42.93376" lon="-0.16902">
        <ele>1357</ele>
        <time>2013-11-29T12:45:35Z</time>
      </trkpt>
      <trkpt lat="42.93388" lon="-0.16909">
        <ele>1355</ele>
        <time>2013-11-29T12:45:54Z</time>
      </trkpt>
      <trkpt lat="42.9339" lon="-0.16913">
        <ele>1354</ele>
        <time>2013-11-29T12:45:58Z</time>
      </trkpt>
      <trkpt lat="42.93387" lon="-0.16914">
        <ele>1353</ele>
        <time>2013-11-29T12:46:13Z</time>
      </trkpt>
      <trkpt lat="42.93385" lon="-0.16914">
        <ele>1351</ele>
        <time>2013-11-29T12:46:26Z</time>
      </trkpt>
      <trkpt lat="42.93383" lon="-0.16911">
        <ele>1349</ele>
        <time>2013-11-29T12:46:38Z</time>
      </trkpt>
      <trkpt lat="42.93384" lon="-0.16911">
        <ele>1348</ele>
        <time>2013-11-29T12:46:39Z</time>
      </trkpt>
      <trkpt lat="42.9339" lon="-0.16917">
        <ele>1348</ele>
        <time>2013-11-29T12:46:47Z</time>
      </trkpt>
      <trkpt lat="42.93388" lon="-0.16923">
        <ele>1346</ele>
        <time>2013-11-29T12:46:56Z</time>
      </trkpt>
      <trkpt lat="42.93389" lon="-0.16923">
        <ele>1345</ele>
        <time>2013-11-29T12:47:09Z</time>
      </trkpt>
      <trkpt lat="42.93389" lon="-0.16925">
        <ele>1343</ele>
        <time>2013-11-29T12:47:25Z</time>
      </trkpt>
      <trkpt lat="42.93389" lon="-0.16929">
        <ele>1340</ele>
        <time>2013-11-29T12:47:34Z</time>
      </trkpt>
      <trkpt lat="42.93389" lon="-0.1693">
        <ele>1340</ele>
        <time>2013-11-29T12:47:35Z</time>
      </trkpt>
      <trkpt lat="42.93387" lon="-0.16931">
        <ele>1339</ele>
        <time>2013-11-29T12:47:47Z</time>
      </trkpt>
      <trkpt lat="42.93381" lon="-0.16932">
        <ele>1335</ele>
        <time>2013-11-29T12:47:59Z</time>
      </trkpt>
      <trkpt lat="42.93382" lon="-0.16934">
        <ele>1336</ele>
        <time>2013-11-29T12:48:00Z</time>
      </trkpt>
      <trkpt lat="42.93386" lon="-0.16942">
        <ele>1335</ele>
        <time>2013-11-29T12:48:16Z</time>
      </trkpt>
      <trkpt lat="42.93383" lon="-0.16949">
        <ele>1332</ele>
        <time>2013-11-29T12:48:22Z</time>
      </trkpt>
      <trkpt lat="42.93382" lon="-0.16949">
        <ele>1330</ele>
        <time>2013-11-29T12:48:38Z</time>
      </trkpt>
      <trkpt lat="42.93382" lon="-0.16947">
        <ele>1327</ele>
        <time>2013-11-29T12:48:50Z</time>
      </trkpt>
      <trkpt lat="42.9339" lon="-0.16953">
        <ele>1324</ele>
        <time>2013-11-29T12:49:01Z</time>
      </trkpt>
      <trkpt lat="42.93391" lon="-0.16954">
        <ele>1324</ele>
        <time>2013-11-29T12:49:03Z</time>
      </trkpt>
      <trkpt lat="42.93393" lon="-0.1696">
        <ele>1320</ele>
        <time>2013-11-29T12:49:07Z</time>
      </trkpt>
      <trkpt lat="42.93403" lon="-0.1697">
        <ele>1321</ele>
        <time>2013-11-29T12:49:26Z</time>
      </trkpt>
      <trkpt lat="42.93405" lon="-0.16974">
        <ele>1320</ele>
        <time>2013-11-29T12:49:37Z</time>
      </trkpt>
      <trkpt lat="42.93401" lon="-0.16976">
        <ele>1320</ele>
        <time>2013-11-29T12:49:50Z</time>
      </trkpt>
      <trkpt lat="42.93397" lon="-0.16973">
        <ele>1319</ele>
        <time>2013-11-29T12:50:02Z</time>
      </trkpt>
      <trkpt lat="42.93398" lon="-0.16966">
        <ele>1317</ele>
        <time>2013-11-29T12:50:16Z</time>
      </trkpt>
      <trkpt lat="42.93408" lon="-0.16961">
        <ele>1316</ele>
        <time>2013-11-29T12:50:30Z</time>
      </trkpt>
      <trkpt lat="42.93413" lon="-0.16971">
        <ele>1314</ele>
        <time>2013-11-29T12:50:46Z</time>
      </trkpt>
      <trkpt lat="42.93413" lon="-0.16976">
        <ele>1312</ele>
        <time>2013-11-29T12:50:58Z</time>
      </trkpt>
      <trkpt lat="42.93413" lon="-0.16976">
        <ele>1311</ele>
        <time>2013-11-29T12:51:01Z</time>
      </trkpt>
      <trkpt lat="42.93413" lon="-0.16976">
        <ele>1309</ele>
        <time>2013-11-29T12:51:19Z</time>
      </trkpt>
      <trkpt lat="42.93414" lon="-0.16979">
        <ele>1308</ele>
        <time>2013-11-29T12:51:22Z</time>
      </trkpt>
      <trkpt lat="42.93416" lon="-0.16983">
        <ele>1308</ele>
        <time>2013-11-29T12:51:26Z</time>
      </trkpt>
      <trkpt lat="42.93416" lon="-0.16984">
        <ele>1307</ele>
        <time>2013-11-29T12:51:27Z</time>
      </trkpt>
      <trkpt lat="42.93415" lon="-0.16993">
        <ele>1305</ele>
        <time>2013-11-29T12:51:31Z</time>
      </trkpt>
      <trkpt lat="42.93416" lon="-0.1699">
        <ele>1303</ele>
        <time>2013-11-29T12:51:42Z</time>
      </trkpt>
      <trkpt lat="42.93415" lon="-0.1699">
        <ele>1304</ele>
        <time>2013-11-29T12:51:44Z</time>
      </trkpt>
      <trkpt lat="42.93414" lon="-0.16989">
        <ele>1303</ele>
        <time>2013-11-29T12:51:56Z</time>
      </trkpt>
      <trkpt lat="42.93415" lon="-0.16987">
        <ele>1302</ele>
        <time>2013-11-29T12:52:06Z</time>
      </trkpt>
      <trkpt lat="42.93417" lon="-0.16985">
        <ele>1301</ele>
        <time>2013-11-29T12:52:11Z</time>
      </trkpt>
      <trkpt lat="42.93424" lon="-0.16989">
        <ele>1299</ele>
        <time>2013-11-29T12:52:17Z</time>
      </trkpt>
      <trkpt lat="42.93421" lon="-0.16994">
        <ele>1298</ele>
        <time>2013-11-29T12:52:32Z</time>
      </trkpt>
      <trkpt lat="42.93417" lon="-0.16996">
        <ele>1299</ele>
        <time>2013-11-29T12:52:48Z</time>
      </trkpt>
      <trkpt lat="42.93418" lon="-0.16992">
        <ele>1300</ele>
        <time>2013-11-29T12:52:58Z</time>
      </trkpt>
      <trkpt lat="42.93423" lon="-0.16986">
        <ele>1299</ele>
        <time>2013-11-29T12:53:09Z</time>
      </trkpt>
      <trkpt lat="42.93427" lon="-0.16981">
        <ele>1299</ele>
        <time>2013-11-29T12:53:17Z</time>
      </trkpt>
      <trkpt lat="42.93437" lon="-0.16971">
        <ele>1296</ele>
        <time>2013-11-29T12:53:22Z</time>
      </trkpt>
      <trkpt lat="42.93442" lon="-0.16962">
        <ele>1296</ele>
        <time>2013-11-29T12:53:33Z</time>
      </trkpt>
      <trkpt lat="42.93443" lon="-0.16952">
        <ele>1297</ele>
        <time>2013-11-29T12:53:43Z</time>
      </trkpt>
      <trkpt lat="42.93446" lon="-0.16942">
        <ele>1297</ele>
        <time>2013-11-29T12:53:56Z</time>
      </trkpt>
      <trkpt lat="42.9345" lon="-0.16943">
        <ele>1297</ele>
        <time>2013-11-29T12:54:10Z</time>
      </trkpt>
      <trkpt lat="42.93456" lon="-0.16944">
        <ele>1298</ele>
        <time>2013-11-29T12:54:27Z</time>
      </trkpt>
      <trkpt lat="42.93458" lon="-0.16945">
        <ele>1298</ele>
        <time>2013-11-29T12:54:42Z</time>
      </trkpt>
      <trkpt lat="42.93458" lon="-0.16944">
        <ele>1298</ele>
        <time>2013-11-29T12:55:01Z</time>
      </trkpt>
      <trkpt lat="42.93456" lon="-0.16937">
        <ele>1298</ele>
        <time>2013-11-29T12:55:12Z</time>
      </trkpt>
      <trkpt lat="42.93457" lon="-0.16943">
        <ele>1297</ele>
        <time>2013-11-29T12:55:24Z</time>
      </trkpt>
      <trkpt lat="42.93464" lon="-0.16948">
        <ele>1299</ele>
        <time>2013-11-29T12:55:37Z</time>
      </trkpt>
      <trkpt lat="42.9347" lon="-0.16949">
        <ele>1300</ele>
        <time>2013-11-29T12:55:44Z</time>
      </trkpt>
      <trkpt lat="42.93472" lon="-0.16954">
        <ele>1300</ele>
        <time>2013-11-29T12:55:51Z</time>
      </trkpt>
      <trkpt lat="42.93472" lon="-0.16964">
        <ele>1299</ele>
        <time>2013-11-29T12:56:05Z</time>
      </trkpt>
      <trkpt lat="42.93472" lon="-0.16971">
        <ele>1298</ele>
        <time>2013-11-29T12:56:18Z</time>
      </trkpt>
      <trkpt lat="42.93476" lon="-0.16978">
        <ele>1298</ele>
        <time>2013-11-29T12:56:27Z</time>
      </trkpt>
      <trkpt lat="42.93481" lon="-0.16982">
        <ele>1297</ele>
        <time>2013-11-29T12:56:41Z</time>
      </trkpt>
      <trkpt lat="42.9348" lon="-0.1698">
        <ele>1297</ele>
        <time>2013-11-29T12:56:59Z</time>
      </trkpt>
      <trkpt lat="42.93478" lon="-0.16977">
        <ele>1297</ele>
        <time>2013-11-29T12:57:14Z</time>
      </trkpt>
      <trkpt lat="42.93477" lon="-0.16979">
        <ele>1297</ele>
        <time>2013-11-29T12:57:30Z</time>
      </trkpt>
      <trkpt lat="42.93478" lon="-0.1698">
        <ele>1293</ele>
        <time>2013-11-29T12:57:37Z</time>
      </trkpt>
      <trkpt lat="42.93478" lon="-0.1698">
        <ele>1298</ele>
        <time>2013-11-29T12:57:38Z</time>
      </trkpt>
      <trkpt lat="42.93479" lon="-0.16981">
        <ele>1297</ele>
        <time>2013-11-29T12:57:39Z</time>
      </trkpt>
      <trkpt lat="42.93482" lon="-0.16977">
        <ele>1297</ele>
        <time>2013-11-29T12:58:07Z</time>
      </trkpt>
      <trkpt lat="42.93484" lon="-0.16976">
        <ele>1297</ele>
        <time>2013-11-29T12:58:45Z</time>
      </trkpt>
      <trkpt lat="42.93478" lon="-0.16974">
        <ele>1297</ele>
        <time>2013-11-29T12:59:19Z</time>
      </trkpt>
      <trkpt lat="42.93471" lon="-0.16968">
        <ele>1296</ele>
        <time>2013-11-29T12:59:51Z</time>
      </trkpt>
      <trkpt lat="42.93475" lon="-0.16968">
        <ele>1296</ele>
        <time>2013-11-29T13:00:26Z</time>
      </trkpt>
      <trkpt lat="42.93473" lon="-0.16975">
        <ele>1296</ele>
        <time>2013-11-29T13:01:08Z</time>
      </trkpt>
      <trkpt lat="42.93477" lon="-0.16973">
        <ele>1296</ele>
        <time>2013-11-29T13:01:43Z</time>
      </trkpt>
      <trkpt lat="42.93472" lon="-0.16968">
        <ele>1295</ele>
        <time>2013-11-29T13:02:22Z</time>
      </trkpt>
      <trkpt lat="42.93473" lon="-0.16968">
        <ele>1300</ele>
        <time>2013-11-29T13:02:33Z</time>
      </trkpt>
      <trkpt lat="42.93473" lon="-0.16968">
        <ele>1296</ele>
        <time>2013-11-29T13:02:34Z</time>
      </trkpt>
      <trkpt lat="42.93473" lon="-0.1697">
        <ele>1295</ele>
        <time>2013-11-29T13:02:35Z</time>
      </trkpt>
      <trkpt lat="42.93475" lon="-0.16972">
        <ele>1295</ele>
        <time>2013-11-29T13:02:59Z</time>
      </trkpt>
      <trkpt lat="42.93475" lon="-0.16973">
        <ele>1295</ele>
        <time>2013-11-29T13:03:25Z</time>
      </trkpt>
      <trkpt lat="42.9348" lon="-0.16968">
        <ele>1295</ele>
        <time>2013-11-29T13:03:51Z</time>
      </trkpt>
      <trkpt lat="42.93479" lon="-0.16971">
        <ele>1295</ele>
        <time>2013-11-29T13:04:24Z</time>
      </trkpt>
      <trkpt lat="42.93475" lon="-0.16967">
        <ele>1296</ele>
        <time>2013-11-29T13:04:50Z</time>
      </trkpt>
      <trkpt lat="42.93468" lon="-0.16965">
        <ele>1295</ele>
        <time>2013-11-29T13:05:13Z</time>
      </trkpt>
      <trkpt lat="42.93474" lon="-0.16969">
        <ele>1295</ele>
        <time>2013-11-29T13:05:33Z</time>
      </trkpt>
      <trkpt lat="42.93478" lon="-0.16971">
        <ele>1295</ele>
        <time>2013-11-29T13:05:56Z</time>
      </trkpt>
      <trkpt lat="42.93477" lon="-0.16969">
        <ele>1295</ele>
        <time>2013-11-29T13:06:17Z</time>
      </trkpt>
      <trkpt lat="42.93478" lon="-0.16975">
        <ele>1295</ele>
        <time>2013-11-29T13:06:32Z</time>
      </trkpt>
      <trkpt lat="42.93482" lon="-0.16972">
        <ele>1295</ele>
        <time>2013-11-29T13:06:51Z</time>
      </trkpt>
      <trkpt lat="42.93477" lon="-0.16975">
        <ele>1294</ele>
        <time>2013-11-29T13:07:05Z</time>
      </trkpt>
      <trkpt lat="42.93478" lon="-0.16977">
        <ele>1292</ele>
        <time>2013-11-29T13:07:08Z</time>
      </trkpt>
      <trkpt lat="42.93478" lon="-0.1698">
        <ele>1291</ele>
        <time>2013-11-29T13:07:18Z</time>
      </trkpt>
      <trkpt lat="42.93481" lon="-0.16983">
        <ele>1289</ele>
        <time>2013-11-29T13:07:22Z</time>
      </trkpt>
      <trkpt lat="42.93482" lon="-0.16985">
        <ele>1288</ele>
        <time>2013-11-29T13:07:25Z</time>
      </trkpt>
      <trkpt lat="42.93483" lon="-0.16989">
        <ele>1287</ele>
        <time>2013-11-29T13:07:42Z</time>
      </trkpt>
      <trkpt lat="42.93485" lon="-0.16998">
        <ele>1283</ele>
        <time>2013-11-29T13:07:45Z</time>
      </trkpt>
      <trkpt lat="42.93487" lon="-0.17001">
        <ele>1282</ele>
        <time>2013-11-29T13:07:56Z</time>
      </trkpt>
      <trkpt lat="42.93484" lon="-0.17006">
        <ele>1280</ele>
        <time>2013-11-29T13:08:08Z</time>
      </trkpt>
      <trkpt lat="42.93483" lon="-0.17007">
        <ele>1279</ele>
        <time>2013-11-29T13:08:13Z</time>
      </trkpt>
      <trkpt lat="42.93486" lon="-0.17012">
        <ele>1276</ele>
        <time>2013-11-29T13:08:17Z</time>
      </trkpt>
      <trkpt lat="42.93484" lon="-0.17018">
        <ele>1272</ele>
        <time>2013-11-29T13:08:19Z</time>
      </trkpt>
      <trkpt lat="42.93483" lon="-0.17022">
        <ele>1271</ele>
        <time>2013-11-29T13:08:20Z</time>
      </trkpt>
      <trkpt lat="42.93483" lon="-0.17023">
        <ele>1270</ele>
        <time>2013-11-29T13:08:21Z</time>
      </trkpt>
      <trkpt lat="42.93483" lon="-0.17035">
        <ele>1267</ele>
        <time>2013-11-29T13:08:25Z</time>
      </trkpt>
      <trkpt lat="42.93484" lon="-0.17042">
        <ele>1266</ele>
        <time>2013-11-29T13:08:26Z</time>
      </trkpt>
      <trkpt lat="42.93492" lon="-0.17061">
        <ele>1262</ele>
        <time>2013-11-29T13:08:29Z</time>
      </trkpt>
      <trkpt lat="42.93492" lon="-0.17065">
        <ele>1262</ele>
        <time>2013-11-29T13:08:30Z</time>
      </trkpt>
      <trkpt lat="42.93484" lon="-0.1706">
        <ele>1262</ele>
        <time>2013-11-29T13:08:34Z</time>
      </trkpt>
      <trkpt lat="42.93491" lon="-0.17066">
        <ele>1258</ele>
        <time>2013-11-29T13:08:39Z</time>
      </trkpt>
      <trkpt lat="42.93491" lon="-0.17069">
        <ele>1258</ele>
        <time>2013-11-29T13:08:40Z</time>
      </trkpt>
      <trkpt lat="42.93484" lon="-0.17072">
        <ele>1255</ele>
        <time>2013-11-29T13:08:43Z</time>
      </trkpt>
      <trkpt lat="42.93481" lon="-0.17075">
        <ele>1252</ele>
        <time>2013-11-29T13:08:44Z</time>
      </trkpt>
      <trkpt lat="42.93485" lon="-0.1708">
        <ele>1250</ele>
        <time>2013-11-29T13:08:49Z</time>
      </trkpt>
      <trkpt lat="42.93484" lon="-0.17083">
        <ele>1249</ele>
        <time>2013-11-29T13:08:50Z</time>
      </trkpt>
      <trkpt lat="42.9349" lon="-0.17095">
        <ele>1246</ele>
        <time>2013-11-29T13:08:54Z</time>
      </trkpt>
      <trkpt lat="42.93495" lon="-0.17101">
        <ele>1245</ele>
        <time>2013-11-29T13:09:02Z</time>
      </trkpt>
      <trkpt lat="42.93498" lon="-0.17117">
        <ele>1242</ele>
        <time>2013-11-29T13:09:14Z</time>
      </trkpt>
      <trkpt lat="42.93506" lon="-0.17116">
        <ele>1243</ele>
        <time>2013-11-29T13:09:27Z</time>
      </trkpt>
      <trkpt lat="42.93504" lon="-0.17142">
        <ele>1239</ele>
        <time>2013-11-29T13:09:34Z</time>
      </trkpt>
      <trkpt lat="42.93504" lon="-0.17143">
        <ele>1239</ele>
        <time>2013-11-29T13:09:35Z</time>
      </trkpt>
      <trkpt lat="42.93506" lon="-0.1715">
        <ele>1236</ele>
        <time>2013-11-29T13:09:39Z</time>
      </trkpt>
      <trkpt lat="42.9351" lon="-0.17157">
        <ele>1235</ele>
        <time>2013-11-29T13:09:52Z</time>
      </trkpt>
      <trkpt lat="42.93516" lon="-0.17156">
        <ele>1235</ele>
        <time>2013-11-29T13:10:08Z</time>
      </trkpt>
      <trkpt lat="42.93507" lon="-0.17149">
        <ele>1234</ele>
        <time>2013-11-29T13:10:22Z</time>
      </trkpt>
      <trkpt lat="42.93502" lon="-0.17144">
        <ele>1232</ele>
        <time>2013-11-29T13:10:26Z</time>
      </trkpt>
      <trkpt lat="42.93502" lon="-0.17142">
        <ele>1231</ele>
        <time>2013-11-29T13:10:29Z</time>
      </trkpt>
      <trkpt lat="42.93497" lon="-0.17148">
        <ele>1228</ele>
        <time>2013-11-29T13:10:34Z</time>
      </trkpt>
      <trkpt lat="42.9349" lon="-0.17157">
        <ele>1224</ele>
        <time>2013-11-29T13:10:39Z</time>
      </trkpt>
      <trkpt lat="42.93487" lon="-0.17161">
        <ele>1222</ele>
        <time>2013-11-29T13:10:40Z</time>
      </trkpt>
      <trkpt lat="42.93492" lon="-0.17171">
        <ele>1221</ele>
        <time>2013-11-29T13:10:45Z</time>
      </trkpt>
      <trkpt lat="42.93495" lon="-0.17171">
        <ele>1220</ele>
        <time>2013-11-29T13:10:59Z</time>
      </trkpt>
      <trkpt lat="42.93492" lon="-0.17182">
        <ele>1215</ele>
        <time>2013-11-29T13:11:04Z</time>
      </trkpt>
      <trkpt lat="42.93493" lon="-0.1719">
        <ele>1213</ele>
        <time>2013-11-29T13:11:07Z</time>
      </trkpt>
      <trkpt lat="42.93493" lon="-0.17195">
        <ele>1213</ele>
        <time>2013-11-29T13:11:24Z</time>
      </trkpt>
      <trkpt lat="42.93495" lon="-0.17197">
        <ele>1213</ele>
        <time>2013-11-29T13:11:32Z</time>
      </trkpt>
      <trkpt lat="42.93489" lon="-0.17194">
        <ele>1210</ele>
        <time>2013-11-29T13:11:39Z</time>
      </trkpt>
      <trkpt lat="42.93495" lon="-0.17202">
        <ele>1211</ele>
        <time>2013-11-29T13:11:52Z</time>
      </trkpt>
      <trkpt lat="42.93492" lon="-0.17201">
        <ele>1211</ele>
        <time>2013-11-29T13:12:05Z</time>
      </trkpt>
      <trkpt lat="42.93492" lon="-0.17202">
        <ele>1210</ele>
        <time>2013-11-29T13:12:09Z</time>
      </trkpt>
      <trkpt lat="42.93502" lon="-0.17203">
        <ele>1209</ele>
        <time>2013-11-29T13:12:14Z</time>
      </trkpt>
      <trkpt lat="42.93505" lon="-0.17207">
        <ele>1209</ele>
        <time>2013-11-29T13:12:17Z</time>
      </trkpt>
      <trkpt lat="42.93512" lon="-0.17212">
        <ele>1206</ele>
        <time>2013-11-29T13:12:23Z</time>
      </trkpt>
      <trkpt lat="42.93512" lon="-0.17216">
        <ele>1205</ele>
        <time>2013-11-29T13:12:31Z</time>
      </trkpt>
      <trkpt lat="42.93512" lon="-0.1722">
        <ele>1204</ele>
        <time>2013-11-29T13:12:33Z</time>
      </trkpt>
      <trkpt lat="42.9351" lon="-0.17221">
        <ele>1202</ele>
        <time>2013-11-29T13:12:35Z</time>
      </trkpt>
      <trkpt lat="42.93524" lon="-0.17228">
        <ele>1201</ele>
        <time>2013-11-29T13:12:48Z</time>
      </trkpt>
      <trkpt lat="42.93524" lon="-0.17229">
        <ele>1202</ele>
        <time>2013-11-29T13:12:49Z</time>
      </trkpt>
      <trkpt lat="42.93525" lon="-0.17238">
        <ele>1197</ele>
        <time>2013-11-29T13:12:54Z</time>
      </trkpt>
      <trkpt lat="42.93524" lon="-0.17239">
        <ele>1197</ele>
        <time>2013-11-29T13:12:55Z</time>
      </trkpt>
      <trkpt lat="42.93526" lon="-0.17243">
        <ele>1196</ele>
        <time>2013-11-29T13:12:57Z</time>
      </trkpt>
      <trkpt lat="42.93528" lon="-0.17246">
        <ele>1193</ele>
        <time>2013-11-29T13:13:04Z</time>
      </trkpt>
      <trkpt lat="42.93528" lon="-0.17246">
        <ele>1192</ele>
        <time>2013-11-29T13:13:05Z</time>
      </trkpt>
      <trkpt lat="42.93531" lon="-0.17255">
        <ele>1189</ele>
        <time>2013-11-29T13:13:11Z</time>
      </trkpt>
      <trkpt lat="42.93533" lon="-0.17261">
        <ele>1188</ele>
        <time>2013-11-29T13:13:19Z</time>
      </trkpt>
      <trkpt lat="42.93534" lon="-0.17273">
        <ele>1187</ele>
        <time>2013-11-29T13:13:30Z</time>
      </trkpt>
      <trkpt lat="42.93538" lon="-0.17276">
        <ele>1186</ele>
        <time>2013-11-29T13:13:38Z</time>
      </trkpt>
      <trkpt lat="42.9354" lon="-0.1728">
        <ele>1183</ele>
        <time>2013-11-29T13:13:41Z</time>
      </trkpt>
      <trkpt lat="42.9354" lon="-0.17279">
        <ele>1184</ele>
        <time>2013-11-29T13:13:42Z</time>
      </trkpt>
      <trkpt lat="42.93538" lon="-0.17278">
        <ele>1182</ele>
        <time>2013-11-29T13:13:52Z</time>
      </trkpt>
      <trkpt lat="42.93528" lon="-0.17284">
        <ele>1181</ele>
        <time>2013-11-29T13:14:07Z</time>
      </trkpt>
      <trkpt lat="42.93529" lon="-0.17282">
        <ele>1181</ele>
        <time>2013-11-29T13:14:27Z</time>
      </trkpt>
      <trkpt lat="42.93532" lon="-0.17278">
        <ele>1180</ele>
        <time>2013-11-29T13:14:50Z</time>
      </trkpt>
      <trkpt lat="42.93534" lon="-0.17282">
        <ele>1178</ele>
        <time>2013-11-29T13:15:10Z</time>
      </trkpt>
      <trkpt lat="42.9354" lon="-0.1729">
        <ele>1174</ele>
        <time>2013-11-29T13:15:21Z</time>
      </trkpt>
      <trkpt lat="42.93549" lon="-0.17301">
        <ele>1172</ele>
        <time>2013-11-29T13:15:34Z</time>
      </trkpt>
      <trkpt lat="42.93559" lon="-0.17309">
        <ele>1169</ele>
        <time>2013-11-29T13:15:46Z</time>
      </trkpt>
      <trkpt lat="42.93559" lon="-0.1731">
        <ele>1169</ele>
        <time>2013-11-29T13:15:47Z</time>
      </trkpt>
      <trkpt lat="42.93566" lon="-0.1732">
        <ele>1166</ele>
        <time>2013-11-29T13:16:00Z</time>
      </trkpt>
      <trkpt lat="42.93573" lon="-0.17331">
        <ele>1163</ele>
        <time>2013-11-29T13:16:12Z</time>
      </trkpt>
      <trkpt lat="42.93579" lon="-0.17335">
        <ele>1161</ele>
        <time>2013-11-29T13:16:19Z</time>
      </trkpt>
      <trkpt lat="42.9358" lon="-0.17338">
        <ele>1160</ele>
        <time>2013-11-29T13:16:22Z</time>
      </trkpt>
      <trkpt lat="42.93581" lon="-0.17339">
        <ele>1160</ele>
        <time>2013-11-29T13:16:23Z</time>
      </trkpt>
      <trkpt lat="42.93586" lon="-0.1735">
        <ele>1157</ele>
        <time>2013-11-29T13:16:31Z</time>
      </trkpt>
      <trkpt lat="42.93587" lon="-0.17351">
        <ele>1157</ele>
        <time>2013-11-29T13:16:32Z</time>
      </trkpt>
      <trkpt lat="42.9359" lon="-0.1736">
        <ele>1154</ele>
        <time>2013-11-29T13:16:43Z</time>
      </trkpt>
      <trkpt lat="42.93598" lon="-0.17368">
        <ele>1150</ele>
        <time>2013-11-29T13:16:54Z</time>
      </trkpt>
      <trkpt lat="42.93604" lon="-0.17373">
        <ele>1148</ele>
        <time>2013-11-29T13:16:59Z</time>
      </trkpt>
      <trkpt lat="42.93607" lon="-0.17377">
        <ele>1146</ele>
        <time>2013-11-29T13:17:05Z</time>
      </trkpt>
      <trkpt lat="42.93603" lon="-0.17384">
        <ele>1143</ele>
        <time>2013-11-29T13:17:15Z</time>
      </trkpt>
      <trkpt lat="42.93596" lon="-0.1739">
        <ele>1139</ele>
        <time>2013-11-29T13:17:25Z</time>
      </trkpt>
      <trkpt lat="42.93592" lon="-0.17397">
        <ele>1137</ele>
        <time>2013-11-29T13:17:35Z</time>
      </trkpt>
      <trkpt lat="42.93589" lon="-0.17398">
        <ele>1135</ele>
        <time>2013-11-29T13:17:38Z</time>
      </trkpt>
      <trkpt lat="42.93586" lon="-0.17402">
        <ele>1134</ele>
        <time>2013-11-29T13:17:42Z</time>
      </trkpt>
      <trkpt lat="42.93583" lon="-0.17405">
        <ele>1134</ele>
        <time>2013-11-29T13:17:44Z</time>
      </trkpt>
      <trkpt lat="42.93583" lon="-0.17417">
        <ele>1130</ele>
        <time>2013-11-29T13:17:54Z</time>
      </trkpt>
      <trkpt lat="42.9358" lon="-0.17425">
        <ele>1127</ele>
        <time>2013-11-29T13:18:06Z</time>
      </trkpt>
      <trkpt lat="42.93582" lon="-0.17436">
        <ele>1123</ele>
        <time>2013-11-29T13:18:17Z</time>
      </trkpt>
      <trkpt lat="42.93587" lon="-0.17443">
        <ele>1120</ele>
        <time>2013-11-29T13:18:27Z</time>
      </trkpt>
      <trkpt lat="42.93588" lon="-0.17444">
        <ele>1119</ele>
        <time>2013-11-29T13:18:29Z</time>
      </trkpt>
      <trkpt lat="42.93595" lon="-0.17455">
        <ele>1116</ele>
        <time>2013-11-29T13:18:39Z</time>
      </trkpt>
      <trkpt lat="42.9359" lon="-0.17461">
        <ele>1112</ele>
        <time>2013-11-29T13:18:50Z</time>
      </trkpt>
      <trkpt lat="42.9359" lon="-0.17465">
        <ele>1109</ele>
        <time>2013-11-29T13:19:01Z</time>
      </trkpt>
      <trkpt lat="42.93605" lon="-0.17521">
        <ele>1083</ele>
        <time>2013-11-29T13:20:11Z</time>
      </trkpt>
      <trkpt lat="42.93604" lon="-0.17523">
        <ele>1081</ele>
        <time>2013-11-29T13:20:19Z</time>
      </trkpt>
      <trkpt lat="42.93599" lon="-0.17526">
        <ele>1078</ele>
        <time>2013-11-29T13:20:35Z</time>
      </trkpt>
      <trkpt lat="42.93592" lon="-0.17526">
        <ele>1077</ele>
        <time>2013-11-29T13:20:51Z</time>
      </trkpt>
      <trkpt lat="42.93585" lon="-0.17531">
        <ele>1076</ele>
        <time>2013-11-29T13:21:03Z</time>
      </trkpt>
      <trkpt lat="42.93584" lon="-0.17534">
        <ele>1076</ele>
        <time>2013-11-29T13:21:05Z</time>
      </trkpt>
      <trkpt lat="42.93583" lon="-0.17546">
        <ele>1074</ele>
        <time>2013-11-29T13:21:11Z</time>
      </trkpt>
      <trkpt lat="42.93583" lon="-0.17549">
        <ele>1075</ele>
        <time>2013-11-29T13:21:13Z</time>
      </trkpt>
      <trkpt lat="42.93575" lon="-0.17559">
        <ele>1073</ele>
        <time>2013-11-29T13:21:26Z</time>
      </trkpt>
      <trkpt lat="42.93583" lon="-0.17558">
        <ele>1074</ele>
        <time>2013-11-29T13:21:47Z</time>
      </trkpt>
      <trkpt lat="42.936" lon="-0.17569">
        <ele>1074</ele>
        <time>2013-11-29T13:22:09Z</time>
      </trkpt>
      <trkpt lat="42.93603" lon="-0.17564">
        <ele>1074</ele>
        <time>2013-11-29T13:22:31Z</time>
      </trkpt>
      <trkpt lat="42.93603" lon="-0.17565">
        <ele>1073</ele>
        <time>2013-11-29T13:22:34Z</time>
      </trkpt>
      <trkpt lat="42.93604" lon="-0.17567">
        <ele>1072</ele>
        <time>2013-11-29T13:22:36Z</time>
      </trkpt>
      <trkpt lat="42.93608" lon="-0.17574">
        <ele>1071</ele>
        <time>2013-11-29T13:22:40Z</time>
      </trkpt>
      <trkpt lat="42.93608" lon="-0.17579">
        <ele>1069</ele>
        <time>2013-11-29T13:22:42Z</time>
      </trkpt>
      <trkpt lat="42.93613" lon="-0.17587">
        <ele>1065</ele>
        <time>2013-11-29T13:22:44Z</time>
      </trkpt>
      <trkpt lat="42.93615" lon="-0.1759">
        <ele>1065</ele>
        <time>2013-11-29T13:22:45Z</time>
      </trkpt>
      <trkpt lat="42.93615" lon="-0.17593">
        <ele>1064</ele>
        <time>2013-11-29T13:22:46Z</time>
      </trkpt>
      <trkpt lat="42.93618" lon="-0.17596">
        <ele>1062</ele>
        <time>2013-11-29T13:22:48Z</time>
      </trkpt>
      <trkpt lat="42.93622" lon="-0.17605">
        <ele>1060</ele>
        <time>2013-11-29T13:22:51Z</time>
      </trkpt>
      <trkpt lat="42.93624" lon="-0.17608">
        <ele>1059</ele>
        <time>2013-11-29T13:22:52Z</time>
      </trkpt>
      <trkpt lat="42.93627" lon="-0.17618">
        <ele>1056</ele>
        <time>2013-11-29T13:22:55Z</time>
      </trkpt>
      <trkpt lat="42.93634" lon="-0.17622">
        <ele>1054</ele>
        <time>2013-11-29T13:22:58Z</time>
      </trkpt>
      <trkpt lat="42.93636" lon="-0.17626">
        <ele>1052</ele>
        <time>2013-11-29T13:22:59Z</time>
      </trkpt>
      <trkpt lat="42.93638" lon="-0.17628">
        <ele>1052</ele>
        <time>2013-11-29T13:23:00Z</time>
      </trkpt>
      <trkpt lat="42.93638" lon="-0.1764">
        <ele>1049</ele>
        <time>2013-11-29T13:23:02Z</time>
      </trkpt>
      <trkpt lat="42.93634" lon="-0.17651">
        <ele>1049</ele>
        <time>2013-11-29T13:23:04Z</time>
      </trkpt>
      <trkpt lat="42.93637" lon="-0.1767">
        <ele>1046</ele>
        <time>2013-11-29T13:23:09Z</time>
      </trkpt>
      <trkpt lat="42.93638" lon="-0.17689">
        <ele>1046</ele>
        <time>2013-11-29T13:23:13Z</time>
      </trkpt>
      <trkpt lat="42.93638" lon="-0.17691">
        <ele>1044</ele>
        <time>2013-11-29T13:23:16Z</time>
      </trkpt>
      <trkpt lat="42.93638" lon="-0.17701">
        <ele>1043</ele>
        <time>2013-11-29T13:23:20Z</time>
      </trkpt>
      <trkpt lat="42.93638" lon="-0.17713">
        <ele>1039</ele>
        <time>2013-11-29T13:23:24Z</time>
      </trkpt>
      <trkpt lat="42.93638" lon="-0.17715">
        <ele>1040</ele>
        <time>2013-11-29T13:23:25Z</time>
      </trkpt>
      <trkpt lat="42.93629" lon="-0.1771">
        <ele>1039</ele>
        <time>2013-11-29T13:23:28Z</time>
      </trkpt>
      <trkpt lat="42.93619" lon="-0.17713">
        <ele>1036</ele>
        <time>2013-11-29T13:23:34Z</time>
      </trkpt>
      <trkpt lat="42.93615" lon="-0.17714">
        <ele>1035</ele>
        <time>2013-11-29T13:23:37Z</time>
      </trkpt>
      <trkpt lat="42.93609" lon="-0.17729">
        <ele>1032</ele>
        <time>2013-11-29T13:23:41Z</time>
      </trkpt>
      <trkpt lat="42.93608" lon="-0.17744">
        <ele>1026</ele>
        <time>2013-11-29T13:23:44Z</time>
      </trkpt>
      <trkpt lat="42.93608" lon="-0.17749">
        <ele>1024</ele>
        <time>2013-11-29T13:23:46Z</time>
      </trkpt>
      <trkpt lat="42.93607" lon="-0.17751">
        <ele>1024</ele>
        <time>2013-11-29T13:23:47Z</time>
      </trkpt>
      <trkpt lat="42.93607" lon="-0.17755">
        <ele>1023</ele>
        <time>2013-11-29T13:23:48Z</time>
      </trkpt>
      <trkpt lat="42.9361" lon="-0.17763">
        <ele>1022</ele>
        <time>2013-11-29T13:23:50Z</time>
      </trkpt>
      <trkpt lat="42.93612" lon="-0.17769">
        <ele>1021</ele>
        <time>2013-11-29T13:23:52Z</time>
      </trkpt>
      <trkpt lat="42.93611" lon="-0.17772">
        <ele>1019</ele>
        <time>2013-11-29T13:23:53Z</time>
      </trkpt>
      <trkpt lat="42.93613" lon="-0.17786">
        <ele>1017</ele>
        <time>2013-11-29T13:23:56Z</time>
      </trkpt>
      <trkpt lat="42.93611" lon="-0.1779">
        <ele>1015</ele>
        <time>2013-11-29T13:23:57Z</time>
      </trkpt>
      <trkpt lat="42.93594" lon="-0.17811">
        <ele>1012</ele>
        <time>2013-11-29T13:24:04Z</time>
      </trkpt>
      <trkpt lat="42.93593" lon="-0.17811">
        <ele>1012</ele>
        <time>2013-11-29T13:24:10Z</time>
      </trkpt>
      <trkpt lat="42.93585" lon="-0.17818">
        <ele>1009</ele>
        <time>2013-11-29T13:24:15Z</time>
      </trkpt>
      <trkpt lat="42.93583" lon="-0.17821">
        <ele>1010</ele>
        <time>2013-11-29T13:24:16Z</time>
      </trkpt>
      <trkpt lat="42.93361" lon="-0.17851">
        <ele>1018</ele>
        <time>2013-11-29T13:31:41Z</time>
      </trkpt>
      <trkpt lat="42.9336" lon="-0.17851">
        <ele>1019</ele>
        <time>2013-11-29T13:32:01Z</time>
      </trkpt>
    </trkseg>
  </trk>
</gpx>